UA2041 / N38454 7700 Squawk Report (26th of July, 2021)

Aircraft B739 Reg No. N38454 Age 9 years old
Model 737 Jet engines 2 First flight 29-05-12
Registered 05-01-12 Rollout 21-05-12 Delivered 13-06-12
Construction No. 31640 Line No. 4068 Series 924(ER)
ADSHEX A46D4A Airline name United Airlines Owner N/A
Airfield based Houston-George Bush Intercontinental~TX~N First tracked N/A

Flight history for N38454

Route Flight No Date Playback
Los Angeles Intl (LAX) - George Bush Intercontinental (IAH) UA1535 2021-09-17 22:10:00
George Bush Intercontinental (IAH) - Los Angeles Intl (LAX) UA1647 2021-09-17 19:04:00
Louis Armstrong New Orleans Intl (MSY) - George Bush Intercontinental (IAH) UA274 2021-09-17 13:14:00
George Bush Intercontinental (IAH) - Louis Armstrong New Orleans Intl (MSY) UA297 2021-09-17 00:39:00
Orlando Intl (MCO) - George Bush Intercontinental (IAH) UA2425 2021-09-16 22:12:00
Chicago Ohare Intl (ORD) - Orlando Intl (MCO) UA1084 2021-09-16 18:31:00
Austin Bergstrom Intl (AUS) - Chicago Ohare Intl (ORD) UA208 2021-09-16 14:32:00
Chicago Ohare Intl (ORD) - Austin Bergstrom Intl (AUS) UA1424 2021-09-16 12:16:00
Orlando Intl (MCO) - Chicago Ohare Intl (ORD) UA1828 2021-09-15 23:46:00
Newark Liberty Intl (EWR) - Orlando Intl (MCO) UA1929 2021-09-15 19:23:00
Orlando Intl (MCO) - Newark Liberty Intl (EWR) UA1730 2021-09-15 15:28:00
Denver Intl (DEN) - Orlando Intl (MCO) UA259 2021-09-15 03:45:00
Seattle Tacoma Intl (SEA) - Denver Intl (DEN) UA2493 2021-09-14 23:22:00
George Bush Intercontinental (IAH) - Seattle Tacoma Intl (SEA) UA1289 2021-09-14 19:41:00
Cancun Intl (CUN) - George Bush Intercontinental (IAH) UA1019 2021-09-13 22:49:00
George Bush Intercontinental (IAH) - Cancun Intl (CUN) UA1016 2021-09-13 17:55:00
Logan International Airport (BOS) - George Bush Intercontinental (IAH) UA276 2021-09-13 04:06:00
Washington Dulles International (IAD) - Logan International Airport (BOS) UA688 2021-09-12 23:13:00
San Diego Intl (SAN) - Washington Dulles International (IAD) UA546 2021-09-12 20:12:00
Chicago Ohare Intl (ORD) - San Diego Intl (SAN) UA1065 2021-09-12 00:52:00
Time Lat Lon Altitude Heading Speed Vertical Rate
2021-07-27 01:19:44 GMT 39.178551 -76.664093 0 331 5 0
2021-07-27 01:19:43 GMT 39.178532 -76.664070 0 331 5 0
2021-07-27 01:19:42 GMT 39.178509 -76.664062 0 331 5 0
2021-07-27 01:19:41 GMT 39.178490 -76.664047 0 331 5 0
2021-07-27 01:19:39 GMT 39.178452 -76.664032 0 328 5 0
2021-07-27 01:19:38 GMT 39.178429 -76.664017 0 327 5 0
2021-07-27 01:19:37 GMT 39.178410 -76.664009 0 325 5 0
2021-07-27 01:19:35 GMT 39.178371 -76.663986 0 322 5 0
2021-07-27 01:19:34 GMT 39.178349 -76.663979 0 319 5 0
2021-07-27 01:19:33 GMT 39.178329 -76.663963 0 317 5 0
2021-07-27 01:19:32 GMT 39.178310 -76.663948 0 314 5 0
2021-07-27 01:19:30 GMT 39.178268 -76.663933 0 311 6 0
2021-07-27 01:19:29 GMT 39.178249 -76.663918 0 309 6 0
2021-07-27 01:19:27 GMT 39.178211 -76.663879 0 307 6 0
2021-07-27 01:19:26 GMT 39.178188 -76.663857 0 307 6 0
2021-07-27 01:19:25 GMT 39.178181 -76.663834 0 307 6 0
2021-07-27 01:19:23 GMT 39.178139 -76.663773 0 307 6 0
2021-07-27 01:19:22 GMT 39.178131 -76.663727 0 307 6 0
2021-07-27 01:19:21 GMT 39.178108 -76.663712 0 306 6 0
2021-07-27 01:19:20 GMT 39.178089 -76.663673 0 304 6 0
2021-07-27 01:19:18 GMT 39.178051 -76.663628 0 300 6 0
2021-07-27 01:19:17 GMT 39.178028 -76.663597 0 298 6 0
2021-07-27 01:19:16 GMT 39.178009 -76.663567 0 295 6 0
2021-07-27 01:19:15 GMT 39.177990 -76.663551 0 295 7 0
2021-07-27 01:19:13 GMT 39.177979 -76.663467 0 317 7 0
2021-07-27 01:19:12 GMT 39.177971 -76.663452 0 319 10 0
2021-07-27 01:19:11 GMT 39.177940 -76.663406 0 314 7 0
2021-07-27 01:19:10 GMT 39.177910 -76.663391 0 301 9 0
2021-07-27 01:19:08 GMT 39.177849 -76.663277 0 286 4 0
2021-07-27 01:19:06 GMT 39.177849 -76.663269 0 292 12 0
2021-07-27 01:19:05 GMT 39.177841 -76.663193 0 300 11 0
2021-07-27 01:19:04 GMT 39.177792 -76.663071 0 283 9 0
2021-07-27 01:19:02 GMT 39.177761 -76.663033 0 279 8 0
2021-07-27 01:19:01 GMT 39.177750 -76.663002 0 284 11 0
2021-07-27 01:18:59 GMT 39.177750 -76.662888 0 298 11 0
2021-07-27 01:18:58 GMT 39.177711 -76.662849 0 292 11 0
2021-07-27 01:18:57 GMT 39.177689 -76.662743 0 308 3 0
2021-07-27 01:18:56 GMT 39.177689 -76.662758 0 299 10 0
2021-07-27 01:18:54 GMT 39.177662 -76.662643 0 320 7 0
2021-07-27 01:18:53 GMT 39.177620 -76.662628 0 304 6 0
2021-07-27 01:18:52 GMT 39.177589 -76.662567 0 285 8 0
2021-07-27 01:18:50 GMT 39.177570 -76.662521 0 257 5 0
2021-07-27 01:18:49 GMT 39.177570 -76.662498 0 219 6 0
2021-07-27 01:18:48 GMT 39.177540 -76.662453 0 172 4 0
2021-07-27 01:18:47 GMT 39.177528 -76.662399 0 172 0 0
2021-07-27 01:18:46 GMT 39.177521 -76.662399 0 172 0 0
2021-07-27 01:18:43 GMT 39.177509 -76.662399 0 172 1 0
2021-07-27 01:18:41 GMT 39.177521 -76.662369 0 201 4 0
2021-07-27 01:18:38 GMT 39.177570 -76.662407 0 201 0 0
2021-07-27 01:18:37 GMT 39.177582 -76.662430 0 201 2 0
2021-07-27 01:18:35 GMT 39.177559 -76.662399 0 201 1 0
2021-07-27 01:18:34 GMT 39.177551 -76.662376 0 201 1 0
2021-07-27 01:18:33 GMT 39.177559 -76.662422 0 201 2 0
2021-07-27 01:18:32 GMT 39.177540 -76.662399 0 201 0 0
2021-07-27 01:18:30 GMT 39.177540 -76.662392 0 201 0 0
2021-07-27 01:18:29 GMT 39.177528 -76.662392 0 201 0 0
2021-07-27 01:18:28 GMT 39.177551 -76.662392 0 201 2 0
2021-07-27 01:18:27 GMT 39.177521 -76.662376 0 201 0 0
2021-07-27 01:18:25 GMT 39.177540 -76.662399 0 201 0 0
2021-07-27 01:18:24 GMT 39.177540 -76.662430 0 201 3 0
2021-07-27 01:18:23 GMT 39.177540 -76.662407 0 201 3 0
2021-07-27 01:18:22 GMT 39.177528 -76.662392 0 201 1 0
2021-07-27 01:18:20 GMT 39.177502 -76.662354 0 201 3 0
2021-07-27 01:18:19 GMT 39.177521 -76.662376 0 201 0 0
2021-07-27 01:18:18 GMT 39.177509 -76.662399 0 201 2 0
2021-07-27 01:18:17 GMT 39.177559 -76.662392 0 201 1 0
2021-07-27 01:18:15 GMT 39.177540 -76.662369 0 201 2 0
2021-07-27 01:18:13 GMT 39.177540 -76.662407 0 201 2 0
2021-07-27 01:18:12 GMT 39.177540 -76.662376 0 201 2 0
2021-07-27 01:18:11 GMT 39.177551 -76.662399 0 201 3 0
2021-07-27 01:18:10 GMT 39.177502 -76.662369 0 201 0 0
2021-07-27 01:18:08 GMT 39.177479 -76.662369 0 201 3 0
2021-07-27 01:18:07 GMT 39.177502 -76.662376 0 201 0 0
2021-07-27 01:18:06 GMT 39.177490 -76.662361 0 201 3 0
2021-07-27 01:18:05 GMT 39.177509 -76.662392 0 201 0 0
2021-07-27 01:18:03 GMT 39.177521 -76.662376 0 201 2 0
2021-07-27 01:18:02 GMT 39.177540 -76.662407 0 201 1 0
2021-07-27 01:18:01 GMT 39.177528 -76.662422 0 201 2 0
2021-07-27 01:17:59 GMT 39.177502 -76.662369 0 201 0 0
2021-07-27 01:17:58 GMT 39.177502 -76.662399 0 201 2 0
2021-07-27 01:17:56 GMT 39.177521 -76.662361 0 201 2 0
2021-07-27 01:17:55 GMT 39.177528 -76.662361 0 201 2 0
2021-07-27 01:17:54 GMT 39.177528 -76.662369 0 201 2 0
2021-07-27 01:17:53 GMT 39.177540 -76.662361 0 201 3 0
2021-07-27 01:17:52 GMT 39.177559 -76.662407 0 201 2 0
2021-07-27 01:17:50 GMT 39.177528 -76.662392 0 201 1 0
2021-07-27 01:17:49 GMT 39.177540 -76.662430 0 201 3 0
2021-07-27 01:17:48 GMT 39.177540 -76.662399 0 201 1 0
2021-07-27 01:17:46 GMT 39.177521 -76.662399 0 201 2 0
2021-07-27 01:17:45 GMT 39.177551 -76.662376 0 199 0 0
2021-07-27 01:17:44 GMT 39.177551 -76.662392 0 199 2 0
2021-07-27 01:17:43 GMT 39.177540 -76.662369 0 199 0 0
2021-07-27 01:17:42 GMT 39.177528 -76.662369 0 199 0 0
2021-07-27 01:17:39 GMT 39.177540 -76.662376 0 199 0 0
2021-07-27 01:17:37 GMT 39.177540 -76.662361 0 199 2 0
2021-07-27 01:17:36 GMT 39.177528 -76.662361 0 213 3 0
2021-07-27 01:17:35 GMT 39.177559 -76.662399 0 213 2 0
2021-07-27 01:17:32 GMT 39.177540 -76.662407 0 213 0 0
2021-07-27 01:17:31 GMT 39.177551 -76.662430 0 213 0 0
2021-07-27 01:17:30 GMT 39.177551 -76.662392 0 198 0 0
2021-07-27 01:17:28 GMT 39.177540 -76.662369 0 198 3 0
2021-07-27 01:17:27 GMT 39.177570 -76.662430 0 304 0 0
2021-07-27 01:17:26 GMT 39.177582 -76.662453 0 300 5 0
2021-07-27 01:17:25 GMT 39.177551 -76.662399 0 300 0 0
2021-07-27 01:17:23 GMT 39.177559 -76.662407 0 298 3 0
2021-07-27 01:17:22 GMT 39.177540 -76.662369 0 295 0 0
2021-07-27 01:17:21 GMT 39.177540 -76.662376 0 295 0 0
2021-07-27 01:17:19 GMT 39.177551 -76.662376 0 295 4 0
2021-07-27 01:17:18 GMT 39.177521 -76.662361 0 295 0 0
2021-07-27 01:17:17 GMT 39.177521 -76.662392 0 287 6 0
2021-07-27 01:17:16 GMT 39.177509 -76.662354 0 299 4 0
2021-07-27 01:17:15 GMT 39.177509 -76.662308 0 299 1 0
2021-07-27 01:17:14 GMT 39.177490 -76.662300 0 297 6 0
2021-07-27 01:17:12 GMT 39.177490 -76.662262 0 305 5 0
2021-07-27 01:17:11 GMT 39.177471 -76.662262 0 295 6 0
2021-07-27 01:17:10 GMT 39.177460 -76.662209 0 297 6 0
2021-07-27 01:17:09 GMT 39.177429 -76.662170 0 290 5 0
2021-07-27 01:17:07 GMT 39.177429 -76.662163 0 290 8 0
2021-07-27 01:17:06 GMT 39.177422 -76.662109 0 298 9 0
2021-07-27 01:17:05 GMT 39.177391 -76.662079 0 279 8 0
2021-07-27 01:17:03 GMT 39.177399 -76.661987 0 304 14 0
2021-07-27 01:17:02 GMT 39.177349 -76.661911 0 294 10 0
2021-07-27 01:17:01 GMT 39.177341 -76.661850 0 295 10 0
2021-07-27 01:17:00 GMT 39.177292 -76.661797 0 283 9 0
2021-07-27 01:16:59 GMT 39.177319 -76.661751 0 302 11 0
2021-07-27 01:16:57 GMT 39.177261 -76.661659 0 298 12 0
2021-07-27 01:16:56 GMT 39.177231 -76.661598 0 299 13 0
2021-07-27 01:16:55 GMT 39.177212 -76.661507 0 310 12 0
2021-07-27 01:16:54 GMT 39.177132 -76.661430 0 292 14 0
2021-07-27 01:16:52 GMT 39.177101 -76.661339 0 289 11 0
2021-07-27 01:16:51 GMT 39.177078 -76.661324 0 282 15 0
2021-07-27 01:16:50 GMT 39.177101 -76.661209 0 302 14 0
2021-07-27 01:16:48 GMT 39.177010 -76.661049 0 297 9 0
2021-07-27 01:16:47 GMT 39.177010 -76.661034 0 300 13 0
2021-07-27 01:16:46 GMT 39.176979 -76.660980 0 302 14 0
2021-07-27 01:16:45 GMT 39.176941 -76.660896 0 294 12 0
2021-07-27 01:16:43 GMT 39.176899 -76.660782 0 299 13 0
2021-07-27 01:16:42 GMT 39.176868 -76.660690 0 292 11 0
2021-07-27 01:16:41 GMT 39.176842 -76.660629 0 292 12 0
2021-07-27 01:16:39 GMT 39.176819 -76.660500 0 309 13 0
2021-07-27 01:16:38 GMT 39.176731 -76.660362 0 298 10 0
2021-07-27 01:16:36 GMT 39.176708 -76.660347 0 293 14 0
2021-07-27 01:16:35 GMT 39.176670 -76.660248 0 293 11 0
2021-07-27 01:16:34 GMT 39.176640 -76.660118 0 298 7 0
2021-07-27 01:16:32 GMT 39.176620 -76.660118 0 294 11 0
2021-07-27 01:16:31 GMT 39.176601 -76.660072 0 287 13 0
2021-07-27 01:16:30 GMT 39.176601 -76.659988 0 300 14 0
2021-07-27 01:16:29 GMT 39.176540 -76.659897 0 286 10 0
2021-07-27 01:16:28 GMT 39.176540 -76.659851 0 291 10 0
2021-07-27 01:16:26 GMT 39.176510 -76.659737 0 296 13 0
2021-07-27 01:16:25 GMT 39.176498 -76.659683 0 307 13 0
2021-07-27 01:16:24 GMT 39.176460 -76.659599 0 306 11 0
2021-07-27 01:16:23 GMT 39.176418 -76.659554 0 303 11 0
2021-07-27 01:16:21 GMT 39.176361 -76.659477 0 292 13 0
2021-07-27 01:16:20 GMT 39.176338 -76.659409 0 295 15 0
2021-07-27 01:16:19 GMT 39.176311 -76.659302 0 307 10 0
2021-07-27 01:16:18 GMT 39.176270 -76.659248 0 303 10 0
2021-07-27 01:16:16 GMT 39.176231 -76.659149 0 298 11 0
2021-07-27 01:16:15 GMT 39.176208 -76.659103 0 306 12 0
2021-07-27 01:16:14 GMT 39.176189 -76.659027 0 318 12 0
2021-07-27 01:16:12 GMT 39.176109 -76.658920 0 317 6 0
2021-07-27 01:16:11 GMT 39.176090 -76.658913 0 321 7 0
2021-07-27 01:16:10 GMT 39.176071 -76.658859 0 330 7 0
2021-07-27 01:16:09 GMT 39.176029 -76.658852 0 318 7 0
2021-07-27 01:16:07 GMT 39.175968 -76.658768 0 336 11 0
2021-07-27 01:16:06 GMT 39.175919 -76.658707 0 337 9 0
2021-07-27 01:16:05 GMT 39.175892 -76.658699 0 346 10 0
2021-07-27 01:16:04 GMT 39.175789 -76.658669 0 352 6 0
2021-07-27 01:16:03 GMT 39.175781 -76.658661 0 2 8 0
2021-07-27 01:16:01 GMT 39.175732 -76.658661 0 3 6 0
2021-07-27 01:16:00 GMT 39.175720 -76.658669 0 0 10 0
2021-07-27 01:15:59 GMT 39.175671 -76.658653 0 8 10 0
2021-07-27 01:15:57 GMT 39.175579 -76.658661 0 6 9 0
2021-07-27 01:15:56 GMT 39.175541 -76.658684 0 1 10 0
2021-07-27 01:15:55 GMT 39.175499 -76.658684 0 6 11 0
2021-07-27 01:15:54 GMT 39.175442 -76.658684 0 14 10 0
2021-07-27 01:15:53 GMT 39.175388 -76.658691 0 15 8 0
2021-07-27 01:15:51 GMT 39.175308 -76.658722 0 6 5 0
2021-07-27 01:15:50 GMT 39.175289 -76.658722 0 8 8 0
2021-07-27 01:15:49 GMT 39.175251 -76.658737 0 2 7 0
2021-07-27 01:15:48 GMT 39.175201 -76.658760 0 353 7 0
2021-07-27 01:15:46 GMT 39.175159 -76.658737 0 358 6 0
2021-07-27 01:15:45 GMT 39.175140 -76.658752 0 351 7 0
2021-07-27 01:15:44 GMT 39.175098 -76.658752 0 352 6 0
2021-07-27 01:15:41 GMT 39.175018 -76.658730 0 322 3 0
2021-07-27 01:15:40 GMT 39.175011 -76.658737 0 339 6 0
2021-07-27 01:15:39 GMT 39.174950 -76.658691 0 6 9 0
2021-07-27 01:15:37 GMT 39.174911 -76.658699 0 343 11 0
2021-07-27 01:15:36 GMT 39.174850 -76.658752 0 329 9 0
2021-07-27 01:15:35 GMT 39.174831 -76.658722 0 329 9 0
2021-07-27 01:15:33 GMT 39.174751 -76.658653 0 332 9 0
2021-07-27 01:15:32 GMT 39.174690 -76.658623 0 310 6 0
2021-07-27 01:15:31 GMT 39.174679 -76.658600 0 330 11 0
2021-07-27 01:15:29 GMT 39.174622 -76.658531 0 336 4 0
2021-07-27 01:15:28 GMT 39.174610 -76.658562 0 330 10 0
2021-07-27 01:15:27 GMT 39.174599 -76.658531 0 340 11 0
2021-07-27 01:15:26 GMT 39.174530 -76.658470 0 3 8 0
2021-07-27 01:15:24 GMT 39.174461 -76.658470 0 15 8 0
2021-07-27 01:15:23 GMT 39.174412 -76.658447 0 22 5 0
2021-07-27 01:15:21 GMT 39.174381 -76.658478 0 50 9 0
2021-07-27 01:15:20 GMT 39.174320 -76.658478 0 67 7 0
2021-07-27 01:15:19 GMT 39.174339 -76.658531 0 48 9 0
2021-07-27 01:15:18 GMT 39.174259 -76.658577 0 60 12 0
2021-07-27 01:15:16 GMT 39.174271 -76.658661 0 57 10 0
2021-07-27 01:15:15 GMT 39.174221 -76.658691 0 52 11 0
2021-07-27 01:15:14 GMT 39.174221 -76.658737 0 51 12 0
2021-07-27 01:15:13 GMT 39.174141 -76.658867 0 36 10 0
2021-07-27 01:15:11 GMT 39.174110 -76.658920 0 25 10 0
2021-07-27 01:15:10 GMT 39.174080 -76.658951 0 21 12 0
2021-07-27 01:15:09 GMT 39.173981 -76.659019 0 10 15 0
2021-07-27 01:15:07 GMT 39.173901 -76.659050 0 0 14 0
2021-07-27 01:15:06 GMT 39.173820 -76.659073 0 352 11 0
2021-07-27 01:15:05 GMT 39.173752 -76.659042 0 11 10 0
2021-07-27 01:15:03 GMT 39.173679 -76.659050 0 2 17 0
2021-07-27 01:15:02 GMT 39.173599 -76.659050 0 5 16 0
2021-07-27 01:15:01 GMT 39.173538 -76.659058 0 8 16 0
2021-07-27 01:15:00 GMT 39.173450 -76.659103 0 11 14 0
2021-07-27 01:14:58 GMT 39.173351 -76.659088 0 24 17 0
2021-07-27 01:14:57 GMT 39.173271 -76.659172 0 31 13 0
2021-07-27 01:14:56 GMT 39.173199 -76.659180 0 49 13 0
2021-07-27 01:14:55 GMT 39.173100 -76.659302 0 66 14 0
2021-07-27 01:14:53 GMT 39.173069 -76.659370 0 73 16 0
2021-07-27 01:14:52 GMT 39.173019 -76.659470 0 85 16 0
2021-07-27 01:14:51 GMT 39.173019 -76.659554 0 91 19 0
2021-07-27 01:14:50 GMT 39.173038 -76.659637 0 88 22 0
2021-07-27 01:14:48 GMT 39.173038 -76.659859 0 88 29 0
2021-07-27 01:14:47 GMT 39.173012 -76.660049 0 98 26 0
2021-07-27 01:14:45 GMT 39.173019 -76.660332 0 101 31 0
2021-07-27 01:14:43 GMT 39.173100 -76.660698 0 94 34 0
2021-07-27 01:14:42 GMT 39.173111 -76.660896 0 93 35 0
2021-07-27 01:14:41 GMT 39.173119 -76.661102 0 91 36 0
2021-07-27 01:14:40 GMT 39.173130 -76.661491 0 93 37 0
2021-07-27 01:14:38 GMT 39.173141 -76.661697 0 93 37 0
2021-07-27 01:14:37 GMT 39.173168 -76.661919 0 89 37 0
2021-07-27 01:14:36 GMT 39.173141 -76.662109 0 97 43 0
2021-07-27 01:14:34 GMT 39.173180 -76.662590 0 98 36 0
2021-07-27 01:14:33 GMT 39.173229 -76.662781 0 89 39 0
2021-07-27 01:14:32 GMT 39.173210 -76.663033 0 95 37 0
2021-07-27 01:14:31 GMT 39.173229 -76.663261 0 96 37 0
2021-07-27 01:14:29 GMT 39.173271 -76.663681 0 92 38 0
2021-07-27 01:14:28 GMT 39.173279 -76.663879 0 89 42 0
2021-07-27 01:14:27 GMT 39.173271 -76.664139 0 91 36 0
2021-07-27 01:14:25 GMT 39.173279 -76.664581 0 94 38 0
2021-07-27 01:14:24 GMT 39.173290 -76.664818 0 95 35 0
2021-07-27 01:14:23 GMT 39.173302 -76.665062 0 96 34 0
2021-07-27 01:14:21 GMT 39.173328 -76.665489 0 97 36 0
2021-07-27 01:14:20 GMT 39.173359 -76.665749 0 95 34 0
2021-07-27 01:14:19 GMT 39.173382 -76.665970 0 94 35 128
2021-07-27 01:14:17 GMT 39.173401 -76.666420 0 95 40 128
2021-07-27 01:14:16 GMT 39.173431 -76.666618 0 94 45 128
2021-07-27 01:14:15 GMT 39.173431 -76.666870 0 95 51 128
2021-07-27 01:14:14 GMT 39.173489 -76.667427 0 93 64 0
2021-07-27 01:14:12 GMT 39.173512 -76.667839 0 92 67 0
2021-07-27 01:14:11 GMT 39.173512 -76.668221 0 93 71 0
2021-07-27 01:14:10 GMT 39.173519 -76.668633 0 94 76 0
2021-07-27 01:14:08 GMT 39.173561 -76.669502 75 94 89 0
2021-07-27 01:14:07 GMT 39.173580 -76.670029 75 95 91 0
2021-07-27 01:14:06 GMT 39.173660 -76.670547 75 93 99 0
2021-07-27 01:14:05 GMT 39.173660 -76.671120 75 94 103 352
2021-07-27 01:14:04 GMT 39.173710 -76.671722 75 94 107 352
2021-07-27 01:14:02 GMT 39.173790 -76.672913 75 93 123 352
2021-07-27 01:14:01 GMT 39.173828 -76.673576 75 93 128 -1056
2021-07-27 01:14:00 GMT 39.173882 -76.675056 100 94 136 -1056
2021-07-27 01:13:58 GMT 39.173939 -76.675850 100 94 138 768
2021-07-27 01:13:57 GMT 39.173988 -76.676613 100 93 145 768
2021-07-27 01:13:56 GMT 39.174019 -76.677513 100 94 140 768
2021-07-27 01:13:55 GMT 39.174061 -76.678368 100 95 139 -416
2021-07-27 01:13:54 GMT 39.174149 -76.679916 100 95 149 -416
2021-07-27 01:13:52 GMT 39.174221 -76.680847 100 95 144 -416
2021-07-27 01:13:50 GMT 39.174381 -76.682503 200 93 153 -416
2021-07-27 01:13:49 GMT 39.174431 -76.683449 200 93 151 -416
2021-07-27 01:13:48 GMT 39.174480 -76.684341 200 93 152 -416
2021-07-27 01:13:47 GMT 39.174530 -76.685257 200 93 150 -416
2021-07-27 01:13:45 GMT 39.174629 -76.687088 200 92 146 -416
2021-07-27 01:13:44 GMT 39.174671 -76.687988 200 92 145 -416
2021-07-27 01:13:43 GMT 39.174648 -76.689728 200 95 146 -416
2021-07-27 01:13:41 GMT 39.174721 -76.690582 300 96 146 -416
2021-07-27 01:13:39 GMT 39.174870 -76.692268 300 94 159 -416
2021-07-27 01:13:38 GMT 39.174919 -76.693161 300 94 159 -480
2021-07-27 01:13:37 GMT 39.174980 -76.694107 300 94 157 -480
2021-07-27 01:13:36 GMT 39.174999 -76.695007 300 96 161 -480
2021-07-27 01:13:35 GMT 39.175110 -76.695999 300 95 152 -480
2021-07-27 01:13:33 GMT 39.175228 -76.697731 300 94 157 -480
2021-07-27 01:13:32 GMT 39.175251 -76.698669 550 96 156 -480
2021-07-27 01:13:31 GMT 39.175270 -76.699707 550 97 148 -480
2021-07-27 01:13:29 GMT 39.175541 -76.702362 550 94 145 -480
2021-07-27 01:13:27 GMT 39.175610 -76.703239 550 92 142 -480
2021-07-27 01:13:26 GMT 39.175621 -76.704140 550 93 140 -480
2021-07-27 01:13:25 GMT 39.175659 -76.704933 550 93 144 -480
2021-07-27 01:13:23 GMT 39.175800 -76.706490 550 91 156 -480
2021-07-27 01:13:22 GMT 39.175819 -76.707336 550 91 158 -480
2021-07-27 01:13:21 GMT 39.175789 -76.708260 550 94 156 -480
2021-07-27 01:13:20 GMT 39.175892 -76.709129 550 93 157 -480
2021-07-27 01:13:19 GMT 39.175911 -76.710228 550 94 147 -480
2021-07-27 01:13:17 GMT 39.176010 -76.711922 550 95 155 -736
2021-07-27 01:13:16 GMT 39.176151 -76.712891 550 91 147 -736
2021-07-27 01:13:15 GMT 39.176121 -76.713730 550 96 149 -736
2021-07-27 01:13:14 GMT 39.176182 -76.714546 550 97 157 -736
2021-07-27 01:13:12 GMT 39.176319 -76.716347 1,550 95 150 -736
2021-07-27 01:13:11 GMT 39.176411 -76.717232 1,550 94 151 -736
2021-07-27 01:13:10 GMT 39.176472 -76.718071 1,550 93 156 -736
2021-07-27 01:13:09 GMT 39.176521 -76.719040 1,550 93 152 -736
2021-07-27 01:13:07 GMT 39.176609 -76.720901 1,550 94 148 -480
2021-07-27 01:13:06 GMT 39.176670 -76.721771 1,550 93 149 -480
2021-07-27 01:13:05 GMT 39.176720 -76.722641 1,550 93 150 -480
2021-07-27 01:13:04 GMT 39.176750 -76.723511 1,550 93 151 -480
2021-07-27 01:13:02 GMT 39.176861 -76.725327 1,550 93 150 -480
2021-07-27 01:13:01 GMT 39.176899 -76.726219 1,550 93 150 -480
2021-07-27 01:12:59 GMT 39.176971 -76.728020 1,550 94 150 -480
2021-07-27 01:12:57 GMT 39.177078 -76.729759 1,550 94 153 -480
2021-07-27 01:12:56 GMT 39.177120 -76.730652 1,550 94 154 -480
2021-07-27 01:12:55 GMT 39.177158 -76.731644 1,550 95 147 -480
2021-07-27 01:12:53 GMT 39.177341 -76.733437 1,550 93 148 -480
2021-07-27 01:12:52 GMT 39.177391 -76.734268 1,550 93 150 -480
2021-07-27 01:12:51 GMT 39.177429 -76.735252 1,550 93 145 -480
2021-07-27 01:12:50 GMT 39.177471 -76.736038 1,550 93 150 -480
2021-07-27 01:12:48 GMT 39.177521 -76.737778 1,550 93 153 -480
2021-07-27 01:12:47 GMT 39.177608 -76.739609 1,550 93 150 -480
2021-07-27 01:12:45 GMT 39.177639 -76.740509 1,550 94 149 -480
2021-07-27 01:12:44 GMT 39.177689 -76.741402 1,550 94 149 -480
2021-07-27 01:12:43 GMT 39.177731 -76.742271 1,550 94 150 -480
2021-07-27 01:12:41 GMT 39.177818 -76.744072 1,550 94 150 -480
2021-07-27 01:12:40 GMT 39.177910 -76.744919 1,550 93 152 -480
2021-07-27 01:12:39 GMT 39.177959 -76.745857 1,550 93 150 -480
2021-07-27 01:12:38 GMT 39.177990 -76.746841 1,550 94 144 -480
2021-07-27 01:12:37 GMT 39.178101 -76.748489 1,550 93 149 -480
2021-07-27 01:12:35 GMT 39.178150 -76.749390 1,550 93 148 -480
2021-07-27 01:12:34 GMT 39.178211 -76.750259 1,550 93 150 -480
2021-07-27 01:12:32 GMT 39.178329 -76.752922 1,550 94 146 -480
2021-07-27 01:12:30 GMT 39.178391 -76.753723 1,550 93 150 -480
2021-07-27 01:12:29 GMT 39.178429 -76.754646 1,550 93 147 -480
2021-07-27 01:12:28 GMT 39.178459 -76.755508 1,550 93 148 -480
2021-07-27 01:12:26 GMT 39.178539 -76.757339 1,550 94 143 -480
2021-07-27 01:12:25 GMT 39.178612 -76.758171 1,550 94 144 -480
2021-07-27 01:12:24 GMT 39.178650 -76.758987 1,550 94 146 -480
2021-07-27 01:12:23 GMT 39.178749 -76.760757 1,550 94 143 -480
2021-07-27 01:12:21 GMT 39.178791 -76.761574 1,550 94 145 -480
2021-07-27 01:12:20 GMT 39.178841 -76.762512 1,550 94 140 -480
2021-07-27 01:12:18 GMT 39.178928 -76.764076 1,550 94 148 -480
2021-07-27 01:12:17 GMT 39.178989 -76.764961 1,550 94 148 0
2021-07-27 01:12:16 GMT 39.179039 -76.765823 1,550 95 149 0
2021-07-27 01:12:15 GMT 39.179111 -76.766701 1,550 94 149 0
2021-07-27 01:12:14 GMT 39.179169 -76.767632 1,550 94 145 0
2021-07-27 01:12:12 GMT 39.179321 -76.769379 1,550 93 140 0
2021-07-27 01:12:11 GMT 39.179340 -76.770172 1,550 93 143 0
2021-07-27 01:12:10 GMT 39.179409 -76.771889 1,550 94 145 0
2021-07-27 01:12:08 GMT 39.179470 -76.772758 1,550 93 144 0
2021-07-27 01:12:07 GMT 39.179489 -76.773651 1,550 94 141 0
2021-07-27 01:12:05 GMT 39.179600 -76.775337 1,550 93 142 0
2021-07-27 01:12:04 GMT 39.179649 -76.776207 1,550 94 141 0
2021-07-27 01:12:03 GMT 39.179691 -76.777000 1,550 94 144 0
2021-07-27 01:12:02 GMT 39.179729 -76.777832 1,550 94 145 0
2021-07-27 01:12:01 GMT 39.179779 -76.778748 1,550 94 141 0
2021-07-27 01:11:59 GMT 39.179871 -76.780434 1,550 94 144 0
2021-07-27 01:11:58 GMT 39.179909 -76.781319 1,550 95 141 0
2021-07-27 01:11:57 GMT 39.179970 -76.782143 1,550 95 143 0
2021-07-27 01:11:55 GMT 39.180130 -76.783821 1,550 93 143 0
2021-07-27 01:11:54 GMT 39.180168 -76.784668 1,550 93 142 0
2021-07-27 01:11:53 GMT 39.180248 -76.786392 1,550 93 142 0
2021-07-27 01:11:51 GMT 39.180302 -76.787239 1,550 93 141 0
2021-07-27 01:11:50 GMT 39.180351 -76.788063 1,550 93 143 0
2021-07-27 01:11:48 GMT 39.180420 -76.789772 1,925 94 143 0
2021-07-27 01:11:47 GMT 39.180470 -76.790604 1,925 94 144 0
2021-07-27 01:11:45 GMT 39.180561 -76.792351 1,925 93 142 0
2021-07-27 01:11:44 GMT 39.180611 -76.793167 1,925 93 144 0
2021-07-27 01:11:42 GMT 39.180691 -76.794861 1,925 94 145 0
2021-07-27 01:11:41 GMT 39.180752 -76.795738 1,925 93 144 0
2021-07-27 01:11:40 GMT 39.180790 -76.796631 1,925 94 141 0
2021-07-27 01:11:39 GMT 39.180851 -76.797432 1,925 93 143 0
2021-07-27 01:11:38 GMT 39.180931 -76.799133 1,925 93 146 0
2021-07-27 01:11:36 GMT 39.180981 -76.799988 1,925 93 146 0
2021-07-27 01:11:35 GMT 39.181042 -76.800827 1,925 93 148 0
2021-07-27 01:11:34 GMT 39.181068 -76.801743 1,925 93 145 0
2021-07-27 01:11:32 GMT 39.181141 -76.803482 1,925 94 145 0
2021-07-27 01:11:31 GMT 39.181221 -76.805199 1,925 94 146 0
2021-07-27 01:11:29 GMT 39.181278 -76.806091 1,925 93 144 0
2021-07-27 01:11:28 GMT 39.181339 -76.806953 1,925 93 143 0
2021-07-27 01:11:27 GMT 39.181370 -76.807808 1,925 93 143 0
2021-07-27 01:11:26 GMT 39.181412 -76.808708 1,925 93 141 0
2021-07-27 01:11:25 GMT 39.181511 -76.810333 1,925 92 148 0
2021-07-27 01:11:23 GMT 39.181541 -76.811203 1,925 92 148 0
2021-07-27 01:11:22 GMT 39.181549 -76.812027 1,925 93 153 0
2021-07-27 01:11:20 GMT 39.181622 -76.813881 1,925 93 153 -768
2021-07-27 01:11:17 GMT 39.181713 -76.815857 1,925 93 157 -640
2021-07-27 01:11:14 GMT 39.181961 -76.819870 1,975 93 157 -640
2021-07-27 01:11:07 GMT 39.182236 -76.825783 2,075 93 160 -1088
2021-07-27 01:11:03 GMT 39.182419 -76.829605 2,250 93 163 -1088
2021-07-27 01:11:00 GMT 39.182552 -76.832886 2,200 93 163 -1088
2021-07-27 01:10:58 GMT 39.182648 -76.834900 2,225 93 165 -1088
2021-07-27 01:10:53 GMT 39.182877 -76.839272 2,350 94 166 -1024
2021-07-27 01:10:49 GMT 39.183105 -76.842796 2,375 95 168 -1280
2021-07-27 01:10:44 GMT 39.183472 -76.847458 2,475 96 169 -1280
2021-07-27 01:10:41 GMT 39.183746 -76.850975 2,525 95 170 -1152
2021-07-27 01:10:35 GMT 39.184322 -76.858398 2,650 95 172 -640
2021-07-27 01:10:31 GMT 39.184525 -76.861069 2,675 96 175 -576
2021-07-27 01:10:28 GMT 39.184788 -76.864136 2,675 96 178 -320
2021-07-27 01:10:25 GMT 39.185066 -76.867432 2,700 97 180 -128
2021-07-27 01:10:22 GMT 39.185532 -76.872177 2,700 93 188 -64
2021-07-27 01:10:19 GMT 39.185719 -76.874390 2,700 91 190 -128
2021-07-27 01:10:15 GMT 39.185814 -76.877869 2,725 90 193 -192
2021-07-27 01:10:12 GMT 39.185852 -76.881546 2,725 89 205 -192
2021-07-27 01:10:09 GMT 39.185898 -76.886147 2,725 88 206 -256
2021-07-27 01:10:06 GMT 39.185860 -76.890503 2,750 88 209 -320
2021-07-27 01:10:02 GMT 39.185760 -76.893730 2,775 87 213 -512
2021-07-27 01:09:58 GMT 39.185623 -76.898560 2,800 87 218 -512
2021-07-27 01:09:55 GMT 39.185486 -76.903076 2,850 86 222 -704
2021-07-27 01:09:51 GMT 39.185257 -76.907997 2,925 85 227 -640
2021-07-27 01:09:46 GMT 39.184753 -76.916534 2,950 83 235 -384
2021-07-27 01:09:42 GMT 39.184414 -76.920715 2,950 83 242 -256
2021-07-27 01:09:37 GMT 39.183792 -76.927162 3,050 87 257 -1216
2021-07-27 01:09:34 GMT 39.183437 -76.931580 3,100 86 256 -1024
2021-07-27 01:09:31 GMT 39.183064 -76.936218 3,075 88 258 -1280
2021-07-27 01:09:25 GMT 39.182926 -76.947632 3,300 104 265 -2432
2021-07-27 01:09:21 GMT 39.183380 -76.951942 3,375 104 265 -2432
2021-07-27 01:09:17 GMT 39.184834 -76.959106 3,550 113 270 -1856
2021-07-27 01:09:14 GMT 39.186275 -76.963684 3,625 121 276 -1408
2021-07-27 01:09:11 GMT 39.187580 -76.966858 3,700 123 277 -1536
2021-07-27 01:09:05 GMT 39.192188 -76.974915 3,850 139 277 -1728
2021-07-27 01:09:03 GMT 39.194366 -76.977737 3,925 139 277 -1728
2021-07-27 01:09:00 GMT 39.196426 -76.980042 4,000 142 277 -1792
2021-07-27 01:08:55 GMT 39.203270 -76.985962 4,175 149 279 -1792
2021-07-27 01:08:51 GMT 39.206947 -76.988770 4,400 149 280 -1856
2021-07-27 01:08:48 GMT 39.213776 -76.993919 4,450 149 280 -1856
2021-07-27 01:08:45 GMT 39.213776 -76.993919 4,475 149 279 -1920
2021-07-27 01:08:42 GMT 39.217667 -76.996841 4,575 149 279 -1920
2021-07-27 01:08:39 GMT 39.224262 -77.001831 4,800 149 279 -1920
2021-07-27 01:08:36 GMT 39.224262 -77.001831 4,775 149 279 -1920
2021-07-27 01:08:32 GMT 39.228745 -77.005203 4,925 149 279 -1920
2021-07-27 01:08:29 GMT 39.231079 -77.006996 4,925 149 279 -1920
2021-07-27 01:08:26 GMT 39.235657 -77.010460 5,100 149 279 -1856
2021-07-27 01:08:23 GMT 39.237438 -77.011841 5,175 149 281 -1472
2021-07-27 01:08:20 GMT 39.242889 -77.016014 5,275 149 280 -1600
2021-07-27 01:08:17 GMT 39.246140 -77.018517 5,350 149 281 -1536
2021-07-27 01:08:14 GMT 39.249252 -77.020905 5,425 149 282 -1472
2021-07-27 01:08:10 GMT 39.252502 -77.023415 5,725 149 285 -1664
2021-07-27 01:08:07 GMT 39.255981 -77.026100 5,625 149 283 -1600
2021-07-27 01:08:03 GMT 39.259830 -77.028992 5,675 149 284 -1664
2021-07-27 01:08:01 GMT 39.263489 -77.031776 5,775 149 285 -1664
2021-07-27 01:07:58 GMT 39.265976 -77.033691 5,825 149 285 -1664
2021-07-27 01:07:53 GMT 39.272232 -77.038399 5,975 149 286 -1664
2021-07-27 01:07:49 GMT 39.277615 -77.042480 6,125 149 286 -1664
2021-07-27 01:07:43 GMT 39.284271 -77.047539 6,275 149 287 -1728
2021-07-27 01:07:40 GMT 39.288273 -77.050537 6,375 149 288 -1728
2021-07-27 01:07:37 GMT 39.291138 -77.052734 6,450 149 290 -1792
2021-07-27 01:07:34 GMT 39.294022 -77.054939 6,525 149 288 -1792
2021-07-27 01:07:32 GMT 39.295910 -77.056335 6,625 149 290 -1792
2021-07-27 01:07:27 GMT 39.301308 -77.060425 6,750 149 292 -1728
2021-07-27 01:07:23 GMT 39.305824 -77.063843 6,825 149 290 -1728
2021-07-27 01:07:20 GMT 39.310959 -77.067719 7,050 149 292 -1728
2021-07-27 01:07:17 GMT 39.313156 -77.069389 7,000 149 292 -1728
2021-07-27 01:07:13 GMT 39.317688 -77.072792 7,125 149 292 -1664
2021-07-27 01:07:11 GMT 39.320488 -77.074951 7,150 149 293 -1600
2021-07-27 01:07:07 GMT 39.329773 -77.081985 7,300 148 301 -1344
2021-07-27 01:07:03 GMT 39.329773 -77.081985 7,400 149 296 -1728
2021-07-27 01:07:00 GMT 39.332748 -77.084198 7,475 149 296 -1728
2021-07-27 01:06:58 GMT 39.335106 -77.085999 7,575 149 297 -1728
2021-07-27 01:06:55 GMT 39.340179 -77.089905 7,650 149 298 -1536
2021-07-27 01:06:50 GMT 39.345531 -77.093994 7,750 149 299 -1344
2021-07-27 01:06:47 GMT 39.348743 -77.096497 7,850 148 302 -1344
2021-07-27 01:06:44 GMT 39.352608 -77.099426 9,550 141 318 -1600
2021-07-27 01:06:41 GMT 39.356426 -77.102478 7,975 148 303 -1664
2021-07-27 01:06:37 GMT 39.361084 -77.106171 8,125 147 303 -1984
2021-07-27 01:06:34 GMT 39.364899 -77.109253 8,200 147 303 -2048
2021-07-27 01:06:31 GMT 39.368809 -77.112427 8,300 147 304 -1920
2021-07-27 01:06:25 GMT 39.374268 -77.116859 8,525 147 305 -1728
2021-07-27 01:06:22 GMT 39.378799 -77.120621 8,550 147 305 -1728
2021-07-27 01:06:18 GMT 39.383698 -77.124619 8,725 147 305 -1728
2021-07-27 01:06:15 GMT 39.389053 -77.129097 8,800 146 306 -1920
2021-07-27 01:06:11 GMT 39.392029 -77.131607 8,925 146 306 -2112
2021-07-27 01:06:07 GMT 39.397625 -77.136292 9,050 147 307 -1920
2021-07-27 01:06:04 GMT 39.399902 -77.138176 9,100 147 307 -1792
2021-07-27 01:06:00 GMT 39.405853 -77.143188 9,225 146 309 -1280
2021-07-27 01:05:57 GMT 39.409103 -77.145874 9,325 146 312 -1408
2021-07-27 01:05:53 GMT 39.413685 -77.149780 9,375 146 312 -1472
2021-07-27 01:05:50 GMT 39.416943 -77.152527 9,475 146 315 -1664
2021-07-27 01:05:47 GMT 39.421326 -77.156265 9,575 145 315 -1536
2021-07-27 01:05:44 GMT 39.424255 -77.158775 10,675 96 325 -2496
2021-07-27 01:05:39 GMT 39.430351 -77.164246 9,750 140 320 -1728
2021-07-27 01:05:36 GMT 39.435051 -77.169250 9,875 133 321 -1920
2021-07-27 01:05:33 GMT 39.436497 -77.171143 9,900 132 322 -1920
2021-07-27 01:05:30 GMT 39.440186 -77.176445 10,025 126 326 -1984
2021-07-27 01:05:28 GMT 39.441383 -77.178406 10,050 124 326 -2048
2021-07-27 01:05:24 GMT 39.445713 -77.187256 10,250 114 328 -2048
2021-07-27 01:05:20 GMT 39.447784 -77.192863 10,350 109 328 -2176
2021-07-27 01:05:15 GMT 39.450165 -77.202126 10,550 100 324 -2432
2021-07-27 01:05:12 GMT 39.451126 -77.208389 10,675 97 324 -2496
2021-07-27 01:05:08 GMT 39.451721 -77.215141 10,800 91 325 -1856
2021-07-27 01:05:03 GMT 39.451813 -77.224869 10,900 88 329 -640
2021-07-27 01:04:59 GMT 39.451393 -77.240112 10,950 87 334 -448
2021-07-27 01:04:56 GMT 39.451393 -77.240112 10,975 87 337 -384
2021-07-27 01:04:52 GMT 39.451126 -77.247978 11,000 87 347 -576
2021-07-27 01:04:48 GMT 39.450897 -77.254250 11,025 87 346 -576
2021-07-27 01:04:46 GMT 39.450741 -77.258972 11,075 87 349 -640
2021-07-27 01:04:43 GMT 39.450417 -77.267700 11,100 87 352 -832
2021-07-27 01:04:37 GMT 39.450043 -77.278259 11,200 87 355 -1024
2021-07-27 01:04:34 GMT 39.449844 -77.284401 11,225 87 356 -576
2021-07-27 01:04:31 GMT 39.449661 -77.289238 11,325 87 357 -512
2021-07-27 01:04:28 GMT 39.449066 -77.304581 11,325 87 357 -384
2021-07-27 01:04:25 GMT 39.449066 -77.304581 11,350 87 356 -448
2021-07-27 01:04:22 GMT 39.448784 -77.310974 11,375 86 356 -640
2021-07-27 01:04:18 GMT 39.448505 -77.317993 11,425 86 355 -1216
2021-07-27 01:04:15 GMT 39.448227 -77.325195 11,575 86 353 -1792
2021-07-27 01:04:12 GMT 39.447903 -77.332581 11,600 86 353 -1792
2021-07-27 01:04:08 GMT 39.447556 -77.339752 11,700 86 352 -1664
2021-07-27 01:04:04 GMT 39.447098 -77.349243 11,825 90 355 -1792
2021-07-27 01:04:00 GMT 39.446831 -77.355530 11,925 87 353 -1792
2021-07-27 01:03:56 GMT 39.446598 -77.365234 12,100 90 355 -1792
2021-07-27 01:03:53 GMT 39.446686 -77.376228 12,150 90 355 -1792
2021-07-27 01:03:50 GMT 39.446732 -77.383278 12,250 90 356 -1792
2021-07-27 01:03:47 GMT 39.446732 -77.383278 12,300 90 356 -1792
2021-07-27 01:03:44 GMT 39.446877 -77.392395 12,525 90 356 -1792
2021-07-27 01:03:40 GMT 39.446972 -77.398987 12,525 90 356 -1856
2021-07-27 01:03:36 GMT 39.447052 -77.408775 12,675 90 357 -1920
2021-07-27 01:03:33 GMT 39.447144 -77.414925 12,750 90 357 -1920
2021-07-27 01:03:29 GMT 39.447235 -77.422623 12,800 90 357 -1856
2021-07-27 01:03:26 GMT 39.447342 -77.429871 12,925 90 358 -1152
2021-07-27 01:03:23 GMT 39.447372 -77.434982 12,950 90 359 -704
2021-07-27 01:03:19 GMT 39.447464 -77.442505 13,000 90 360 -192
2021-07-27 01:03:15 GMT 39.447575 -77.452393 13,000 90 361 -64
2021-07-27 01:03:12 GMT 39.447666 -77.459961 13,000 90 361 -64
2021-07-27 01:03:09 GMT 39.447762 -77.466187 13,000 90 361 0
2021-07-27 01:03:05 GMT 39.447853 -77.474792 13,000 90 361 0
2021-07-27 01:03:02 GMT 39.447876 -77.479347 13,000 90 361 0
2021-07-27 01:02:58 GMT 39.447994 -77.487732 13,000 90 361 0
2021-07-27 01:02:55 GMT 39.448059 -77.496361 13,000 90 361 -64
2021-07-27 01:02:52 GMT 39.448086 -77.501953 13,000 90 361 0
2021-07-27 01:02:49 GMT 39.448196 -77.510574 13,000 90 361 0
2021-07-27 01:02:46 GMT 39.448227 -77.514893 13,000 90 361 0
2021-07-27 01:02:44 GMT 39.448273 -77.520691 13,000 90 361 0
2021-07-27 01:02:41 GMT 39.448334 -77.523949 13,000 90 361 0
2021-07-27 01:02:38 GMT 39.448414 -77.532349 13,000 90 361 0
2021-07-27 01:02:35 GMT 39.448425 -77.537323 13,000 90 361 -64
2021-07-27 01:02:33 GMT 39.448471 -77.541862 13,000 90 361 -64
2021-07-27 01:02:30 GMT 39.448551 -77.547424 13,000 90 361 -64
2021-07-27 01:02:27 GMT 39.448654 -77.555176 13,000 90 361 -64
2021-07-27 01:02:24 GMT 39.448784 -77.568298 13,000 90 360 0
2021-07-27 01:02:21 GMT 39.448784 -77.568298 13,000 90 360 0
2021-07-27 01:02:18 GMT 39.448879 -77.575439 13,000 90 360 0
2021-07-27 01:02:14 GMT 39.448971 -77.587036 13,000 90 359 0
2021-07-27 01:02:10 GMT 39.449066 -77.593452 13,000 90 359 64
2021-07-27 01:02:07 GMT 39.449112 -77.599663 13,000 90 358 0
2021-07-27 01:02:04 GMT 39.449203 -77.603760 13,000 90 358 0
2021-07-27 01:02:02 GMT 39.449249 -77.609070 13,000 90 358 0
2021-07-27 01:01:58 GMT 39.449341 -77.617210 13,000 90 358 0
2021-07-27 01:01:54 GMT 39.449486 -77.626831 13,000 90 358 0
2021-07-27 01:01:52 GMT 39.449524 -77.630470 13,000 90 358 0
2021-07-27 01:01:49 GMT 39.449615 -77.637993 13,000 90 358 0
2021-07-27 01:01:46 GMT 39.449764 -77.648865 13,000 90 359 0
2021-07-27 01:01:43 GMT 39.449764 -77.648865 13,000 90 359 0
2021-07-27 01:01:40 GMT 39.449856 -77.656372 13,000 90 359 64
2021-07-27 01:01:36 GMT 39.450089 -77.673950 13,000 90 359 128
2021-07-27 01:01:32 GMT 39.450089 -77.673950 12,975 90 360 128
2021-07-27 01:01:29 GMT 39.450134 -77.678467 12,975 90 360 64
2021-07-27 01:01:26 GMT 39.450211 -77.687073 12,975 90 361 0
2021-07-27 01:01:23 GMT 39.450302 -77.692444 12,975 90 360 64
2021-07-27 01:01:19 GMT 39.450394 -77.702354 12,975 90 361 0
2021-07-27 01:01:16 GMT 39.450439 -77.708389 12,975 90 361 128
2021-07-27 01:01:13 GMT 39.450508 -77.713989 12,975 90 361 128
2021-07-27 01:01:10 GMT 39.450554 -77.719788 12,975 90 361 64
2021-07-27 01:01:07 GMT 39.450600 -77.728210 12,975 90 362 -64
2021-07-27 01:01:03 GMT 39.450623 -77.736633 13,000 90 364 -576
2021-07-27 01:00:59 GMT 39.450668 -77.743378 13,075 90 365 -896
2021-07-27 01:00:56 GMT 39.450668 -77.751022 13,100 90 366 -1536
2021-07-27 01:00:52 GMT 39.450695 -77.759277 13,200 90 366 -1792
2021-07-27 01:00:49 GMT 39.450695 -77.767822 13,325 90 366 -1984
2021-07-27 01:00:45 GMT 39.450668 -77.775444 13,450 90 366 -1920
2021-07-27 01:00:41 GMT 39.450645 -77.783752 13,625 90 367 -1984
2021-07-27 01:00:38 GMT 39.450695 -77.790100 13,675 90 367 -1984
2021-07-27 01:00:35 GMT 39.450668 -77.796280 13,850 90 368 -1920
2021-07-27 01:00:31 GMT 39.450714 -77.806129 13,950 90 368 -1920
2021-07-27 01:00:28 GMT 39.450741 -77.812927 14,000 90 368 -1920
2021-07-27 01:00:24 GMT 39.450760 -77.821716 14,125 90 368 -1920
2021-07-27 01:00:19 GMT 39.450760 -77.832458 14,275 90 369 -1920
2021-07-27 01:00:15 GMT 39.450806 -77.840645 14,400 90 369 -2048
2021-07-27 01:00:10 GMT 39.450787 -77.851624 14,575 90 369 -2112
2021-07-27 01:00:07 GMT 39.450832 -77.859131 14,675 90 369 -2112
2021-07-27 01:00:02 GMT 39.450832 -77.870605 14,850 90 370 -1792
2021-07-27 01:00:00 GMT 39.450832 -77.875854 14,900 90 370 -1536
2021-07-27 00:59:57 GMT 39.450832 -77.883179 14,975 90 371 -768
2021-07-27 00:59:50 GMT 39.450832 -77.896484 15,000 89 372 0
2021-07-27 00:59:47 GMT 39.450787 -77.903381 15,000 89 373 64
2021-07-27 00:59:44 GMT 39.450787 -77.908936 15,000 89 373 64
2021-07-27 00:59:41 GMT 39.450760 -77.916290 15,000 89 373 0
2021-07-27 00:59:39 GMT 39.450787 -77.923157 15,000 89 373 0
2021-07-27 00:59:36 GMT 39.450760 -77.927635 15,000 89 373 0
2021-07-27 00:59:30 GMT 39.450695 -77.941650 15,000 89 373 0
2021-07-27 00:59:26 GMT 39.450668 -77.950981 15,025 89 373 -64
2021-07-27 00:59:19 GMT 39.450600 -77.965210 15,050 89 373 -320
2021-07-27 00:59:15 GMT 39.450600 -77.974365 15,075 89 375 -448
2021-07-27 00:59:10 GMT 39.450554 -77.985352 15,125 89 378 -1216
2021-07-27 00:59:08 GMT 39.450577 -77.988480 15,150 89 379 -1536
2021-07-27 00:59:05 GMT 39.450531 -77.996841 15,275 89 380 -2112
2021-07-27 00:59:00 GMT 39.450485 -78.008423 15,450 89 383 -1984
2021-07-27 00:58:56 GMT 39.450485 -78.018036 15,700 90 388 -2048
2021-07-27 00:58:53 GMT 39.450485 -78.025200 15,700 90 388 -2048
2021-07-27 00:58:49 GMT 39.450508 -78.033508 15,825 90 389 -2048
2021-07-27 00:58:43 GMT 39.450508 -78.046570 16,000 90 392 -2048
2021-07-27 00:58:39 GMT 39.450554 -78.059204 16,175 90 395 -1920
2021-07-27 00:58:35 GMT 39.450554 -78.066528 16,350 89 401 -1920
2021-07-27 00:58:31 GMT 39.450577 -78.074577 16,350 89 401 -1920
2021-07-27 00:58:28 GMT 39.450554 -78.082703 16,500 89 401 -1920
2021-07-27 00:58:24 GMT 39.450531 -78.094704 16,650 91 405 -2048
2021-07-27 00:58:14 GMT 39.451859 -78.122406 17,075 96 411 -2560
2021-07-27 00:58:07 GMT 39.452820 -78.132378 17,225 98 414 -1408
2021-07-27 00:58:04 GMT 39.453690 -78.140022 17,500 99 417 -832
2021-07-27 00:58:01 GMT 39.454788 -78.148560 17,350 102 419 -576
2021-07-27 00:57:57 GMT 39.456047 -78.156921 17,450 104 419 -640
2021-07-27 00:57:54 GMT 39.457493 -78.165527 17,450 104 419 -640
2021-07-27 00:57:50 GMT 39.459869 -78.177162 17,500 106 420 -704
2021-07-27 00:57:47 GMT 39.461075 -78.182495 17,675 106 419 -640
2021-07-27 00:57:44 GMT 39.462936 -78.190651 17,575 106 419 -640
2021-07-27 00:57:41 GMT 39.465450 -78.201721 17,625 106 417 -832
2021-07-27 00:57:35 GMT 39.466965 -78.208389 17,675 106 417 -1600
2021-07-27 00:57:33 GMT 39.468796 -78.216270 17,750 106 417 -1600
2021-07-27 00:57:28 GMT 39.471317 -78.227478 17,875 106 418 -1536
2021-07-27 00:57:25 GMT 39.472572 -78.232971 17,950 106 420 -1600
2021-07-27 00:57:22 GMT 39.474426 -78.240929 18,050 106 421 -1984
2021-07-27 00:57:16 GMT 39.478638 -78.259079 19,525 106 427 -2048
2021-07-27 00:57:12 GMT 39.480377 -78.266663 18,400 106 428 -2048
2021-07-27 00:57:05 GMT 39.484585 -78.285156 18,675 106 434 -2112
2021-07-27 00:57:01 GMT 39.486374 -78.293114 18,775 106 435 -2112
2021-07-27 00:56:55 GMT 39.489845 -78.308411 19,000 106 441 -2112
2021-07-27 00:56:51 GMT 39.492279 -78.319267 19,150 106 443 -2112
2021-07-27 00:56:45 GMT 39.495476 -78.333557 19,350 105 451 -2880
2021-07-27 00:56:41 GMT 39.497818 -78.344101 19,525 105 450 -2688
2021-07-27 00:56:35 GMT 39.500877 -78.358093 20,175 105 453 -2688
2021-07-27 00:56:30 GMT 39.504730 -78.375870 20,050 105 455 -2240
2021-07-27 00:56:24 GMT 39.507160 -78.387390 20,225 105 456 -2240
2021-07-27 00:56:19 GMT 39.510864 -78.405067 20,475 105 458 -2240
2021-07-27 00:56:10 GMT 39.515121 -78.425476 20,775 105 460 -2240
2021-07-27 00:56:07 GMT 39.516541 -78.432350 20,850 105 460 -2240
2021-07-27 00:56:01 GMT 39.522308 -78.460052 21,150 105 461 -2304
2021-07-27 00:55:58 GMT 39.522308 -78.460052 21,250 105 461 -2240
2021-07-27 00:55:52 GMT 39.525223 -78.473877 21,500 105 461 -2432
2021-07-27 00:55:50 GMT 39.526108 -78.478149 21,575 105 461 -2432
2021-07-27 00:55:46 GMT 39.528389 -78.488831 21,675 105 462 -2432
2021-07-27 00:55:40 GMT 39.532059 -78.506149 21,950 105 464 -1984
2021-07-27 00:55:37 GMT 39.534393 -78.517075 22,050 105 465 -1792
2021-07-27 00:55:29 GMT 39.538101 -78.534569 22,275 105 469 -1920
2021-07-27 00:55:26 GMT 39.540619 -78.546219 22,400 105 472 -2112
2021-07-27 00:55:19 GMT 39.543938 -78.561707 22,600 105 475 -2240
2021-07-27 00:55:14 GMT 39.546963 -78.575684 22,800 105 478 -2304
2021-07-27 00:55:08 GMT 39.550461 -78.591415 23,100 106 482 -2688
2021-07-27 00:55:04 GMT 39.553619 -78.605225 23,950 106 487 -2176
2021-07-27 00:54:57 GMT 39.557419 -78.622162 23,500 106 486 -2304
2021-07-27 00:54:53 GMT 39.559845 -78.632790 23,950 106 487 -2176
2021-07-27 00:54:50 GMT 39.561722 -78.641174 23,775 106 489 -2304
2021-07-27 00:54:48 GMT 39.563416 -78.648735 23,900 106 490 -2304
2021-07-27 00:54:42 GMT 39.567215 -78.665573 24,050 106 490 -2304
2021-07-27 00:54:33 GMT 39.573265 -78.692078 24,475 106 493 -2368
2021-07-27 00:54:27 GMT 39.576691 -78.707306 24,700 106 494 -2432
2021-07-27 00:54:20 GMT 39.581406 -78.728325 25,000 106 495 -2496
2021-07-27 00:54:17 GMT 39.583649 -78.738297 25,150 106 496 -2496
2021-07-27 00:54:12 GMT 39.586624 -78.751709 25,350 105 497 -2432
2021-07-27 00:54:08 GMT 39.588581 -78.760559 25,450 105 497 -2368
2021-07-27 00:54:05 GMT 39.590397 -78.768860 25,575 106 498 -2304
2021-07-27 00:54:01 GMT 39.593216 -78.781464 25,725 106 499 -2304
2021-07-27 00:53:57 GMT 39.595657 -78.792419 25,875 106 501 -2368
2021-07-27 00:53:54 GMT 39.597519 -78.800781 25,975 105 501 -2368
2021-07-27 00:53:49 GMT 39.601685 -78.819504 26,250 106 503 -2432
2021-07-27 00:53:41 GMT 39.606457 -78.841003 26,550 106 505 -2432
2021-07-27 00:53:37 GMT 39.609055 -78.852638 26,725 106 506 -2432
2021-07-27 00:53:34 GMT 39.610416 -78.858704 26,850 105 505 -2496
2021-07-27 00:53:30 GMT 39.613346 -78.872131 27,000 105 505 -2496
2021-07-27 00:53:26 GMT 39.615814 -78.883484 27,325 105 505 -2496
2021-07-27 00:53:23 GMT 39.618210 -78.894554 27,325 105 505 -2496
2021-07-27 00:53:20 GMT 39.619995 -78.903030 27,450 105 506 -2432
2021-07-27 00:53:13 GMT 39.624573 -78.924644 27,725 105 505 -2368
2021-07-27 00:53:08 GMT 39.626495 -78.933662 27,850 105 505 -2496
2021-07-27 00:53:03 GMT 39.629929 -78.950020 28,100 105 504 -3200
2021-07-27 00:52:59 GMT 39.632538 -78.962563 28,325 105 503 -3456
2021-07-27 00:52:53 GMT 39.636612 -78.981728 28,675 105 504 -2560
2021-07-27 00:52:49 GMT 39.639130 -78.993668 28,825 105 504 -1856
2021-07-27 00:52:45 GMT 39.640915 -79.002151 28,900 105 505 -640
2021-07-27 00:52:38 GMT 39.645309 -79.022865 28,975 105 507 -64
2021-07-27 00:52:33 GMT 39.648773 -79.039307 28,975 105 508 -384
2021-07-27 00:52:27 GMT 39.651672 -79.053139 28,975 105 509 0
2021-07-27 00:52:19 GMT 39.658131 -79.083008 29,000 105 508 -384
2021-07-27 00:52:15 GMT 39.660088 -79.092102 29,150 105 509 -1152
2021-07-27 00:52:06 GMT 39.665176 -79.115234 29,350 105 509 -2048
2021-07-27 00:52:03 GMT 39.667999 -79.128174 29,550 105 509 -2368
2021-07-27 00:51:56 GMT 39.672188 -79.146912 29,875 106 509 -3328
2021-07-27 00:51:53 GMT 39.673588 -79.153076 29,975 106 508 -3392
2021-07-27 00:51:44 GMT 39.680557 -79.184021 30,600 106 505 -3456
2021-07-27 00:51:40 GMT 39.682480 -79.192436 30,750 106 504 -3072
2021-07-27 00:51:36 GMT 39.685501 -79.205750 31,000 106 504 -3136
2021-07-27 00:51:31 GMT 39.688339 -79.217934 31,225 106 504 -2944
2021-07-27 00:51:26 GMT 39.692001 -79.233879 31,500 106 504 -2944
2021-07-27 00:51:23 GMT 39.694656 -79.245102 31,675 106 503 -2880
2021-07-27 00:51:19 GMT 39.697128 -79.255791 32,250 106 505 -1088
2021-07-27 00:51:15 GMT 39.699463 -79.265938 32,075 106 505 -1088
2021-07-27 00:51:12 GMT 39.701611 -79.275146 32,275 106 505 -1088
2021-07-27 00:51:04 GMT 39.706970 -79.298599 32,500 106 504 -2432
2021-07-27 00:51:00 GMT 39.708824 -79.306702 32,975 106 505 -1984
2021-07-27 00:50:54 GMT 39.713242 -79.326126 32,850 106 505 -1088
2021-07-27 00:50:47 GMT 39.718323 -79.348221 32,975 106 505 -640
2021-07-27 00:50:44 GMT 39.720703 -79.358665 33,000 106 505 -256
2021-07-27 00:50:40 GMT 39.723175 -79.369415 33,000 106 505 0
2021-07-27 00:50:36 GMT 39.724747 -79.376404 33,000 106 505 64
2021-07-27 00:50:30 GMT 39.732376 -79.409538 33,000 106 506 0
2021-07-27 00:50:26 GMT 39.732376 -79.409538 33,000 106 506 0
2021-07-27 00:50:20 GMT 39.735687 -79.423828 33,000 106 506 0
2021-07-27 00:50:17 GMT 39.738739 -79.437180 33,000 106 506 0
2021-07-27 00:50:13 GMT 39.741119 -79.447395 33,000 106 507 0
2021-07-27 00:50:10 GMT 39.742767 -79.454620 33,000 106 507 0
2021-07-27 00:50:06 GMT 39.745331 -79.465721 33,000 106 507 0
2021-07-27 00:49:59 GMT 39.749977 -79.485779 33,000 106 506 0
2021-07-27 00:49:56 GMT 39.752678 -79.497742 33,000 106 506 0
2021-07-27 00:49:51 GMT 39.755470 -79.509949 33,000 106 507 0
2021-07-27 00:49:45 GMT 39.759289 -79.526917 33,000 106 507 0
2021-07-27 00:49:41 GMT 39.761944 -79.538879 33,000 105 508 0
2021-07-27 00:49:34 GMT 39.766087 -79.558228 33,000 105 507 -64
2021-07-27 00:49:29 GMT 39.769684 -79.575584 33,000 104 508 0
2021-07-27 00:49:25 GMT 39.771996 -79.587341 33,000 104 507 0
2021-07-27 00:49:20 GMT 39.774979 -79.602356 33,000 104 507 0
2021-07-27 00:49:17 GMT 39.776047 -79.607971 33,000 104 507 0
2021-07-27 00:49:13 GMT 39.778244 -79.619171 33,000 104 507 0
2021-07-27 00:49:09 GMT 39.781868 -79.637756 33,000 104 507 0
2021-07-27 00:49:05 GMT 39.783600 -79.646584 33,000 104 507 0
2021-07-27 00:49:02 GMT 39.784836 -79.652786 33,000 104 506 0
2021-07-27 00:48:58 GMT 39.787674 -79.667236 33,000 104 506 0
2021-07-27 00:48:54 GMT 39.790009 -79.679298 33,000 104 506 64
2021-07-27 00:48:51 GMT 39.791702 -79.687836 33,000 104 506 64
2021-07-27 00:48:48 GMT 39.793900 -79.699066 33,000 104 506 0
2021-07-27 00:48:42 GMT 39.796143 -79.710526 33,000 104 506 -64
2021-07-27 00:48:36 GMT 39.800163 -79.730835 33,000 104 507 64
2021-07-27 00:48:33 GMT 39.801838 -79.739380 33,000 104 507 0
2021-07-27 00:48:29 GMT 39.804256 -79.751770 33,000 104 507 64
2021-07-27 00:48:26 GMT 39.805935 -79.760315 33,000 104 507 0
2021-07-27 00:48:23 GMT 39.807907 -79.770355 33,000 104 507 0
2021-07-27 00:48:16 GMT 39.812313 -79.792786 33,000 104 507 0
2021-07-27 00:48:11 GMT 39.814312 -79.803101 33,000 104 507 0
2021-07-27 00:48:05 GMT 39.817978 -79.821648 33,000 104 507 0
2021-07-27 00:47:58 GMT 39.822414 -79.844421 33,000 104 507 0
2021-07-27 00:47:55 GMT 39.823715 -79.851196 33,000 104 507 0
2021-07-27 00:47:50 GMT 39.826859 -79.867439 33,000 104 507 0
2021-07-27 00:47:43 GMT 39.831398 -79.890747 33,000 104 507 0
2021-07-27 00:47:38 GMT 39.833027 -79.899292 33,000 104 507 -64
2021-07-27 00:47:35 GMT 39.835449 -79.911682 33,000 104 507 -64
2021-07-27 00:47:25 GMT 39.841782 -79.944229 33,000 104 507 0
2021-07-27 00:47:19 GMT 39.844940 -79.960167 33,000 104 508 0
2021-07-27 00:47:12 GMT 39.848297 -79.978271 33,000 101 509 0
2021-07-27 00:47:09 GMT 39.850113 -79.989601 33,000 101 509 0
2021-07-27 00:47:06 GMT 39.851349 -79.998322 33,000 99 509 0
2021-07-27 00:47:03 GMT 39.852310 -80.005844 33,000 99 509 0
2021-07-27 00:46:58 GMT 39.853928 -80.020020 33,000 95 508 0
2021-07-27 00:46:54 GMT 39.854813 -80.029968 33,000 95 507 0
2021-07-27 00:46:49 GMT 39.856155 -80.048775 33,000 93 507 0
2021-07-27 00:46:44 GMT 39.856705 -80.060959 33,000 92 507 0
2021-07-27 00:46:37 GMT 39.857071 -80.082214 33,000 89 506 0
2021-07-27 00:46:34 GMT 39.857002 -80.091919 33,000 88 505 0
2021-07-27 00:46:31 GMT 39.856770 -80.102539 33,000 87 505 0
2021-07-27 00:46:28 GMT 39.856441 -80.111328 33,000 85 503 0
2021-07-27 00:46:23 GMT 39.855331 -80.130341 33,000 85 503 0
2021-07-27 00:46:17 GMT 39.853649 -80.155640 33,000 85 503 0
2021-07-27 00:46:14 GMT 39.853649 -80.155640 33,000 85 503 0
2021-07-27 00:46:10 GMT 39.852905 -80.167114 33,000 85 503 0
2021-07-27 00:46:06 GMT 39.852219 -80.177628 33,000 85 503 0
2021-07-27 00:46:03 GMT 39.850754 -80.200554 33,000 85 504 0
2021-07-27 00:45:55 GMT 39.850250 -80.208374 33,000 85 504 0
2021-07-27 00:45:52 GMT 39.849655 -80.218048 33,000 85 504 0
2021-07-27 00:45:49 GMT 39.848854 -80.230713 33,000 85 504 0
2021-07-27 00:45:46 GMT 39.848373 -80.238586 33,000 85 504 0
2021-07-27 00:45:43 GMT 39.847778 -80.247902 33,000 85 504 0
2021-07-27 00:45:40 GMT 39.847134 -80.258179 33,000 85 504 0
2021-07-27 00:45:33 GMT 39.845947 -80.277161 33,000 85 504 0
2021-07-27 00:45:30 GMT 39.845078 -80.291069 33,000 85 504 0
2021-07-27 00:45:25 GMT 39.844345 -80.302834 33,000 85 504 0
2021-07-27 00:45:21 GMT 39.843613 -80.314598 33,000 85 504 0
2021-07-27 00:45:16 GMT 39.842697 -80.329704 33,000 85 504 0
2021-07-27 00:45:13 GMT 39.842197 -80.337524 33,000 85 504 0
2021-07-27 00:45:09 GMT 39.841312 -80.350525 33,000 84 504 0
2021-07-27 00:45:04 GMT 39.840290 -80.365906 33,000 84 504 0
2021-07-27 00:44:59 GMT 39.839447 -80.377647 33,000 84 504 0
2021-07-27 00:44:56 GMT 39.838615 -80.389709 33,000 84 504 0
2021-07-27 00:44:51 GMT 39.837387 -80.406250 33,000 84 504 0
2021-07-27 00:44:45 GMT 39.836105 -80.423744 33,000 84 503 0
2021-07-27 00:44:42 GMT 39.835728 -80.428223 33,000 84 503 0
2021-07-27 00:44:39 GMT 39.834610 -80.442627 33,000 84 503 0
2021-07-27 00:44:33 GMT 39.833260 -80.459167 33,000 83 504 0
2021-07-27 00:44:30 GMT 39.832352 -80.470016 33,000 83 504 0
2021-07-27 00:44:25 GMT 39.831161 -80.483810 33,000 82 503 0
2021-07-27 00:44:17 GMT 39.829117 -80.505676 33,000 82 503 0
2021-07-27 00:44:12 GMT 39.827499 -80.522202 33,000 82 503 64
2021-07-27 00:44:08 GMT 39.825943 -80.536530 33,000 81 503 0
2021-07-27 00:44:03 GMT 39.824661 -80.548172 33,000 81 502 0
2021-07-27 00:43:59 GMT 39.823013 -80.562210 33,000 80 502 0
2021-07-27 00:43:50 GMT 39.819901 -80.587219 33,000 82 503 -64
2021-07-27 00:43:43 GMT 39.818409 -80.607666 33,000 88 505 0
2021-07-27 00:43:38 GMT 39.818459 -80.623474 33,000 93 506 0
2021-07-27 00:43:32 GMT 39.819714 -80.640137 33,000 100 506 -64
2021-07-27 00:43:27 GMT 39.822098 -80.656067 33,000 106 506 0
2021-07-27 00:43:20 GMT 39.828094 -80.678223 33,000 116 505 0
2021-07-27 00:43:16 GMT 39.830750 -80.685387 33,000 120 504 0
2021-07-27 00:43:12 GMT 39.836380 -80.698044 33,000 128 502 -64
2021-07-27 00:43:09 GMT 39.840477 -80.705505 33,000 130 502 -64
2021-07-27 00:43:06 GMT 39.845505 -80.713440 33,000 131 502 0
2021-07-27 00:43:02 GMT 39.851440 -80.721626 33,000 137 501 128
2021-07-27 00:42:59 GMT 39.856491 -80.727844 33,000 138 502 64
2021-07-27 00:42:55 GMT 39.863068 -80.735481 33,000 138 503 0
2021-07-27 00:42:51 GMT 39.870255 -80.743599 33,000 138 503 -64
2021-07-27 00:42:48 GMT 39.875015 -80.748978 33,000 138 503 -64
2021-07-27 00:42:45 GMT 39.879364 -80.753929 33,000 138 503 -64
2021-07-27 00:42:38 GMT 39.892895 -80.769226 33,000 139 503 0
2021-07-27 00:42:34 GMT 39.899410 -80.776550 33,000 139 503 0
2021-07-27 00:42:31 GMT 39.905731 -80.783722 33,000 139 504 0
2021-07-27 00:42:27 GMT 39.912258 -80.791016 33,000 139 504 0
2021-07-27 00:42:24 GMT 39.917706 -80.797180 33,000 139 504 0
2021-07-27 00:42:19 GMT 39.924728 -80.805115 33,000 139 504 0
2021-07-27 00:42:14 GMT 39.936722 -80.818604 33,000 139 504 0
2021-07-27 00:42:07 GMT 39.948715 -80.832092 33,000 138 503 0
2021-07-27 00:42:03 GMT 39.953274 -80.837280 33,000 138 503 0
2021-07-27 00:42:00 GMT 39.961372 -80.846451 33,000 138 503 0
2021-07-27 00:41:56 GMT 39.966633 -80.852386 33,000 138 503 0
2021-07-27 00:41:53 GMT 39.972080 -80.858566 33,000 138 503 0
2021-07-27 00:41:46 GMT 39.985626 -80.873917 33,000 138 504 0
2021-07-27 00:41:43 GMT 39.991444 -80.880539 33,000 138 504 0
2021-07-27 00:41:39 GMT 39.997055 -80.886902 33,000 138 504 64
2021-07-27 00:41:33 GMT 40.007038 -80.898331 33,000 138 504 0
2021-07-27 00:41:25 GMT 40.021957 -80.915283 33,000 138 504 0
2021-07-27 00:41:22 GMT 40.028130 -80.922295 33,000 138 504 0
2021-07-27 00:41:18 GMT 40.033401 -80.928284 33,000 138 504 0
2021-07-27 00:41:12 GMT 40.044113 -80.940491 33,000 138 505 0
2021-07-27 00:41:08 GMT 40.052536 -80.950134 33,000 138 505 64
2021-07-27 00:41:03 GMT 40.058716 -80.957092 33,000 138 506 0
2021-07-27 00:40:59 GMT 40.066814 -80.966370 33,000 138 506 0
2021-07-27 00:40:56 GMT 40.072083 -80.972351 33,000 138 505 0
2021-07-27 00:40:52 GMT 40.080032 -80.981346 33,000 139 506 -64
2021-07-27 00:40:47 GMT 40.087994 -80.990334 33,000 138 506 -64
2021-07-27 00:40:43 GMT 40.095200 -80.998596 33,000 138 506 -64
2021-07-27 00:40:40 GMT 40.103119 -81.007629 33,000 138 506 0
2021-07-27 00:40:36 GMT 40.108566 -81.013855 33,000 138 506 64
2021-07-27 00:40:33 GMT 40.113831 -81.019928 33,000 138 507 64
2021-07-27 00:40:29 GMT 40.120674 -81.027786 33,000 138 506 0
2021-07-27 00:40:26 GMT 40.124908 -81.032654 33,000 138 506 0
2021-07-27 00:40:22 GMT 40.131893 -81.040771 33,000 138 507 0
2021-07-27 00:40:19 GMT 40.137177 -81.046875 33,000 138 507 0
2021-07-27 00:40:15 GMT 40.143112 -81.053757 33,000 138 507 0
2021-07-27 00:40:11 GMT 40.149902 -81.061707 33,000 138 507 0
2021-07-27 00:40:06 GMT 40.161072 -81.074829 33,000 137 507 0
2021-07-27 00:40:02 GMT 40.167690 -81.082596 33,000 137 507 0
2021-07-27 00:39:55 GMT 40.179192 -81.096146 33,000 137 508 0
2021-07-27 00:39:48 GMT 40.193298 -81.112854 33,000 137 509 0
2021-07-27 00:39:44 GMT 40.199066 -81.119629 33,000 138 511 0
2021-07-27 00:39:41 GMT 40.204655 -81.126228 33,000 137 509 0
2021-07-27 00:39:34 GMT 40.215500 -81.139030 33,000 138 509 0
2021-07-27 00:39:29 GMT 40.223972 -81.148827 33,000 138 510 -64
2021-07-27 00:39:23 GMT 40.234726 -81.161377 33,000 138 511 0
2021-07-27 00:39:20 GMT 40.240730 -81.168365 33,000 138 511 0
2021-07-27 00:39:17 GMT 40.248646 -81.177666 33,000 138 511 -64
2021-07-27 00:39:13 GMT 40.251625 -81.181160 33,000 138 511 -64
2021-07-27 00:39:09 GMT 40.259212 -81.190025 33,000 138 512 -64
2021-07-27 00:39:03 GMT 40.270714 -81.203445 33,000 138 513 64
2021-07-27 00:38:59 GMT 40.277435 -81.211304 33,000 138 513 64
2021-07-27 00:38:56 GMT 40.284492 -81.219612 33,000 138 513 0
2021-07-27 00:38:52 GMT 40.288742 -81.224609 33,000 138 513 0
2021-07-27 00:38:49 GMT 40.296021 -81.233093 33,000 138 514 0
2021-07-27 00:38:43 GMT 40.307373 -81.246216 33,000 138 514 0
2021-07-27 00:38:38 GMT 40.314655 -81.254700 33,000 138 514 64
2021-07-27 00:38:34 GMT 40.322662 -81.264061 33,000 138 515 0
2021-07-27 00:38:31 GMT 40.326050 -81.268005 33,000 138 515 0
2021-07-27 00:38:28 GMT 40.332779 -81.275879 33,000 138 515 0
2021-07-27 00:38:24 GMT 40.341984 -81.286720 33,000 138 515 0
2021-07-27 00:38:21 GMT 40.346603 -81.292114 33,000 138 515 0
2021-07-27 00:38:17 GMT 40.351776 -81.298157 33,000 138 515 0
2021-07-27 00:38:14 GMT 40.358734 -81.306213 33,000 138 515 -64
2021-07-27 00:38:10 GMT 40.363174 -81.311401 33,000 138 515 0
2021-07-27 00:38:07 GMT 40.369961 -81.319237 33,000 138 516 0
2021-07-27 00:38:04 GMT 40.378387 -81.328979 33,000 138 516 0
2021-07-27 00:38:00 GMT 40.381943 -81.333130 33,000 138 516 0
2021-07-27 00:37:56 GMT 40.388580 -81.340759 33,000 138 516 0
2021-07-27 00:37:51 GMT 40.399521 -81.353386 33,000 138 517 -64
2021-07-27 00:37:46 GMT 40.407578 -81.362671 33,000 138 516 -64
2021-07-27 00:37:43 GMT 40.415268 -81.371521 33,000 138 515 0
2021-07-27 00:37:40 GMT 40.420120 -81.377136 33,000 138 515 0
2021-07-27 00:37:36 GMT 40.426025 -81.383911 33,000 138 516 0
2021-07-27 00:37:33 GMT 40.432110 -81.390961 33,000 138 516 64
2021-07-27 00:37:29 GMT 40.438721 -81.398643 33,000 138 516 0
2021-07-27 00:37:25 GMT 40.445160 -81.406067 33,000 138 515 0
2021-07-27 00:37:20 GMT 40.455872 -81.418518 33,000 138 516 0
2021-07-27 00:37:15 GMT 40.462830 -81.426575 33,000 138 515 0
2021-07-27 00:37:12 GMT 40.468048 -81.432617 33,000 138 515 0
2021-07-27 00:37:08 GMT 40.476753 -81.442772 33,000 138 514 64
2021-07-27 00:37:04 GMT 40.482468 -81.449402 33,000 138 514 0
2021-07-27 00:36:59 GMT 40.491898 -81.460388 33,000 138 514 -64
2021-07-27 00:36:56 GMT 40.495464 -81.464500 33,000 138 515 -64
2021-07-27 00:36:53 GMT 40.502075 -81.472115 33,000 138 513 -64
2021-07-27 00:36:50 GMT 40.508686 -81.479729 33,000 138 513 -64
2021-07-27 00:36:47 GMT 40.513321 -81.485046 33,000 138 513 0
2021-07-27 00:36:43 GMT 40.520836 -81.493713 33,000 138 513 64
2021-07-27 00:36:40 GMT 40.524399 -81.497803 33,000 138 512 0
2021-07-27 00:36:37 GMT 40.529728 -81.504013 33,000 138 512 0
2021-07-27 00:36:34 GMT 40.535965 -81.511192 33,000 138 511 64
2021-07-27 00:36:31 GMT 40.541458 -81.517494 33,000 138 511 0
2021-07-27 00:36:28 GMT 40.547695 -81.524673 33,000 138 511 -64
2021-07-27 00:36:22 GMT 40.556263 -81.534409 33,000 138 511 0
2021-07-27 00:36:17 GMT 40.566040 -81.545647 33,000 137 512 0
2021-07-27 00:36:14 GMT 40.572369 -81.553139 33,000 137 512 -64
2021-07-27 00:36:07 GMT 40.583683 -81.567307 33,000 133 513 0
2021-07-27 00:36:01 GMT 40.593201 -81.580750 33,000 125 515 0
2021-07-27 00:35:57 GMT 40.600208 -81.591713 33,000 127 515 0
2021-07-27 00:35:52 GMT 40.612637 -81.613808 33,000 125 515 0
2021-07-27 00:35:48 GMT 40.612637 -81.613808 33,000 122 515 0
2021-07-27 00:35:43 GMT 40.619576 -81.628044 33,000 121 515 0
2021-07-27 00:35:40 GMT 40.622971 -81.635223 33,000 121 514 -64
2021-07-27 00:35:36 GMT 40.628326 -81.646645 33,000 121 515 0
2021-07-27 00:35:31 GMT 40.633896 -81.658691 33,000 121 515 0
2021-07-27 00:35:26 GMT 40.647087 -81.686974 33,000 121 515 0
2021-07-27 00:35:20 GMT 40.651520 -81.696594 33,000 121 515 0
2021-07-27 00:35:17 GMT 40.656876 -81.708069 33,000 121 515 -64
2021-07-27 00:35:12 GMT 40.660858 -81.716675 33,000 121 515 -64
2021-07-27 00:35:09 GMT 40.660858 -81.716675 33,000 121 516 0
2021-07-27 00:35:05 GMT 40.666080 -81.727859 33,000 121 516 0
2021-07-27 00:35:01 GMT 40.671341 -81.739075 33,000 121 515 0
2021-07-27 00:34:58 GMT 40.674088 -81.744957 33,000 121 516 0
2021-07-27 00:34:55 GMT 40.678417 -81.754326 33,000 121 516 0
2021-07-27 00:34:49 GMT 40.686890 -81.772552 33,000 121 516 0
2021-07-27 00:34:44 GMT 40.691730 -81.783035 33,000 121 517 0
2021-07-27 00:34:41 GMT 40.699459 -81.799644 33,000 121 517 0
2021-07-27 00:34:38 GMT 40.699459 -81.799644 33,000 121 517 0
2021-07-27 00:34:35 GMT 40.704300 -81.810127 33,000 121 517 0
2021-07-27 00:34:28 GMT 40.711796 -81.826233 33,000 121 517 0
2021-07-27 00:34:24 GMT 40.716751 -81.836975 33,000 121 517 0
2021-07-27 00:34:21 GMT 40.722015 -81.848267 33,000 121 517 0
2021-07-27 00:34:18 GMT 40.725155 -81.855011 33,000 121 518 0
2021-07-27 00:34:14 GMT 40.730648 -81.866806 33,000 121 518 0
2021-07-27 00:34:10 GMT 40.734650 -81.875427 33,000 121 518 0
2021-07-27 00:34:06 GMT 40.739632 -81.886223 33,000 121 518 0
2021-07-27 00:34:03 GMT 40.742844 -81.893188 33,000 121 519 0
2021-07-27 00:34:00 GMT 40.746231 -81.900513 33,000 121 519 0
2021-07-27 00:33:56 GMT 40.751083 -81.911011 33,000 121 519 0
2021-07-27 00:33:53 GMT 40.758671 -81.927483 33,000 121 519 0
2021-07-27 00:33:50 GMT 40.758671 -81.927483 33,000 121 519 64
2021-07-27 00:33:46 GMT 40.764771 -81.940720 33,000 121 519 0
2021-07-27 00:33:43 GMT 40.768478 -81.948853 33,000 121 519 0
2021-07-27 00:33:39 GMT 40.772324 -81.957275 33,000 121 519 -64
2021-07-27 00:33:36 GMT 40.776672 -81.966736 33,000 121 519 -64
2021-07-27 00:33:33 GMT 40.780289 -81.974548 33,000 121 519 0
2021-07-27 00:33:30 GMT 40.784409 -81.983521 33,000 121 520 0
2021-07-27 00:33:26 GMT 40.790131 -81.995972 33,000 121 520 0
2021-07-27 00:33:23 GMT 40.792515 -82.001076 33,000 121 520 0
2021-07-27 00:33:20 GMT 40.796890 -82.010567 33,000 121 520 0
2021-07-27 00:33:17 GMT 40.800476 -82.018433 33,000 121 520 0
2021-07-27 00:33:14 GMT 40.804386 -82.026863 33,000 121 521 0
2021-07-27 00:33:11 GMT 40.807972 -82.034721 33,000 121 521 0
2021-07-27 00:33:07 GMT 40.813614 -82.046936 33,000 121 521 0
2021-07-27 00:33:03 GMT 40.819328 -82.059380 33,000 121 521 0
2021-07-27 00:33:00 GMT 40.822960 -82.067307 33,000 121 521 0
2021-07-27 00:32:54 GMT 40.829819 -82.082214 33,000 121 521 0
2021-07-27 00:32:51 GMT 40.833576 -82.090340 33,000 121 521 0
2021-07-27 00:32:46 GMT 40.839340 -82.102844 33,000 121 521 0
2021-07-27 00:32:42 GMT 40.844971 -82.115112 33,000 121 521 0
2021-07-27 00:32:38 GMT 40.849262 -82.124298 33,000 121 522 0
2021-07-27 00:32:35 GMT 40.852383 -82.131104 33,000 121 522 0
2021-07-27 00:32:31 GMT 40.857269 -82.141716 33,000 121 523 0
2021-07-27 00:32:28 GMT 40.861786 -82.151581 33,000 121 523 0
2021-07-27 00:32:25 GMT 40.864883 -82.158386 33,000 121 523 0
2021-07-27 00:32:20 GMT 40.872345 -82.174744 33,000 120 522 0
2021-07-27 00:32:15 GMT 40.878220 -82.187599 33,000 120 522 0
2021-07-27 00:32:11 GMT 40.884064 -82.200439 33,000 120 522 0
2021-07-27 00:32:08 GMT 40.885944 -82.204514 33,000 120 523 0
2021-07-27 00:32:05 GMT 40.890656 -82.214905 33,000 120 523 0
2021-07-27 00:32:02 GMT 40.894882 -82.224174 33,000 120 523 0
2021-07-27 00:31:59 GMT 40.896881 -82.228577 33,000 120 523 64
2021-07-27 00:31:56 GMT 40.901867 -82.239532 33,000 120 523 64
2021-07-27 00:31:53 GMT 40.904343 -82.244995 33,000 120 523 64
2021-07-27 00:31:50 GMT 40.908966 -82.255127 33,000 120 524 0
2021-07-27 00:31:47 GMT 40.913040 -82.264160 33,000 120 524 0
2021-07-27 00:31:44 GMT 40.916061 -82.270752 33,000 120 524 0
2021-07-27 00:31:40 GMT 40.925797 -82.292152 33,000 120 524 0
2021-07-27 00:31:33 GMT 40.929661 -82.300644 33,000 120 524 -64
2021-07-27 00:31:30 GMT 40.934502 -82.311317 33,000 120 524 0
2021-07-27 00:31:27 GMT 40.938362 -82.319870 33,000 120 524 0
2021-07-27 00:31:24 GMT 40.941483 -82.326675 33,000 120 524 0
2021-07-27 00:31:21 GMT 40.945347 -82.335228 33,000 120 524 0
2021-07-27 00:31:18 GMT 40.954742 -82.355774 33,000 121 525 0
2021-07-27 00:31:14 GMT 40.961128 -82.369804 33,000 121 525 0
2021-07-27 00:31:08 GMT 40.966015 -82.380486 33,000 121 525 0
2021-07-27 00:31:05 GMT 40.966015 -82.380486 33,000 121 525 0
2021-07-27 00:31:02 GMT 40.970306 -82.389832 33,000 120 524 0
2021-07-27 00:30:58 GMT 40.974426 -82.398865 33,000 120 524 -64
2021-07-27 00:30:55 GMT 40.977421 -82.405510 33,000 121 525 0
2021-07-27 00:30:52 GMT 40.981518 -82.414566 33,000 121 525 64
2021-07-27 00:30:47 GMT 40.987930 -82.428528 33,000 121 525 64
2021-07-27 00:30:43 GMT 40.993668 -82.441216 33,000 121 525 -64
2021-07-27 00:30:37 GMT 41.000324 -82.455765 33,000 121 525 0
2021-07-27 00:30:34 GMT 41.003677 -82.463196 33,000 121 525 -64
2021-07-27 00:30:31 GMT 41.007309 -82.471123 33,000 121 525 0
2021-07-27 00:30:28 GMT 41.012196 -82.481857 33,000 121 526 0
2021-07-27 00:30:24 GMT 41.016571 -82.491470 33,000 121 526 0
2021-07-27 00:30:21 GMT 41.019226 -82.497276 33,000 120 525 0
2021-07-27 00:30:18 GMT 41.023602 -82.506889 33,000 120 525 0
2021-07-27 00:30:15 GMT 41.027466 -82.515442 33,000 120 525 0
2021-07-27 00:30:12 GMT 41.031967 -82.525330 33,000 120 525 0
2021-07-27 00:30:06 GMT 41.038696 -82.540222 33,000 121 526 0
2021-07-27 00:30:03 GMT 41.043091 -82.549866 33,000 120 525 0
2021-07-27 00:30:00 GMT 41.046478 -82.557312 33,000 120 525 -64
2021-07-27 00:29:56 GMT 41.051331 -82.567993 33,000 120 525 0
2021-07-27 00:29:53 GMT 41.056328 -82.579048 33,000 120 525 0
2021-07-27 00:29:50 GMT 41.057968 -82.582642 33,000 120 525 0
2021-07-27 00:29:44 GMT 41.065430 -82.599182 33,000 120 525 64
2021-07-27 00:29:41 GMT 41.070923 -82.611328 33,000 120 525 0
2021-07-27 00:29:36 GMT 41.077137 -82.625114 33,000 120 525 64
2021-07-27 00:29:33 GMT 41.080399 -82.632263 33,000 120 525 0
2021-07-27 00:29:29 GMT 41.084244 -82.640808 33,000 120 525 0
2021-07-27 00:29:25 GMT 41.091335 -82.656578 33,000 120 525 0
2021-07-27 00:29:22 GMT 41.094452 -82.663452 33,000 120 525 64
2021-07-27 00:29:19 GMT 41.096786 -82.668701 33,000 120 525 64
2021-07-27 00:29:14 GMT 41.103790 -82.684204 33,000 120 526 0
2021-07-27 00:29:11 GMT 41.107395 -82.692154 33,000 120 526 -128
2021-07-27 00:29:08 GMT 41.112003 -82.702393 33,000 120 525 -64
2021-07-27 00:29:03 GMT 41.118473 -82.716751 33,000 120 525 0
2021-07-27 00:29:00 GMT 41.122059 -82.724739 33,000 120 525 64
2021-07-27 00:28:54 GMT 41.128529 -82.739098 33,000 120 525 0
2021-07-27 00:28:51 GMT 41.132393 -82.747711 33,000 120 525 0
2021-07-27 00:28:47 GMT 41.137749 -82.759575 33,000 120 525 -64
2021-07-27 00:28:44 GMT 41.145309 -82.776428 33,000 120 525 -64
2021-07-27 00:28:41 GMT 41.145309 -82.776428 33,000 120 525 -64
2021-07-27 00:28:38 GMT 41.149059 -82.784668 33,000 120 525 -64
2021-07-27 00:28:34 GMT 41.154007 -82.795715 33,000 120 524 0
2021-07-27 00:28:31 GMT 41.156460 -82.801270 33,000 120 524 0
2021-07-27 00:28:28 GMT 41.161533 -82.812569 33,000 120 524 0
2021-07-27 00:28:23 GMT 41.169571 -82.830505 33,000 120 524 0
2021-07-27 00:28:20 GMT 41.171452 -82.834602 33,000 120 524 64
2021-07-27 00:28:17 GMT 41.174522 -82.841530 33,000 120 524 128
2021-07-27 00:28:12 GMT 41.180061 -82.853958 33,000 120 524 128
2021-07-27 00:28:09 GMT 41.188477 -82.872681 33,000 120 524 -64
2021-07-27 00:28:06 GMT 41.188477 -82.872681 33,000 120 524 -128
2021-07-27 00:28:03 GMT 41.192680 -82.882111 33,000 120 524 -64
2021-07-27 00:27:59 GMT 41.195892 -82.889282 33,000 120 523 0
2021-07-27 00:27:56 GMT 41.199600 -82.897522 33,000 120 523 64
2021-07-27 00:27:53 GMT 41.204544 -82.908569 33,000 120 523 64
2021-07-27 00:27:50 GMT 41.208252 -82.916809 33,000 120 524 64
2021-07-27 00:27:46 GMT 41.213699 -82.928955 33,000 120 524 -64
2021-07-27 00:27:40 GMT 41.221344 -82.946106 33,000 120 523 0
2021-07-27 00:27:37 GMT 41.224148 -82.952461 33,000 120 523 128
2021-07-27 00:27:34 GMT 41.227112 -82.959106 33,000 120 523 128
2021-07-27 00:27:31 GMT 41.232246 -82.970688 33,000 120 523 128
2021-07-27 00:27:27 GMT 41.240158 -82.988342 33,000 120 524 -64
2021-07-27 00:27:24 GMT 41.240158 -82.988342 33,000 120 523 -64
2021-07-27 00:27:20 GMT 41.245468 -83.000183 33,000 120 523 -64
2021-07-27 00:27:17 GMT 41.247665 -83.005188 33,000 120 523 -64
2021-07-27 00:27:14 GMT 41.252975 -83.017090 33,000 120 523 -64
2021-07-27 00:27:11 GMT 41.255898 -83.023682 33,000 120 523 -64
2021-07-27 00:27:08 GMT 41.260460 -83.033920 33,000 120 523 64
2021-07-27 00:27:05 GMT 41.264145 -83.042175 33,000 120 523 0
2021-07-27 00:27:02 GMT 41.266136 -83.046593 33,000 120 523 0
2021-07-27 00:26:59 GMT 41.271561 -83.058777 33,000 120 523 128
2021-07-27 00:26:56 GMT 41.281128 -83.080299 33,000 120 523 128
2021-07-27 00:26:51 GMT 41.281128 -83.080299 33,000 120 523 -64
2021-07-27 00:26:48 GMT 41.285065 -83.089172 33,000 120 523 -128
2021-07-27 00:26:45 GMT 41.296631 -83.115196 33,000 120 523 64
2021-07-27 00:26:39 GMT 41.296631 -83.115196 33,000 120 524 64
2021-07-27 00:26:36 GMT 41.298817 -83.120186 33,000 120 524 0
2021-07-27 00:26:32 GMT 41.304638 -83.133171 33,000 120 524 0
2021-07-27 00:26:28 GMT 41.309803 -83.144844 33,000 120 524 0
2021-07-27 00:26:25 GMT 41.313389 -83.152832 33,000 120 524 0
2021-07-27 00:26:19 GMT 41.320038 -83.167786 33,000 120 524 0
2021-07-27 00:26:15 GMT 41.326328 -83.181923 33,000 120 524 0
2021-07-27 00:26:12 GMT 41.328285 -83.186356 33,000 120 524 0
2021-07-27 00:26:09 GMT 41.331871 -83.194405 33,000 120 524 -64
2021-07-27 00:26:06 GMT 41.336563 -83.204956 33,000 120 524 0
2021-07-27 00:26:03 GMT 41.339355 -83.211365 33,000 120 524 0
2021-07-27 00:26:00 GMT 41.343090 -83.219688 33,000 120 524 0
2021-07-27 00:25:57 GMT 41.348118 -83.231049 33,000 120 525 0
2021-07-27 00:25:53 GMT 41.351807 -83.239380 33,000 120 525 -64
2021-07-27 00:25:48 GMT 41.357704 -83.252708 33,000 120 525 0
2021-07-27 00:25:45 GMT 41.362976 -83.264648 33,000 120 525 0
2021-07-27 00:25:42 GMT 41.366692 -83.272995 33,000 120 523 -64
2021-07-27 00:25:38 GMT 41.369980 -83.280518 33,000 120 524 0
2021-07-27 00:25:35 GMT 41.375256 -83.292473 33,000 120 524 0
2021-07-27 00:25:31 GMT 41.378563 -83.299965 33,000 120 524 0
2021-07-27 00:25:28 GMT 41.386429 -83.317818 33,000 120 525 -64
2021-07-27 00:25:25 GMT 41.386429 -83.317818 33,000 120 525 -64
2021-07-27 00:25:22 GMT 41.390579 -83.327240 33,000 120 525 -64
2021-07-27 00:25:17 GMT 41.397217 -83.342285 33,000 120 524 0
2021-07-27 00:25:14 GMT 41.400394 -83.349564 33,000 120 524 64
2021-07-27 00:25:11 GMT 41.402817 -83.355125 33,000 120 523 -64
2021-07-27 00:25:08 GMT 41.407238 -83.365150 33,000 120 524 0
2021-07-27 00:25:05 GMT 41.411755 -83.375435 33,000 120 524 0
2021-07-27 00:25:02 GMT 41.415569 -83.384056 33,000 120 523 -64
2021-07-27 00:24:57 GMT 41.421112 -83.396576 33,000 120 523 -64
2021-07-27 00:24:54 GMT 41.425278 -83.406021 33,000 120 523 0
2021-07-27 00:24:51 GMT 41.427719 -83.411591 33,000 120 523 0
2021-07-27 00:24:47 GMT 41.433495 -83.424622 33,000 120 523 0
2021-07-27 00:24:44 GMT 41.436676 -83.431862 33,000 120 524 0
2021-07-27 00:24:41 GMT 41.440338 -83.440201 33,000 120 524 0
2021-07-27 00:24:36 GMT 41.445877 -83.452660 33,000 120 524 0
2021-07-27 00:24:33 GMT 41.451324 -83.464920 33,000 120 524 64
2021-07-27 00:24:30 GMT 41.455261 -83.473808 33,000 120 524 64
2021-07-27 00:24:25 GMT 41.460068 -83.484612 33,000 120 524 0
2021-07-27 00:24:22 GMT 41.462776 -83.490730 33,000 120 524 0
2021-07-27 00:24:19 GMT 41.467163 -83.500710 33,000 120 524 0
2021-07-27 00:24:15 GMT 41.472595 -83.512955 33,000 120 524 0
2021-07-27 00:24:11 GMT 41.477371 -83.523811 33,000 120 523 0
2021-07-27 00:24:08 GMT 41.480301 -83.530426 33,000 120 523 0
2021-07-27 00:24:04 GMT 41.485703 -83.542664 33,000 120 523 0
2021-07-27 00:24:01 GMT 41.488678 -83.549339 33,000 120 523 0
2021-07-27 00:23:58 GMT 41.493454 -83.560226 33,000 120 523 0
2021-07-27 00:23:54 GMT 41.498062 -83.570747 33,000 120 523 0
2021-07-27 00:23:50 GMT 41.503555 -83.583298 33,000 120 523 0
2021-07-27 00:23:47 GMT 41.506721 -83.590500 33,000 120 523 0
2021-07-27 00:23:44 GMT 41.511063 -83.600586 33,000 119 523 0
2021-07-27 00:23:41 GMT 41.513260 -83.605583 33,000 119 523 0
2021-07-27 00:23:36 GMT 41.520592 -83.622627 33,000 119 522 0
2021-07-27 00:23:33 GMT 41.523468 -83.629364 33,000 119 522 0
2021-07-27 00:23:29 GMT 41.528641 -83.641724 33,000 119 522 0
2021-07-27 00:23:23 GMT 41.536057 -83.659454 33,000 118 522 0
2021-07-27 00:23:20 GMT 41.538620 -83.665634 33,000 118 522 0
2021-07-27 00:23:18 GMT 41.540955 -83.671249 33,000 118 522 0
2021-07-27 00:23:12 GMT 41.550980 -83.695473 33,000 118 522 0
2021-07-27 00:23:06 GMT 41.554596 -83.704208 33,000 119 520 -64
2021-07-27 00:23:03 GMT 41.559540 -83.716011 33,000 119 521 -64
2021-07-27 00:23:00 GMT 41.566353 -83.732300 33,000 119 521 0
2021-07-27 00:22:57 GMT 41.566353 -83.732300 33,000 119 521 0
2021-07-27 00:22:53 GMT 41.570938 -83.743225 33,000 119 521 64
2021-07-27 00:22:50 GMT 41.574455 -83.751656 33,000 119 521 0
2021-07-27 00:22:46 GMT 41.578949 -83.762260 33,000 119 521 0
2021-07-27 00:22:42 GMT 41.584511 -83.775414 33,000 119 521 0
2021-07-27 00:22:35 GMT 41.591957 -83.792725 33,000 119 521 0
2021-07-27 00:22:31 GMT 41.596481 -83.803276 33,000 118 521 0
2021-07-27 00:22:27 GMT 41.601639 -83.816360 33,000 108 520 64
2021-07-27 00:22:24 GMT 41.604446 -83.823814 33,000 112 521 0
2021-07-27 00:22:19 GMT 41.609390 -83.838478 33,000 111 521 -64
2021-07-27 00:22:16 GMT 41.612438 -83.848618 33,000 110 520 0
2021-07-27 00:22:11 GMT 41.616165 -83.862091 33,000 107 520 0
2021-07-27 00:22:08 GMT 41.618584 -83.872185 33,000 106 519 0
2021-07-27 00:22:05 GMT 41.620926 -83.882927 33,000 104 519 0
2021-07-27 00:22:01 GMT 41.623100 -83.894409 33,000 102 519 0
2021-07-27 00:21:58 GMT 41.624130 -83.900650 33,000 100 517 -64
2021-07-27 00:21:55 GMT 41.625710 -83.911278 33,000 98 517 -64
2021-07-27 00:21:52 GMT 41.626968 -83.922005 33,000 96 516 0
2021-07-27 00:21:49 GMT 41.627754 -83.930244 33,000 95 516 64
2021-07-27 00:21:44 GMT 41.628891 -83.948906 33,000 93 515 0
2021-07-27 00:21:40 GMT 41.629349 -83.958084 33,000 93 515 0
2021-07-27 00:21:37 GMT 41.629944 -83.970505 33,000 93 515 0
2021-07-27 00:21:33 GMT 41.630493 -83.981552 33,000 93 515 0
2021-07-27 00:21:28 GMT 41.631271 -83.997406 33,000 93 515 0
2021-07-27 00:21:24 GMT 41.631805 -84.008171 33,000 93 515 0
2021-07-27 00:21:21 GMT 41.632233 -84.017067 33,000 93 515 0
2021-07-27 00:21:18 GMT 41.632877 -84.030403 33,000 93 515 0
2021-07-27 00:21:15 GMT 41.633148 -84.036423 33,000 93 515 0
2021-07-27 00:21:12 GMT 41.633835 -84.050339 33,000 93 514 -64
2021-07-27 00:21:09 GMT 41.634201 -84.058266 33,000 93 514 0
2021-07-27 00:21:06 GMT 41.634613 -84.067444 33,000 93 514 0
2021-07-27 00:21:03 GMT 41.634972 -84.074791 33,000 93 514 0
2021-07-27 00:20:59 GMT 41.635666 -84.090294 33,000 93 514 0
2021-07-27 00:20:55 GMT 41.636181 -84.101044 33,000 93 514 0
2021-07-27 00:20:50 GMT 41.636974 -84.118164 33,000 93 514 0
2021-07-27 00:20:46 GMT 41.637531 -84.130493 33,000 93 514 64
2021-07-27 00:20:43 GMT 41.638042 -84.141602 33,000 93 514 0
2021-07-27 00:20:38 GMT 41.638733 -84.156143 33,000 93 514 0
2021-07-27 00:20:34 GMT 41.639210 -84.166901 33,000 93 513 0
2021-07-27 00:20:31 GMT 41.639648 -84.176750 33,000 93 513 0
2021-07-27 00:20:27 GMT 41.640232 -84.189384 33,000 93 512 0
2021-07-27 00:20:24 GMT 41.640743 -84.199860 33,000 93 513 0
2021-07-27 00:20:21 GMT 41.641205 -84.210579 33,000 93 513 0
2021-07-27 00:20:16 GMT 41.641846 -84.223564 33,000 93 513 64
2021-07-27 00:20:13 GMT 41.642467 -84.237160 33,000 93 513 0
2021-07-27 00:20:10 GMT 41.642807 -84.244415 33,000 93 513 0
2021-07-27 00:20:07 GMT 41.643353 -84.256447 33,000 93 513 0
2021-07-27 00:20:02 GMT 41.643951 -84.268761 33,000 93 513 0
2021-07-27 00:20:00 GMT 41.644135 -84.273186 33,000 93 513 0
2021-07-27 00:19:57 GMT 41.645233 -84.296600 33,000 93 513 0
2021-07-27 00:19:54 GMT 41.645233 -84.296600 33,000 93 512 0
2021-07-27 00:19:51 GMT 41.645679 -84.306084 33,000 93 512 0
2021-07-27 00:19:46 GMT 41.646282 -84.319305 33,000 93 512 64
2021-07-27 00:19:43 GMT 41.646843 -84.330994 33,000 93 512 64
2021-07-27 00:19:40 GMT 41.647167 -84.337952 33,000 93 512 0
2021-07-27 00:19:36 GMT 41.647751 -84.350906 33,000 93 512 0
2021-07-27 00:19:32 GMT 41.648285 -84.363503 33,000 93 512 0
2021-07-27 00:19:29 GMT 41.648666 -84.371758 33,000 93 512 0
2021-07-27 00:19:24 GMT 41.649536 -84.390671 33,000 93 512 0
2021-07-27 00:19:20 GMT 41.650101 -84.403938 33,000 93 512 0
2021-07-27 00:19:15 GMT 41.650681 -84.416573 33,000 93 512 0
2021-07-27 00:19:11 GMT 41.651173 -84.427246 33,000 93 512 0
2021-07-27 00:19:08 GMT 41.651733 -84.439293 33,000 93 512 0
2021-07-27 00:19:04 GMT 41.652382 -84.453438 33,000 93 512 0
2021-07-27 00:19:01 GMT 41.652756 -84.461998 33,000 93 512 0
2021-07-27 00:18:56 GMT 41.653404 -84.476173 33,000 93 511 0
2021-07-27 00:18:53 GMT 41.653976 -84.488174 33,000 93 511 0
2021-07-27 00:18:48 GMT 41.654572 -84.501717 33,000 93 511 0
2021-07-27 00:18:43 GMT 41.655361 -84.519035 33,000 93 511 0
2021-07-27 00:18:40 GMT 41.655685 -84.526321 33,000 93 511 0
2021-07-27 00:18:37 GMT 41.656082 -84.535736 33,000 93 511 0
2021-07-27 00:18:33 GMT 41.656712 -84.548996 33,000 93 510 0
2021-07-27 00:18:29 GMT 41.657318 -84.563141 33,000 93 510 64
2021-07-27 00:18:26 GMT 41.658051 -84.579185 33,000 93 510 0
2021-07-27 00:18:24 GMT 41.658051 -84.579185 33,000 93 510 0
2021-07-27 00:18:20 GMT 41.658646 -84.592979 33,000 93 510 0
2021-07-27 00:18:17 GMT 41.658920 -84.599281 33,000 93 509 0
2021-07-27 00:18:10 GMT 41.660156 -84.627251 33,000 94 509 0
2021-07-27 00:18:07 GMT 41.660385 -84.631927 33,000 93 509 0
2021-07-27 00:18:02 GMT 41.660900 -84.644485 33,000 93 509 0
2021-07-27 00:17:59 GMT 41.661484 -84.658272 33,000 93 509 64
2021-07-27 00:17:55 GMT 41.661896 -84.667389 33,000 93 508 64
2021-07-27 00:17:53 GMT 41.662262 -84.676498 33,000 93 508 0
2021-07-27 00:17:48 GMT 41.662903 -84.691544 33,000 93 508 0
2021-07-27 00:17:44 GMT 41.663406 -84.703712 33,000 93 508 0
2021-07-27 00:17:40 GMT 41.664001 -84.718445 33,000 94 509 0
2021-07-27 00:17:37 GMT 41.664486 -84.728798 33,000 94 509 -64
2021-07-27 00:17:32 GMT 41.665283 -84.741356 33,000 96 509 -64
2021-07-27 00:17:29 GMT 41.666023 -84.750710 33,000 99 511 64
2021-07-27 00:17:25 GMT 41.667068 -84.762581 33,000 98 511 0
2021-07-27 00:17:20 GMT 41.668442 -84.775681 33,000 99 511 64
2021-07-27 00:17:17 GMT 41.670959 -84.795288 33,000 100 511 64
2021-07-27 00:17:14 GMT 41.670959 -84.795288 33,000 101 512 0
2021-07-27 00:17:11 GMT 41.672974 -84.808960 33,000 103 513 0
2021-07-27 00:17:05 GMT 41.675983 -84.826843 33,000 104 513 0
2021-07-27 00:16:59 GMT 41.679337 -84.844025 33,000 105 514 0
2021-07-27 00:16:54 GMT 41.682270 -84.858147 33,000 105 515 0
2021-07-27 00:16:51 GMT 41.684601 -84.869133 33,000 105 515 0
2021-07-27 00:16:49 GMT 41.685242 -84.872192 33,000 105 515 0
2021-07-27 00:16:44 GMT 41.688877 -84.889633 33,000 105 515 0
2021-07-27 00:16:40 GMT 41.691113 -84.900368 33,000 105 515 0
2021-07-27 00:16:36 GMT 41.693985 -84.914139 33,000 105 515 0
2021-07-27 00:16:33 GMT 41.696503 -84.926125 33,000 105 515 0
2021-07-27 00:16:29 GMT 41.697876 -84.932869 32,850 105 516 1344
2021-07-27 00:16:22 GMT 41.703323 -84.958961 33,000 105 516 -64
2021-07-27 00:16:19 GMT 41.704880 -84.966637 33,000 105 516 -64
2021-07-27 00:16:15 GMT 41.707455 -84.978928 33,000 105 515 320
2021-07-27 00:16:12 GMT 41.710052 -84.991547 33,000 105 516 -64
2021-07-27 00:16:09 GMT 41.710922 -84.995850 33,000 105 516 -64
2021-07-27 00:16:02 GMT 41.715462 -85.017639 33,025 105 516 -64
2021-07-27 00:15:58 GMT 41.718338 -85.031494 33,000 105 516 192
2021-07-27 00:15:55 GMT 41.720535 -85.042229 32,975 105 515 640
2021-07-27 00:15:51 GMT 41.722397 -85.051109 32,900 105 515 1216
2021-07-27 00:15:48 GMT 41.724537 -85.061584 32,875 105 515 1408
2021-07-27 00:15:45 GMT 41.728683 -85.081497 32,850 105 516 1344
2021-07-27 00:15:42 GMT 41.728683 -85.081497 32,725 105 516 1344
2021-07-27 00:15:39 GMT 41.730263 -85.089172 32,650 105 520 1408
2021-07-27 00:15:35 GMT 41.732498 -85.099968 32,575 105 516 1216
2021-07-27 00:15:31 GMT 41.735432 -85.114151 32,475 105 517 1344
2021-07-27 00:15:26 GMT 41.738548 -85.129227 32,400 105 517 1472
2021-07-27 00:15:22 GMT 41.741409 -85.143105 32,250 105 518 1408
2021-07-27 00:15:18 GMT 41.744091 -85.156052 32,175 105 518 1408
2021-07-27 00:15:14 GMT 41.746838 -85.169334 32,050 105 519 1408
2021-07-27 00:15:10 GMT 41.748421 -85.177063 32,000 105 519 1344
2021-07-27 00:15:05 GMT 41.752518 -85.196869 31,825 105 520 1344
2021-07-27 00:15:02 GMT 41.754051 -85.204277 31,800 105 520 1344
2021-07-27 00:14:59 GMT 41.755260 -85.210152 31,750 105 520 1344
2021-07-27 00:14:54 GMT 41.759220 -85.229446 31,625 105 521 1408
2021-07-27 00:14:50 GMT 41.761642 -85.241234 31,525 105 521 1408
2021-07-27 00:14:44 GMT 41.765179 -85.258316 31,400 105 521 1408
2021-07-27 00:14:41 GMT 41.766678 -85.265762 31,350 105 522 1344
2021-07-27 00:14:38 GMT 41.768764 -85.275749 31,275 105 522 1344
2021-07-27 00:14:35 GMT 41.770523 -85.284431 31,175 105 522 1280
2021-07-27 00:14:32 GMT 41.773090 -85.296890 31,125 105 522 1152
2021-07-27 00:14:29 GMT 41.775009 -85.306213 31,100 105 522 896
2021-07-27 00:14:25 GMT 41.776909 -85.315544 31,025 105 520 384
2021-07-27 00:14:22 GMT 41.779514 -85.328316 31,025 105 520 320
2021-07-27 00:14:18 GMT 41.782215 -85.341347 31,000 105 520 64
2021-07-27 00:14:11 GMT 41.787289 -85.366135 31,000 105 519 0
2021-07-27 00:14:08 GMT 41.788284 -85.371071 31,000 105 519 0
2021-07-27 00:14:04 GMT 41.790970 -85.384079 31,000 105 519 0
2021-07-27 00:14:01 GMT 41.793015 -85.394302 31,000 105 519 0
2021-07-27 00:13:58 GMT 41.794785 -85.402969 31,000 105 519 0
2021-07-27 00:13:53 GMT 41.797577 -85.416595 31,000 105 519 0
2021-07-27 00:13:50 GMT 41.799625 -85.426811 31,000 105 519 0
2021-07-27 00:13:46 GMT 41.802200 -85.439552 31,000 105 519 0
2021-07-27 00:13:41 GMT 41.805222 -85.454407 31,000 105 519 0
2021-07-27 00:13:36 GMT 41.809021 -85.473007 31,000 105 519 0
2021-07-27 00:13:33 GMT 41.811031 -85.482895 31,000 105 519 0
2021-07-27 00:13:29 GMT 41.812363 -85.489426 31,000 105 519 0
2021-07-27 00:13:26 GMT 41.814617 -85.500526 31,000 105 518 0
2021-07-27 00:13:22 GMT 41.817223 -85.513557 31,000 105 518 0
2021-07-27 00:13:20 GMT 41.818668 -85.520706 31,000 105 518 0
2021-07-27 00:13:15 GMT 41.821598 -85.535271 31,000 105 518 0
2021-07-27 00:13:11 GMT 41.823647 -85.545494 31,000 105 518 0
2021-07-27 00:13:09 GMT 41.825546 -85.554779 31,000 105 518 0
2021-07-27 00:13:05 GMT 41.828487 -85.569313 31,000 105 518 0
2021-07-27 00:13:00 GMT 41.830215 -85.578003 31,000 105 518 0
2021-07-27 00:12:57 GMT 41.832352 -85.588539 31,000 105 518 0
2021-07-27 00:12:54 GMT 41.834911 -85.601250 31,000 105 518 0
2021-07-27 00:12:51 GMT 41.836914 -85.611214 31,000 105 518 0
2021-07-27 00:12:47 GMT 41.839104 -85.622009 31,000 105 518 -64
2021-07-27 00:12:44 GMT 41.840652 -85.629814 31,000 105 518 -64
2021-07-27 00:12:41 GMT 41.842896 -85.640923 31,000 105 516 0
2021-07-27 00:12:38 GMT 41.845154 -85.652100 31,025 105 515 0
2021-07-27 00:12:35 GMT 41.846741 -85.660088 31,025 105 515 0
2021-07-27 00:12:32 GMT 41.848663 -85.669640 31,025 104 508 0
2021-07-27 00:12:27 GMT 41.851089 -85.681625 31,025 105 512 0
2021-07-27 00:12:22 GMT 41.854980 -85.701164 31,025 104 509 -64
2021-07-27 00:12:18 GMT 41.856934 -85.710922 31,025 104 507 -64
2021-07-27 00:12:15 GMT 41.858963 -85.721260 31,025 104 505 0
2021-07-27 00:12:13 GMT 41.859650 -85.724571 31,025 104 505 -64
2021-07-27 00:12:10 GMT 41.861481 -85.733932 31,025 104 503 -64
2021-07-27 00:12:07 GMT 41.864182 -85.747482 31,025 104 500 -64
2021-07-27 00:12:04 GMT 41.866058 -85.756783 31,025 105 497 -64
2021-07-27 00:12:01 GMT 41.867500 -85.763939 31,025 104 496 0
2021-07-27 00:11:56 GMT 41.870758 -85.780289 31,000 105 493 576
2021-07-27 00:11:52 GMT 41.872250 -85.787636 31,000 105 493 576
2021-07-27 00:11:49 GMT 41.874115 -85.797104 30,775 105 493 1408
2021-07-27 00:11:43 GMT 41.877914 -85.815956 30,775 105 493 1728
2021-07-27 00:11:41 GMT 41.879326 -85.823090 30,725 104 495 1728
2021-07-27 00:11:37 GMT 41.881279 -85.832794 30,525 104 494 1728
2021-07-27 00:11:34 GMT 41.883095 -85.841995 30,525 104 494 1728
2021-07-27 00:11:30 GMT 41.885422 -85.853554 30,425 104 496 1600
2021-07-27 00:11:25 GMT 41.888077 -85.866905 30,300 104 496 1600
2021-07-27 00:11:22 GMT 41.890091 -85.877007 30,200 104 496 1600
2021-07-27 00:11:18 GMT 41.892124 -85.887093 29,375 104 496 1472
2021-07-27 00:11:15 GMT 41.894455 -85.898972 30,000 104 497 1472
2021-07-27 00:11:13 GMT 41.895126 -85.902222 29,975 104 497 1472
2021-07-27 00:11:09 GMT 41.898193 -85.917702 29,575 104 497 1536
2021-07-27 00:11:03 GMT 41.901489 -85.934372 29,675 104 497 1472
2021-07-27 00:11:00 GMT 41.903778 -85.945984 29,600 104 497 1536
2021-07-27 00:10:56 GMT 41.906067 -85.957596 29,100 104 497 1536
2021-07-27 00:10:53 GMT 41.907207 -85.963226 29,450 104 497 1472
2021-07-27 00:10:49 GMT 41.910324 -85.979004 29,100 104 496 1472
2021-07-27 00:10:46 GMT 41.911819 -85.986732 29,300 104 497 1408
2021-07-27 00:10:43 GMT 41.913307 -85.994141 29,200 104 496 1408
2021-07-27 00:10:37 GMT 41.916939 -86.012604 29,050 104 496 1472
2021-07-27 00:10:32 GMT 41.919777 -86.027168 28,925 104 496 1472
2021-07-27 00:10:27 GMT 41.922291 -86.039940 28,825 104 496 1408
2021-07-27 00:10:20 GMT 41.926117 -86.059532 28,675 104 495 1408
2021-07-27 00:10:15 GMT 41.929779 -86.078255 28,525 104 495 1472
2021-07-27 00:10:10 GMT 41.932068 -86.089828 28,425 104 494 1472
2021-07-27 00:10:08 GMT 41.933578 -86.097481 28,375 104 494 1472
2021-07-27 00:10:04 GMT 41.936024 -86.109947 28,150 104 493 1408
2021-07-27 00:10:00 GMT 41.938339 -86.121765 28,175 104 493 1408
2021-07-27 00:09:56 GMT 41.940960 -86.134796 27,950 104 493 1344
2021-07-27 00:09:51 GMT 41.943100 -86.145737 28,000 103 493 1216
2021-07-27 00:09:48 GMT 41.945023 -86.156097 27,925 103 492 1088
2021-07-27 00:09:46 GMT 41.945988 -86.161751 27,900 99 488 1024
2021-07-27 00:09:44 GMT 41.947311 -86.170082 27,850 101 490 1024
2021-07-27 00:09:38 GMT 41.949619 -86.185890 27,750 100 489 960
2021-07-27 00:09:36 GMT 41.950836 -86.195419 27,700 97 487 1088
2021-07-27 00:09:33 GMT 41.951523 -86.201668 27,650 96 486 1088
2021-07-27 00:09:29 GMT 41.952759 -86.213341 27,475 96 485 1088
2021-07-27 00:09:26 GMT 41.953674 -86.224388 27,475 94 483 1152
2021-07-27 00:09:22 GMT 41.954269 -86.232498 27,425 94 483 1216
2021-07-27 00:09:19 GMT 41.954956 -86.243858 27,400 92 481 1216
2021-07-27 00:09:16 GMT 41.955322 -86.252167 27,350 92 481 1216
2021-07-27 00:09:13 GMT 41.955688 -86.262650 27,275 91 480 1216
2021-07-27 00:09:08 GMT 41.955872 -86.276321 26,650 90 479 1152
2021-07-27 00:09:05 GMT 41.955902 -86.284637 27,125 89 478 1152
2021-07-27 00:09:01 GMT 41.955780 -86.294678 27,050 89 477 1216
2021-07-27 00:08:57 GMT 41.955643 -86.306221 26,950 89 475 1216
2021-07-27 00:08:54 GMT 41.955551 -86.315964 26,875 89 475 1216
2021-07-27 00:08:52 GMT 41.955460 -86.324509 26,850 89 475 1216
2021-07-27 00:08:47 GMT 41.955296 -86.338295 26,750 89 474 1216
2021-07-27 00:08:43 GMT 41.955185 -86.350044 26,675 89 472 1344
2021-07-27 00:08:40 GMT 41.955093 -86.357346 26,625 89 472 1280
2021-07-27 00:08:36 GMT 41.954971 -86.367294 26,300 89 470 1344
2021-07-27 00:08:33 GMT 41.954830 -86.377518 26,450 89 471 1408
2021-07-27 00:08:30 GMT 41.954727 -86.386871 26,350 89 470 1280
2021-07-27 00:08:26 GMT 41.954590 -86.398232 26,300 89 469 1344
2021-07-27 00:08:23 GMT 41.954460 -86.409836 26,200 89 468 1408
2021-07-27 00:08:19 GMT 41.954319 -86.421715 26,100 89 468 1536
2021-07-27 00:08:14 GMT 41.954178 -86.434189 26,000 89 467 1472
2021-07-27 00:08:10 GMT 41.954041 -86.444923 25,850 89 466 1344
2021-07-27 00:08:08 GMT 41.953995 -86.450668 25,875 89 466 1344
2021-07-27 00:08:04 GMT 41.953899 -86.460808 25,800 89 464 1472
2021-07-27 00:08:02 GMT 41.953762 -86.469429 25,725 89 464 1472
2021-07-27 00:07:57 GMT 41.953354 -86.506226 25,175 89 460 1408
2021-07-27 00:07:50 GMT 41.953354 -86.506226 25,425 89 462 1408
2021-07-27 00:07:47 GMT 41.953308 -86.512215 25,375 89 461 1472
2021-07-27 00:07:44 GMT 41.953217 -86.520515 25,300 89 460 1472
2021-07-27 00:07:40 GMT 41.953064 -86.531898 25,150 89 460 1408
2021-07-27 00:07:36 GMT 41.952923 -86.546463 25,025 89 459 1344
2021-07-27 00:07:32 GMT 41.952805 -86.555534 25,000 89 456 1472
2021-07-27 00:07:29 GMT 41.952713 -86.564339 24,925 89 457 1536
2021-07-27 00:07:25 GMT 41.952599 -86.572838 24,850 89 457 1472
2021-07-27 00:07:21 GMT 41.952412 -86.587532 24,725 89 455 1280
2021-07-27 00:07:17 GMT 41.952301 -86.597733 24,650 88 454 1152
2021-07-27 00:07:12 GMT 41.952164 -86.610344 24,575 88 452 1280
2021-07-27 00:07:09 GMT 41.952026 -86.620209 24,500 88 452 1408
2021-07-27 00:07:05 GMT 41.951843 -86.634186 24,375 89 451 1472
2021-07-27 00:07:00 GMT 41.951714 -86.645912 24,250 89 450 1536
2021-07-27 00:06:57 GMT 41.951614 -86.652290 24,225 89 449 1600
2021-07-27 00:06:54 GMT 41.951572 -86.659004 24,125 88 449 1600
2021-07-27 00:06:50 GMT 41.951294 -86.681190 23,950 88 448 1600
2021-07-27 00:06:47 GMT 41.951294 -86.681190 23,875 88 447 1664
2021-07-27 00:06:44 GMT 41.951153 -86.691200 23,825 88 446 1664
2021-07-27 00:06:41 GMT 41.951065 -86.698418 23,750 88 446 1664
2021-07-27 00:06:37 GMT 41.950920 -86.710556 23,625 88 445 1536
2021-07-27 00:06:34 GMT 41.950836 -86.717148 23,575 88 443 1472
2021-07-27 00:06:31 GMT 41.950687 -86.727097 23,500 88 444 1472
2021-07-27 00:06:28 GMT 41.950642 -86.732841 23,375 88 442 1472
2021-07-27 00:06:25 GMT 41.950550 -86.739998 23,375 88 442 1472
2021-07-27 00:06:22 GMT 41.950409 -86.749832 23,200 88 440 1408
2021-07-27 00:06:18 GMT 41.950195 -86.762962 23,175 88 439 1344
2021-07-27 00:06:15 GMT 41.950130 -86.770020 23,125 88 438 1216
2021-07-27 00:06:11 GMT 41.949966 -86.779823 23,050 88 436 1152
2021-07-27 00:06:08 GMT 41.949898 -86.786819 23,000 88 435 1280
2021-07-27 00:06:06 GMT 41.949802 -86.793587 22,950 88 434 1344
2021-07-27 00:06:04 GMT 41.949757 -86.797356 22,900 88 433 1344
2021-07-27 00:06:01 GMT 41.949600 -86.806473 22,850 88 432 1280
2021-07-27 00:05:58 GMT 41.949463 -86.815338 22,775 88 431 1344
2021-07-27 00:05:55 GMT 41.949341 -86.823868 22,675 88 429 1472
2021-07-27 00:05:51 GMT 41.949245 -86.832108 22,675 88 429 1472
2021-07-27 00:05:47 GMT 41.948914 -86.854164 22,400 88 426 1408
2021-07-27 00:05:44 GMT 41.948914 -86.854164 22,400 88 426 1408
2021-07-27 00:05:40 GMT 41.948780 -86.860977 22,050 88 425 1472
2021-07-27 00:05:36 GMT 41.948593 -86.874451 22,200 88 423 1856
2021-07-27 00:05:33 GMT 41.948315 -86.891510 22,000 88 423 1856
2021-07-27 00:05:26 GMT 41.948227 -86.897240 21,875 88 422 1664
2021-07-27 00:05:23 GMT 41.948090 -86.907471 21,825 88 421 1792
2021-07-27 00:05:18 GMT 41.947895 -86.918907 21,600 88 420 2112
2021-07-27 00:05:15 GMT 41.947758 -86.929321 21,550 88 420 2112
2021-07-27 00:05:12 GMT 41.947678 -86.934814 21,475 88 420 2048
2021-07-27 00:05:07 GMT 41.947384 -86.950653 21,275 88 419 2048
2021-07-27 00:05:03 GMT 41.947220 -86.961029 21,125 88 418 2048
2021-07-27 00:05:00 GMT 41.947128 -86.964401 21,100 88 418 2048
2021-07-27 00:04:58 GMT 41.946991 -86.971954 21,000 88 418 2048
2021-07-27 00:04:53 GMT 41.946823 -86.983292 20,800 88 415 1920
2021-07-27 00:04:51 GMT 41.946686 -86.990829 20,750 88 417 2048
2021-07-27 00:04:49 GMT 41.946545 -86.997284 20,650 88 416 1984
2021-07-27 00:04:46 GMT 41.946453 -87.004753 20,575 88 415 1920
2021-07-27 00:04:43 GMT 41.946358 -87.009933 20,500 87 415 1920
2021-07-27 00:04:39 GMT 41.945988 -87.021744 20,275 85 413 2048
2021-07-27 00:04:36 GMT 41.945663 -87.027885 20,275 85 413 2048
2021-07-27 00:04:33 GMT 41.945114 -87.036812 20,150 83 411 1984
2021-07-27 00:04:29 GMT 41.944336 -87.045677 19,975 82 409 1920
2021-07-27 00:04:26 GMT 41.943611 -87.053238 19,950 80 409 1920
2021-07-27 00:04:22 GMT 41.942551 -87.062279 19,825 79 407 1984
2021-07-27 00:04:19 GMT 41.941147 -87.072716 19,675 77 405 2048
2021-07-27 00:04:15 GMT 41.939468 -87.083260 19,375 76 404 1984
2021-07-27 00:04:11 GMT 41.938400 -87.089394 19,450 75 403 1856
2021-07-27 00:04:09 GMT 41.937141 -87.095970 19,375 74 402 1728
2021-07-27 00:04:06 GMT 41.935959 -87.101730 19,300 72 399 1664
2021-07-27 00:04:03 GMT 41.934162 -87.109833 18,625 71 396 1920
2021-07-27 00:04:00 GMT 41.932720 -87.115707 19,150 71 398 1728
2021-07-27 00:03:57 GMT 41.930252 -87.125801 19,000 71 396 1920
2021-07-27 00:03:53 GMT 41.928452 -87.133255 18,900 71 395 1920
2021-07-27 00:03:50 GMT 41.926716 -87.140236 18,825 71 395 1920
2021-07-27 00:03:46 GMT 41.924469 -87.149544 18,675 71 394 1984
2021-07-27 00:03:40 GMT 41.918381 -87.174332 18,300 71 391 2176
2021-07-27 00:03:35 GMT 41.918381 -87.174332 18,325 71 391 2176
2021-07-27 00:03:32 GMT 41.916565 -87.181747 18,150 71 391 2176
2021-07-27 00:03:29 GMT 41.914562 -87.189995 18,075 71 390 2176
2021-07-27 00:03:26 GMT 41.912518 -87.198296 17,925 71 390 2240
2021-07-27 00:03:22 GMT 41.910690 -87.205917 17,725 71 390 2368
2021-07-27 00:03:18 GMT 41.908558 -87.214584 17,650 71 389 2368
2021-07-27 00:03:16 GMT 41.907211 -87.220085 17,575 71 389 2304
2021-07-27 00:03:13 GMT 41.905392 -87.227425 17,450 71 389 2112
2021-07-27 00:03:10 GMT 41.903366 -87.235687 17,350 71 388 2048
2021-07-27 00:03:07 GMT 41.902645 -87.238663 17,275 71 387 1920
2021-07-27 00:03:05 GMT 41.901016 -87.245308 17,175 71 386 1984
2021-07-27 00:03:00 GMT 41.898239 -87.256416 16,950 71 385 2304
2021-07-27 00:02:57 GMT 41.896687 -87.262810 16,900 71 385 2240
2021-07-27 00:02:54 GMT 41.894920 -87.269836 16,800 71 385 2176
2021-07-27 00:02:50 GMT 41.892406 -87.279991 16,650 71 383 1664
2021-07-27 00:02:46 GMT 41.890732 -87.286751 16,575 71 381 1472
2021-07-27 00:02:43 GMT 41.888855 -87.294365 16,475 71 380 1664
2021-07-27 00:02:39 GMT 41.886612 -87.303543 16,300 71 378 2304
2021-07-27 00:02:36 GMT 41.885010 -87.309975 16,225 71 378 2240
2021-07-27 00:02:33 GMT 41.883656 -87.315567 16,125 71 377 2048
2021-07-27 00:02:29 GMT 41.880859 -87.326614 15,950 71 374 1856
2021-07-27 00:02:26 GMT 41.879791 -87.331070 15,950 71 374 1856
2021-07-27 00:02:23 GMT 41.877548 -87.340057 15,775 71 373 2048
2021-07-27 00:02:18 GMT 41.875320 -87.348846 15,625 71 372 2304
2021-07-27 00:02:15 GMT 41.871780 -87.363029 15,200 71 371 2432
2021-07-27 00:02:12 GMT 41.871780 -87.363029 15,375 71 371 2560
2021-07-27 00:02:10 GMT 41.870819 -87.366714 15,225 71 371 2560
2021-07-27 00:02:07 GMT 41.869263 -87.373085 15,100 71 371 2432
2021-07-27 00:02:04 GMT 41.867409 -87.380463 15,025 71 369 2368
2021-07-27 00:02:02 GMT 41.866241 -87.384995 14,950 71 369 2240
2021-07-27 00:02:00 GMT 41.865570 -87.390762 13,600 71 357 1984
2021-07-27 00:01:58 GMT 41.864552 -87.394958 13,600 71 357 1984
2021-07-27 00:01:57 GMT 41.864052 -87.397072 13,600 71 357 1984
2021-07-27 00:01:56 GMT 41.863541 -87.399170 13,600 71 357 1984
2021-07-27 00:01:55 GMT 41.863029 -87.401268 13,600 71 357 1984
2021-07-27 00:01:53 GMT 41.862019 -87.405479 13,600 71 357 1984
2021-07-27 00:01:52 GMT 41.861511 -87.407578 13,600 71 357 1984
2021-07-27 00:01:51 GMT 41.861000 -87.409683 13,600 71 357 1984
2021-07-27 00:01:49 GMT 41.859982 -87.413887 13,600 71 357 1984
2021-07-27 00:01:48 GMT 41.859482 -87.415993 13,600 71 357 1984
2021-07-27 00:01:47 GMT 41.858971 -87.418091 13,600 71 357 1984
2021-07-27 00:01:46 GMT 41.857948 -87.422302 13,600 71 357 1984
2021-07-27 00:01:44 GMT 41.857441 -87.424400 13,600 71 357 1984
2021-07-27 00:01:43 GMT 41.856930 -87.426498 14,250 71 357 1984
2021-07-27 00:01:42 GMT 41.855919 -87.430702 13,600 71 357 1984
2021-07-27 00:01:40 GMT 41.855412 -87.432808 13,600 71 357 1984
2021-07-27 00:01:38 GMT 41.854389 -87.437012 13,600 71 357 1984
2021-07-27 00:01:37 GMT 41.853882 -87.439110 13,600 71 357 1984
2021-07-27 00:01:36 GMT 41.853378 -87.441223 13,600 71 357 1984
2021-07-27 00:01:35 GMT 41.852360 -87.445419 13,600 71 357 1984
2021-07-27 00:01:33 GMT 41.851849 -87.447517 13,600 71 357 1984
2021-07-27 00:01:32 GMT 41.851341 -87.449623 13,600 71 357 1984
2021-07-27 00:01:31 GMT 41.850830 -87.451729 13,600 71 357 1984
2021-07-27 00:01:29 GMT 41.849991 -87.456047 13,400 71 357 1984
2021-07-27 00:01:28 GMT 41.849468 -87.458153 13,400 71 357 1984
2021-07-27 00:01:27 GMT 41.848949 -87.460251 13,400 71 357 1984
2021-07-27 00:01:26 GMT 41.848431 -87.462349 13,400 71 357 1984
2021-07-27 00:01:24 GMT 41.847569 -87.466728 13,000 71 357 1984
2021-07-27 00:01:23 GMT 41.847038 -87.468826 13,000 71 357 1984
2021-07-27 00:01:22 GMT 41.846519 -87.470917 13,000 71 357 1984
2021-07-27 00:01:21 GMT 41.845989 -87.473007 13,000 71 357 1984
2021-07-27 00:01:19 GMT 41.845150 -87.477493 13,000 70 356 1984
2021-07-27 00:01:18 GMT 41.844608 -87.479568 13,000 70 356 1984
2021-07-27 00:01:17 GMT 41.844082 -87.481651 13,000 70 356 1984
2021-07-27 00:01:16 GMT 41.843540 -87.483727 13,000 70 356 1984
2021-07-27 00:01:14 GMT 41.842651 -87.488159 12,800 70 355 1984
2021-07-27 00:01:13 GMT 41.842110 -87.490227 12,800 70 355 1984
2021-07-27 00:01:12 GMT 41.841560 -87.492302 12,800 70 355 1984
2021-07-27 00:01:11 GMT 41.840080 -87.495651 12,600 71 362 1984
2021-07-27 00:01:09 GMT 41.839561 -87.497780 12,600 71 362 1984
2021-07-27 00:01:08 GMT 41.839039 -87.499908 12,600 71 362 1984
2021-07-27 00:01:07 GMT 41.838520 -87.502037 12,600 71 362 1984
2021-07-27 00:01:05 GMT 41.838039 -87.507507 12,400 69 348 1984
2021-07-27 00:01:03 GMT 41.836948 -87.511559 12,400 69 348 1984
2021-07-27 00:01:02 GMT 41.836399 -87.513588 12,400 69 348 1984
2021-07-27 00:01:00 GMT 41.835289 -87.518188 12,100 69 342 1984
2021-07-27 00:00:59 GMT 41.834759 -87.520180 12,100 69 342 672
2021-07-27 00:00:58 GMT 41.834221 -87.522171 12,100 69 342 672
2021-07-27 00:00:57 GMT 41.833832 -87.524811 12,100 69 336 672
2021-07-27 00:00:56 GMT 41.833302 -87.526772 12,100 69 336 672
2021-07-27 00:00:54 GMT 41.832218 -87.530678 12,100 69 336 672
2021-07-27 00:00:53 GMT 41.831692 -87.532631 12,100 69 336 672
2021-07-27 00:00:52 GMT 41.831299 -87.534981 11,900 69 334 672
2021-07-27 00:00:50 GMT 41.830212 -87.538849 11,900 69 334 672
2021-07-27 00:00:49 GMT 41.829670 -87.540787 11,900 69 334 672
2021-07-27 00:00:48 GMT 41.829128 -87.542717 11,900 69 334 672
2021-07-27 00:00:47 GMT 41.828239 -87.543808 11,700 70 344 672
2021-07-27 00:00:45 GMT 41.827221 -87.547852 11,700 70 344 672
2021-07-27 00:00:44 GMT 41.826710 -87.549858 11,700 70 344 672
2021-07-27 00:00:42 GMT 41.825821 -87.553818 11,700 70 344 672
2021-07-27 00:00:41 GMT 41.825291 -87.555840 11,700 70 344 672
2021-07-27 00:00:40 GMT 41.824772 -87.557854 11,700 70 344 672
2021-07-27 00:00:39 GMT 41.824242 -87.559860 11,700 70 344 672
2021-07-27 00:00:37 GMT 41.823261 -87.563980 11,600 70 338 0
2021-07-27 00:00:36 GMT 41.822739 -87.565948 11,600 70 338 0
2021-07-27 00:00:35 GMT 41.822208 -87.567917 11,600 70 338 0
2021-07-27 00:00:34 GMT 41.821690 -87.569901 11,600 70 338 0
2021-07-27 00:00:32 GMT 41.820412 -87.574097 11,600 70 324 2496
2021-07-27 00:00:31 GMT 41.819931 -87.575996 11,600 70 324 2496
2021-07-27 00:00:30 GMT 41.818989 -87.580482 11,500 70 306 2496
2021-07-27 00:00:28 GMT 41.818508 -87.582260 11,500 70 306 2496
2021-07-27 00:00:27 GMT 41.818031 -87.584038 11,525 70 306 2496
2021-07-27 00:00:26 GMT 41.817539 -87.585831 11,500 70 306 2496
2021-07-27 00:00:25 GMT 41.817059 -87.587608 11,500 70 306 2496
2021-07-27 00:00:23 GMT 41.816040 -87.591438 11,400 70 302 2496
2021-07-27 00:00:22 GMT 41.815559 -87.593208 11,400 70 302 2496
2021-07-27 00:00:21 GMT 41.815090 -87.594971 11,400 70 302 2496
2021-07-27 00:00:19 GMT 41.814060 -87.598457 11,400 69 302 2496
2021-07-27 00:00:18 GMT 41.813599 -87.600220 11,400 69 302 2496
2021-07-27 00:00:17 GMT 41.813129 -87.601982 11,400 69 302 2496
2021-07-27 00:00:16 GMT 41.812672 -87.603737 11,400 69 302 2496
2021-07-27 00:00:14 GMT 41.812099 -87.608620 11,200 67 285 2496
2021-07-27 00:00:13 GMT 41.811619 -87.610252 11,200 67 285 2496
2021-07-27 00:00:11 GMT 41.810650 -87.613533 11,200 67 285 2496
2021-07-27 00:00:10 GMT 41.810440 -87.615883 10,800 66 280 2496
2021-07-27 00:00:09 GMT 41.809929 -87.617477 10,800 66 280 2496
2021-07-27 00:00:08 GMT 41.809422 -87.619080 10,800 66 280 2496
2021-07-27 00:00:07 GMT 41.808922 -87.620667 10,800 66 280 2496
2021-07-27 00:00:05 GMT 41.808109 -87.624008 10,800 67 287 2496
2021-07-27 00:00:04 GMT 41.807579 -87.625641 10,800 67 287 2496
2021-07-27 00:00:03 GMT 41.807060 -87.627274 10,800 67 287 2496
2021-07-27 00:00:01 GMT 41.806179 -87.629852 10,600 68 306 2496
2021-07-27 00:00:00 GMT 41.805641 -87.631599 10,600 68 306 2496
2021-07-26 23:59:59 GMT 41.805111 -87.633347 10,600 68 306 2496
2021-07-26 23:59:57 GMT 41.804031 -87.636848 10,600 68 306 3264
2021-07-26 23:59:56 GMT 41.803371 -87.637550 10,400 71 324 3264
2021-07-26 23:59:54 GMT 41.802380 -87.641327 10,400 71 324 3264
2021-07-26 23:59:53 GMT 41.801891 -87.643219 10,400 71 324 3264
2021-07-26 23:59:51 GMT 41.800560 -87.646347 10,200 74 329 3264
2021-07-26 23:59:50 GMT 41.800152 -87.648308 10,200 74 329 3264
2021-07-26 23:59:49 GMT 41.799751 -87.650269 10,200 74 329 3264
2021-07-26 23:59:48 GMT 41.799351 -87.652229 10,200 74 329 3264
2021-07-26 23:59:46 GMT 41.798401 -87.656502 10,175 75 317 3264
2021-07-26 23:59:45 GMT 41.798069 -87.657822 9,925 76 330 3264
2021-07-26 23:59:44 GMT 41.797791 -87.659660 9,925 76 332 3264
2021-07-26 23:59:42 GMT 41.796890 -87.664207 9,925 77 314 3264
2021-07-26 23:59:41 GMT 41.796570 -87.665909 9,925 77 317 3264
2021-07-26 23:59:40 GMT 41.796299 -87.667648 9,800 77 320 3264
2021-07-26 23:59:38 GMT 41.795441 -87.673042 9,600 78 282 3264
2021-07-26 23:59:37 GMT 41.795261 -87.674461 9,600 78 290 3264
2021-07-26 23:59:36 GMT 41.795010 -87.676102 9,600 78 292 3264
2021-07-26 23:59:35 GMT 41.794670 -87.677620 9,600 79 297 3264
2021-07-26 23:59:33 GMT 41.793892 -87.682213 9,400 81 274 3264
2021-07-26 23:59:32 GMT 41.793831 -87.683441 9,400 79 283 3264
2021-07-26 23:59:30 GMT 41.793640 -87.686363 9,400 78 300 3264
2021-07-26 23:59:29 GMT 41.793110 -87.689247 9,200 80 271 3264
2021-07-26 23:59:28 GMT 41.792912 -87.690910 9,200 80 271 3264
2021-07-26 23:59:27 GMT 41.792809 -87.692062 9,200 80 286 3264
2021-07-26 23:59:25 GMT 41.792629 -87.694923 9,200 79 304 3264
2021-07-26 23:59:24 GMT 41.792221 -87.697250 8,925 81 288 3264
2021-07-26 23:59:23 GMT 41.792080 -87.698471 8,925 82 301 3264
2021-07-26 23:59:22 GMT 41.791759 -87.702003 8,925 82 304 3264
2021-07-26 23:59:20 GMT 41.791370 -87.705887 8,925 84 292 3264
2021-07-26 23:59:18 GMT 41.791199 -87.707733 8,925 86 288 3264
2021-07-26 23:59:17 GMT 41.791100 -87.709602 8,800 87 282 3264
2021-07-26 23:59:16 GMT 41.791031 -87.711403 8,800 88 278 3264
2021-07-26 23:59:14 GMT 41.790859 -87.715073 8,700 93 267 3264
2021-07-26 23:59:13 GMT 41.791012 -87.716843 8,700 93 262 3264
2021-07-26 23:59:12 GMT 41.791142 -87.718536 8,700 94 259 3264
2021-07-26 23:59:11 GMT 41.791191 -87.720131 8,700 96 261 3264
2021-07-26 23:59:09 GMT 41.791592 -87.724777 8,400 101 271 3264
2021-07-26 23:59:07 GMT 41.791851 -87.726341 8,400 102 275 3264
2021-07-26 23:59:06 GMT 41.791962 -87.727989 8,400 105 278 3264
2021-07-26 23:59:05 GMT 41.792610 -87.730881 8,200 108 295 3264
2021-07-26 23:59:03 GMT 41.792931 -87.732582 8,200 110 297 3264
2021-07-26 23:59:02 GMT 41.793331 -87.734154 8,200 111 301 3264
2021-07-26 23:59:01 GMT 41.793671 -87.735931 8,000 115 299 3264
2021-07-26 23:59:00 GMT 41.794830 -87.739449 8,000 119 280 3104
2021-07-26 23:58:56 GMT 41.796070 -87.747330 6,500 136 279 2592
2021-07-26 23:58:55 GMT 41.797009 -87.748520 6,500 136 279 2592
2021-07-26 23:58:54 GMT 41.797951 -87.749710 6,500 136 279 2592
2021-07-26 23:58:53 GMT 41.798889 -87.750900 6,500 136 279 2592
2021-07-26 23:58:51 GMT 41.800758 -87.753281 6,500 136 279 2592
2021-07-26 23:58:50 GMT 41.801701 -87.754471 6,500 136 279 2592
2021-07-26 23:58:49 GMT 41.802631 -87.755661 6,500 136 279 2592
2021-07-26 23:58:47 GMT 41.804508 -87.758041 6,500 136 279 2592
2021-07-26 23:58:46 GMT 41.805439 -87.759232 6,500 136 279 2592
2021-07-26 23:58:45 GMT 41.806381 -87.760422 6,500 136 279 2592
2021-07-26 23:58:43 GMT 41.808262 -87.762810 6,500 136 279 2592
2021-07-26 23:58:42 GMT 41.809189 -87.764000 6,500 136 279 2592
2021-07-26 23:58:41 GMT 41.810131 -87.765190 6,500 136 279 2592
2021-07-26 23:58:39 GMT 41.812000 -87.767570 6,500 136 279 2592
2021-07-26 23:58:38 GMT 41.812939 -87.768761 6,500 136 279 2592
2021-07-26 23:58:37 GMT 41.813881 -87.769951 6,500 136 279 2592
2021-07-26 23:58:36 GMT 41.815750 -87.772331 6,500 136 279 2592
2021-07-26 23:58:34 GMT 41.816689 -87.773521 6,500 136 279 2592
2021-07-26 23:58:33 GMT 41.818562 -87.775909 6,500 136 279 192
2021-07-26 23:58:31 GMT 41.819500 -87.777100 6,850 136 279 192
2021-07-26 23:58:30 GMT 41.820438 -87.778290 6,500 136 279 192
2021-07-26 23:58:29 GMT 41.821369 -87.779480 6,500 136 279 192
2021-07-26 23:58:27 GMT 41.823250 -87.781860 6,500 136 279 192
2021-07-26 23:58:26 GMT 41.824181 -87.783051 6,500 136 279 192
2021-07-26 23:58:25 GMT 41.825371 -87.784439 6,300 135 273 192
2021-07-26 23:58:24 GMT 41.826279 -87.785606 6,300 135 273 192
2021-07-26 23:58:22 GMT 41.828098 -87.787956 6,300 135 273 192
2021-07-26 23:58:21 GMT 41.829010 -87.789131 6,300 135 273 192
2021-07-26 23:58:20 GMT 41.830132 -87.790329 5,800 135 270 192
2021-07-26 23:58:19 GMT 41.831032 -87.791496 5,800 135 270 192
2021-07-26 23:58:17 GMT 41.832809 -87.793839 5,800 135 270 192
2021-07-26 23:58:16 GMT 41.833321 -87.794884 5,800 136 283 192
2021-07-26 23:58:15 GMT 41.834270 -87.796082 5,800 136 283 192
2021-07-26 23:58:13 GMT 41.836182 -87.798470 5,800 136 283 192
2021-07-26 23:58:12 GMT 41.837132 -87.799667 5,800 136 283 192
2021-07-26 23:58:11 GMT 41.837841 -87.800774 5,500 137 287 192
2021-07-26 23:58:09 GMT 41.839779 -87.803192 5,500 137 287 192
2021-07-26 23:58:08 GMT 41.840759 -87.804398 5,500 137 287 192
2021-07-26 23:58:07 GMT 41.841728 -87.805611 5,500 137 287 192
2021-07-26 23:58:05 GMT 41.843491 -87.807907 5,100 137 292 192
2021-07-26 23:58:04 GMT 41.844479 -87.809143 5,100 137 292 192
2021-07-26 23:58:03 GMT 41.845482 -87.810364 5,100 137 292 192
2021-07-26 23:58:01 GMT 41.847370 -87.812782 4,900 137 293 192
2021-07-26 23:58:00 GMT 41.848370 -87.814011 4,900 137 293 192
2021-07-26 23:57:59 GMT 41.849369 -87.815231 4,900 137 293 192
2021-07-26 23:57:58 GMT 41.851372 -87.817513 4,500 136 292 192
2021-07-26 23:57:56 GMT 41.852360 -87.818748 4,500 136 292 192
2021-07-26 23:57:55 GMT 41.853352 -87.819977 4,500 136 292 192
2021-07-26 23:57:53 GMT 41.855541 -87.822273 4,500 135 288 192
2021-07-26 23:57:51 GMT 41.857342 -87.825012 4,500 136 283 192
2021-07-26 23:57:50 GMT 41.858292 -87.826210 4,500 136 283 192
2021-07-26 23:57:49 GMT 41.859249 -87.827400 4,500 136 283 192
2021-07-26 23:57:48 GMT 41.860390 -87.828568 4,400 136 277 192
2021-07-26 23:57:46 GMT 41.862350 -87.831429 4,400 136 262 192
2021-07-26 23:57:45 GMT 41.863239 -87.832550 4,400 136 262 192
2021-07-26 23:57:44 GMT 41.864120 -87.833656 4,400 136 262 192
2021-07-26 23:57:42 GMT 41.865921 -87.835762 4,300 135 263 192
2021-07-26 23:57:41 GMT 41.866798 -87.836891 4,300 135 263 192
2021-07-26 23:57:40 GMT 41.867680 -87.838020 4,300 135 263 192
2021-07-26 23:57:39 GMT 41.868679 -87.838966 4,300 135 262 192
2021-07-26 23:57:37 GMT 41.870319 -87.841408 4,300 135 258 192
2021-07-26 23:57:35 GMT 41.872040 -87.843628 4,300 135 258 192
2021-07-26 23:57:34 GMT 41.873001 -87.844521 4,300 135 258 192
2021-07-26 23:57:33 GMT 41.873711 -87.845833 4,200 136 253 192
2021-07-26 23:57:31 GMT 41.876431 -87.849251 4,200 136 245 96
2021-07-26 23:57:29 GMT 41.877159 -87.850471 4,200 136 240 96
2021-07-26 23:57:28 GMT 41.877979 -87.851479 4,200 136 240 96
2021-07-26 23:57:26 GMT 41.879608 -87.853523 4,200 136 240 96
2021-07-26 23:57:25 GMT 41.880589 -87.854469 4,200 136 236 96
2021-07-26 23:57:24 GMT 41.881290 -87.855614 4,100 136 231 96
2021-07-26 23:57:23 GMT 41.882069 -87.856590 4,100 136 231 96
2021-07-26 23:57:21 GMT 41.884571 -87.859482 4,100 136 226 96
2021-07-26 23:57:19 GMT 41.885330 -87.860641 4,100 136 218 96
2021-07-26 23:57:17 GMT 41.887569 -87.863373 4,100 136 216 96
2021-07-26 23:57:15 GMT 41.888290 -87.864609 4,000 137 207 0
2021-07-26 23:57:14 GMT 41.889000 -87.865471 4,000 137 207 0
2021-07-26 23:57:12 GMT 41.890419 -87.867188 4,000 137 207 0
2021-07-26 23:57:11 GMT 41.891319 -87.868279 4,000 137 192 0
2021-07-26 23:57:09 GMT 41.892761 -87.870064 3,900 137 187 2304
2021-07-26 23:57:08 GMT 41.893398 -87.870842 3,900 137 187 2304
2021-07-26 23:57:07 GMT 41.894161 -87.871758 3,900 137 184 2304
2021-07-26 23:57:06 GMT 41.894859 -87.872719 3,900 137 180 2304
2021-07-26 23:57:05 GMT 41.895481 -87.873459 3,900 137 180 2304
2021-07-26 23:57:03 GMT 41.896721 -87.874947 3,900 137 180 2304
2021-07-26 23:57:02 GMT 41.897419 -87.875641 3,900 137 179 2304
2021-07-26 23:57:00 GMT 41.898571 -87.877220 3,800 137 180 2304
2021-07-26 23:56:59 GMT 41.899818 -87.878700 3,800 137 180 2304
2021-07-26 23:56:58 GMT 41.900532 -87.879448 3,700 137 177 2304
2021-07-26 23:56:56 GMT 41.901138 -87.880188 3,700 137 177 2304
2021-07-26 23:56:54 GMT 41.902351 -87.881668 3,700 137 177 2304
2021-07-26 23:56:53 GMT 41.903000 -87.882393 3,700 136 176 2304
2021-07-26 23:56:52 GMT 41.903542 -87.883102 3,500 137 181 2304
2021-07-26 23:56:51 GMT 41.904110 -87.883858 3,500 137 183 2304
2021-07-26 23:56:50 GMT 41.905380 -87.885384 3,500 137 181 2304
2021-07-26 23:56:48 GMT 41.906010 -87.886070 3,500 135 184 2304
2021-07-26 23:56:47 GMT 41.906601 -87.886902 3,300 137 183 2304
2021-07-26 23:56:46 GMT 41.907230 -87.887688 3,300 137 182 2304
2021-07-26 23:56:44 GMT 41.908489 -87.889214 3,300 137 183 2304
2021-07-26 23:56:43 GMT 41.909130 -87.889969 3,275 136 182 2304
2021-07-26 23:56:42 GMT 41.909740 -87.890800 3,100 137 179 2304
2021-07-26 23:56:40 GMT 41.910912 -87.892273 3,100 138 187 2304
2021-07-26 23:56:39 GMT 41.911598 -87.893028 3,100 137 185 2304
2021-07-26 23:56:38 GMT 41.912231 -87.893806 2,975 137 184 2304
2021-07-26 23:56:37 GMT 41.912880 -87.894562 2,975 136 183 2304
2021-07-26 23:56:36 GMT 41.913471 -87.895370 2,975 137 184 2304
2021-07-26 23:56:34 GMT 41.914730 -87.896851 2,700 136 186 2304
2021-07-26 23:56:33 GMT 41.915939 -87.898460 2,700 137 188 0
2021-07-26 23:56:31 GMT 41.916660 -87.899208 2,700 135 184 0
2021-07-26 23:56:30 GMT 41.917278 -87.899971 2,725 135 186 0
2021-07-26 23:56:29 GMT 41.917931 -87.900711 2,600 135 187 0
2021-07-26 23:56:28 GMT 41.918591 -87.901482 2,600 134 187 0
2021-07-26 23:56:26 GMT 41.919842 -87.903030 2,600 135 189 0
2021-07-26 23:56:25 GMT 41.920490 -87.903793 2,500 135 190 0
2021-07-26 23:56:24 GMT 41.921101 -87.904587 2,475 137 191 0
2021-07-26 23:56:23 GMT 41.921741 -87.905327 2,475 138 193 0
2021-07-26 23:56:21 GMT 41.923019 -87.906830 2,200 143 196 0
2021-07-26 23:56:20 GMT 41.923710 -87.907562 2,200 146 196 0
2021-07-26 23:56:19 GMT 41.924412 -87.908249 2,200 149 196 0
2021-07-26 23:56:18 GMT 41.925961 -87.909569 2,200 157 189 0
2021-07-26 23:56:16 GMT 41.926731 -87.910042 2,200 159 190 0
2021-07-26 23:56:15 GMT 41.927479 -87.910500 2,075 162 192 0
2021-07-26 23:56:13 GMT 41.929131 -87.911324 2,075 169 190 0
2021-07-26 23:56:12 GMT 41.929939 -87.911613 1,800 172 191 0
2021-07-26 23:56:11 GMT 41.930820 -87.911827 1,800 174 189 0
2021-07-26 23:56:10 GMT 41.931671 -87.912033 1,800 177 189 0
2021-07-26 23:56:09 GMT 41.933369 -87.912170 1,800 182 190 0
2021-07-26 23:56:07 GMT 41.934250 -87.912170 1,800 184 187 0
2021-07-26 23:56:06 GMT 41.935089 -87.912178 1,700 188 188 0
2021-07-26 23:56:05 GMT 41.935921 -87.912033 1,700 189 188 0
2021-07-26 23:56:03 GMT 41.937630 -87.911629 1,700 192 183 0
2021-07-26 23:56:02 GMT 41.938419 -87.911430 1,575 195 184 0
2021-07-26 23:56:01 GMT 41.939270 -87.911163 1,575 197 181 0
2021-07-26 23:56:00 GMT 41.940948 -87.910477 1,500 201 170 0
2021-07-26 23:55:58 GMT 41.941761 -87.910057 1,500 203 164 0
2021-07-26 23:55:57 GMT 41.942379 -87.909729 1,375 205 172 0
2021-07-26 23:55:55 GMT 41.943829 -87.908821 1,375 210 173 0
2021-07-26 23:55:54 GMT 41.944561 -87.908348 1,325 214 173 0
2021-07-26 23:55:53 GMT 41.945229 -87.907761 1,300 214 173 0
2021-07-26 23:55:51 GMT 41.946560 -87.906517 1,150 216 173 0
2021-07-26 23:55:50 GMT 41.947208 -87.905891 1,150 217 174 0
2021-07-26 23:55:49 GMT 41.948490 -87.904610 1,000 218 173 0
2021-07-26 23:55:47 GMT 41.949100 -87.903931 1,000 218 175 0
2021-07-26 23:55:46 GMT 41.949699 -87.903297 950 219 185 0
2021-07-26 23:55:45 GMT 41.951050 -87.901871 850 220 172 0
2021-07-26 23:55:44 GMT 41.951618 -87.901169 800 219 178 0
2021-07-26 23:55:42 GMT 41.952202 -87.900513 750 219 185 0
2021-07-26 23:55:41 GMT 41.952862 -87.899811 700 220 185 0
2021-07-26 23:55:39 GMT 41.954170 -87.898323 600 220 178 0
2021-07-26 23:55:38 GMT 41.954769 -87.897598 625 220 177 0
2021-07-26 23:55:37 GMT 41.955410 -87.896927 575 221 176 0
2021-07-26 23:55:35 GMT 41.956631 -87.895493 575 221 171 0
2021-07-26 23:55:34 GMT 41.957230 -87.894798 575 222 170 0
2021-07-26 23:55:33 GMT 41.957802 -87.894112 575 222 168 0
2021-07-26 23:55:31 GMT 41.958939 -87.892708 575 221 160 0
2021-07-26 23:55:30 GMT 41.959499 -87.892036 575 220 156 0
2021-07-26 23:55:29 GMT 41.960049 -87.891388 575 220 151 0
2021-07-26 23:55:27 GMT 41.961109 -87.890198 575 221 145 0
2021-07-26 23:55:26 GMT 41.961620 -87.889610 575 221 141 0
2021-07-26 23:55:24 GMT 41.962589 -87.888451 575 221 131 0
2021-07-26 23:55:23 GMT 41.963032 -87.887840 575 219 126 -32
2021-07-26 23:55:22 GMT 41.963482 -87.887321 575 219 122 -32
2021-07-26 23:55:21 GMT 41.964352 -87.886414 0 221 116 0
2021-07-26 23:55:19 GMT 41.964760 -87.885933 0 222 111 0
2021-07-26 23:55:18 GMT 41.965130 -87.885468 0 221 107 0
2021-07-26 23:55:17 GMT 41.965511 -87.885017 0 222 105
2021-07-26 23:55:15 GMT 41.966221 -87.884163 0 222 95
2021-07-26 23:55:14 GMT 41.966549 -87.883751 0 221 88
2021-07-26 23:55:13 GMT 41.966869 -87.883392 0 222 85
2021-07-26 23:55:12 GMT 41.967178 -87.883034 0 222 78
2021-07-26 23:55:10 GMT 41.967690 -87.882339 0 220 68
2021-07-26 23:55:09 GMT 41.967949 -87.882050 0 220 63
2021-07-26 23:55:08 GMT 41.968182 -87.881813 0 221 59
2021-07-26 23:55:07 GMT 41.968391 -87.881554 0 221 54
2021-07-26 23:55:06 GMT 41.968781 -87.881111 0 222 45
2021-07-26 23:55:04 GMT 41.968948 -87.880890 0 220 36
2021-07-26 23:55:03 GMT 41.969090 -87.880722 0 220 30
2021-07-26 23:55:01 GMT 41.969341 -87.880440 0 221 18
2021-07-26 23:55:00 GMT 41.969440 -87.880287 0 218 12
2021-07-26 23:54:59 GMT 41.969559 -87.880180 0 220 5
2021-07-26 23:54:58 GMT 41.969601 -87.880150 0 219 3
2021-07-26 23:54:55 GMT 41.969631 -87.880096 0 219 0
2021-07-26 23:54:51 GMT 41.969631 -87.880096 0 219 0
2021-07-26 23:54:49 GMT 41.969631 -87.880089 0 219 0
2021-07-26 23:54:48 GMT 41.969639 -87.880096 0 219 0
2021-07-26 23:54:47 GMT 41.969631 -87.880089 0 219 0
2021-07-26 23:54:44 GMT 41.969631 -87.880096 0 219 0
2021-07-26 23:54:43 GMT 41.969639 -87.880096 0 219 0
2021-07-26 23:54:42 GMT 41.969631 -87.880096 0 219 0
2021-07-26 23:54:40 GMT 41.969631 -87.880089 0 219 1
2021-07-26 23:54:38 GMT 41.969620 -87.880081 0 219 0
2021-07-26 23:54:37 GMT 41.969608 -87.880096 0 219 0
2021-07-26 23:54:36 GMT 41.969608 -87.880089 0 219 1
2021-07-26 23:54:35 GMT 41.969631 -87.880112 0 219 0
2021-07-26 23:54:33 GMT 41.969631 -87.880089 0 219 0
2021-07-26 23:54:32 GMT 41.969620 -87.880112 0 219 0
2021-07-26 23:54:30 GMT 41.969620 -87.880096 0 219 1
2021-07-26 23:54:28 GMT 41.969631 -87.880096 0 219 1
2021-07-26 23:54:27 GMT 41.969650 -87.880119 0 219 2
2021-07-26 23:54:26 GMT 41.969650 -87.880096 0 219 1
2021-07-26 23:54:23 GMT 41.969620 -87.880096 0 219 0
2021-07-26 23:54:18 GMT 41.969631 -87.880096 0 220 0
2021-07-26 23:54:17 GMT 41.969631 -87.880112 0 220 0
2021-07-26 23:54:15 GMT 41.969631 -87.880112 0 220 0
2021-07-26 23:54:14 GMT 41.969639 -87.880112 0 220 0
2021-07-26 23:54:11 GMT 41.969631 -87.880096 0 220 0
2021-07-26 23:54:10 GMT 41.969631 -87.880081 0 220 0
2021-07-26 23:54:09 GMT 41.969639 -87.880074 0 220 2
2021-07-26 23:54:07 GMT 41.969631 -87.880112 0 222 1
2021-07-26 23:54:06 GMT 41.969601 -87.880119 0 225 3
2021-07-26 23:54:05 GMT 41.969608 -87.880112 0 228 3
2021-07-26 23:54:03 GMT 41.969631 -87.880127 0 244 5
2021-07-26 23:54:02 GMT 41.969650 -87.880119 0 252 6
2021-07-26 23:54:01 GMT 41.969669 -87.880081 0 256 5
2021-07-26 23:54:00 GMT 41.969681 -87.880043 0 242 8
2021-07-26 23:53:58 GMT 41.969681 -87.879997 0 226 8
2021-07-26 23:53:57 GMT 41.969669 -87.879951 0 206 8
2021-07-26 23:53:56 GMT 41.969688 -87.879822 0 158 11
2021-07-26 23:53:54 GMT 41.969761 -87.879837 0 148 9
2021-07-26 23:53:53 GMT 41.969799 -87.879837 0 133 8
2021-07-26 23:53:52 GMT 41.969872 -87.879883 0 130 8
2021-07-26 23:53:51 GMT 41.969879 -87.879913 0 133 10
2021-07-26 23:53:49 GMT 41.969898 -87.879959 0 133 10
2021-07-26 23:53:47 GMT 41.969971 -87.880051 0 134 10
2021-07-26 23:53:46 GMT 41.970001 -87.880112 0 136 9
2021-07-26 23:53:45 GMT 41.970051 -87.880188 0 150 12
2021-07-26 23:53:43 GMT 41.970112 -87.880241 0 158 10
2021-07-26 23:53:42 GMT 41.970150 -87.880280 0 169 9
2021-07-26 23:53:41 GMT 41.970181 -87.880333 0 179 10
2021-07-26 23:53:40 GMT 41.970261 -87.880318 0 177 13
2021-07-26 23:53:38 GMT 41.970322 -87.880341 0 177 12
2021-07-26 23:53:37 GMT 41.970379 -87.880333 0 179 12
2021-07-26 23:53:36 GMT 41.970490 -87.880348 0 186 14
2021-07-26 23:53:34 GMT 41.970539 -87.880318 0 177 14
2021-07-26 23:53:33 GMT 41.970619 -87.880310 0 178 12
2021-07-26 23:53:32 GMT 41.970730 -87.880341 0 184 13
2021-07-26 23:53:30 GMT 41.970798 -87.880341 0 183 11
2021-07-26 23:53:29 GMT 41.970879 -87.880333 0 185 8
2021-07-26 23:53:28 GMT 41.970901 -87.880333 0 187 10
2021-07-26 23:53:27 GMT 41.970989 -87.880333 0 187 8
2021-07-26 23:53:25 GMT 41.971088 -87.880280 0 186 2
2021-07-26 23:53:24 GMT 41.971100 -87.880287 0 186 2
2021-07-26 23:53:22 GMT 41.971130 -87.880310 0 187 2
2021-07-26 23:53:19 GMT 41.971169 -87.880333 0 187 0
2021-07-26 23:53:18 GMT 41.971161 -87.880348 0 187 2
2021-07-26 23:53:17 GMT 41.971180 -87.880310 0 188 1
2021-07-26 23:53:15 GMT 41.971191 -87.880318 0 190 1
2021-07-26 23:53:14 GMT 41.971169 -87.880318 0 195 1
2021-07-26 23:53:13 GMT 41.971169 -87.880333 0 196 1
2021-07-26 23:53:12 GMT 41.971191 -87.880348 0 196 1
2021-07-26 23:53:10 GMT 41.971180 -87.880348 0 196 1
2021-07-26 23:53:09 GMT 41.971180 -87.880341 0 196 1
2021-07-26 23:53:08 GMT 41.971149 -87.880318 0 196 2
2021-07-26 23:53:06 GMT 41.971161 -87.880318 0 196 1
2021-07-26 23:53:05 GMT 41.971169 -87.880333 0 196 1
2021-07-26 23:53:04 GMT 41.971169 -87.880341 0 196 0
2021-07-26 23:53:02 GMT 41.971180 -87.880341 0 196 0
2021-07-26 23:53:01 GMT 41.971191 -87.880333 0 196 0
2021-07-26 23:52:59 GMT 41.971180 -87.880333 0 196 0
2021-07-26 23:52:58 GMT 41.971169 -87.880341 0 200 0
2021-07-26 23:52:57 GMT 41.971210 -87.880302 0 202 2
2021-07-26 23:52:56 GMT 41.971191 -87.880310 0 202 2
2021-07-26 23:52:54 GMT 41.971191 -87.880363 0 202 1
2021-07-26 23:52:52 GMT 41.971169 -87.880333 0 202 0
2021-07-26 23:52:50 GMT 41.971180 -87.880333 0 202 1
2021-07-26 23:52:49 GMT 41.971169 -87.880333 0 202 0
2021-07-26 23:52:48 GMT 41.971169 -87.880348 0 200 1
2021-07-26 23:52:47 GMT 41.971142 -87.880333 0 201 1
2021-07-26 23:52:45 GMT 41.971149 -87.880333 0 201 1
2021-07-26 23:52:43 GMT 41.971161 -87.880333 0 201 1
2021-07-26 23:52:40 GMT 41.971180 -87.880341 0 201 1
2021-07-26 23:52:39 GMT 41.971199 -87.880318 0 199 2
2021-07-26 23:52:38 GMT 41.971142 -87.880302 0 200 1
2021-07-26 23:52:37 GMT 41.971149 -87.880287 0 200 2
2021-07-26 23:52:35 GMT 41.971180 -87.880341 0 199 1
2021-07-26 23:52:34 GMT 41.971169 -87.880333 0 199 1
2021-07-26 23:52:32 GMT 41.971161 -87.880333 0 199 0
2021-07-26 23:52:29 GMT 41.971180 -87.880318 0 199 0
2021-07-26 23:52:27 GMT 41.971169 -87.880318 0 204 1
2021-07-26 23:52:26 GMT 41.971169 -87.880333 0 205 1
2021-07-26 23:52:24 GMT 41.971169 -87.880341 0 205 1
2021-07-26 23:52:22 GMT 41.971169 -87.880341 0 204 0
2021-07-26 23:52:21 GMT 41.971191 -87.880333 0 202 1
2021-07-26 23:52:20 GMT 41.971180 -87.880333 0 202 1
2021-07-26 23:52:19 GMT 41.971149 -87.880318 0 202 0
2021-07-26 23:52:16 GMT 41.971180 -87.880341 0 202 0
2021-07-26 23:52:15 GMT 41.971161 -87.880341 0 202 1
2021-07-26 23:52:14 GMT 41.971180 -87.880348 0 202 0
2021-07-26 23:52:11 GMT 41.971169 -87.880318 0 201 0
2021-07-26 23:52:09 GMT 41.971169 -87.880333 0 201 0
2021-07-26 23:52:07 GMT 41.971169 -87.880333 0 200 0
2021-07-26 23:52:06 GMT 41.971169 -87.880318 0 200 0
2021-07-26 23:52:04 GMT 41.971180 -87.880348 0 200 0
2021-07-26 23:52:03 GMT 41.971161 -87.880348 0 200 0
2021-07-26 23:52:02 GMT 41.971161 -87.880333 0 199 1
2021-07-26 23:52:01 GMT 41.971169 -87.880341 0 199 0
2021-07-26 23:51:59 GMT 41.971161 -87.880318 0 199 0
2021-07-26 23:51:58 GMT 41.971161 -87.880333 0 199 0
2021-07-26 23:51:57 GMT 41.971169 -87.880333 0 199 0
2021-07-26 23:51:55 GMT 41.971169 -87.880341 0 199 0
2021-07-26 23:51:54 GMT 41.971180 -87.880341 0 199 0
2021-07-26 23:51:52 GMT 41.971169 -87.880341 0 177 0
2021-07-26 23:51:51 GMT 41.971180 -87.880310 0 199 1
2021-07-26 23:51:50 GMT 41.971169 -87.880310 0 200 2
2021-07-26 23:51:48 GMT 41.971180 -87.880348 0 190 2
2021-07-26 23:51:46 GMT 41.971169 -87.880333 0 188 1
2021-07-26 23:51:45 GMT 41.971161 -87.880348 0 188 2
2021-07-26 23:51:44 GMT 41.971142 -87.880302 0 188 1
2021-07-26 23:51:43 GMT 41.971142 -87.880318 0 188 2
2021-07-26 23:51:41 GMT 41.971161 -87.880302 0 192 3
2021-07-26 23:51:40 GMT 41.971149 -87.880341 0 193 0
2021-07-26 23:51:38 GMT 41.971161 -87.880363 0 191 3
2021-07-26 23:51:36 GMT 41.971180 -87.880341 0 186 4
2021-07-26 23:51:35 GMT 41.971180 -87.880333 0 190 6
2021-07-26 23:51:33 GMT 41.971191 -87.880363 0 189 13
2021-07-26 23:51:31 GMT 41.971279 -87.880318 0 177 14
2021-07-26 23:51:30 GMT 41.971340 -87.880302 0 160 13
2021-07-26 23:51:29 GMT 41.971409 -87.880302 0 152 12
2021-07-26 23:51:27 GMT 41.971519 -87.880341 0 134 11
2021-07-26 23:51:26 GMT 41.971550 -87.880402 0 126 11
2021-07-26 23:51:25 GMT 41.971642 -87.880447 0 110 14
2021-07-26 23:51:23 GMT 41.971680 -87.880547 0 100 12
2021-07-26 23:51:22 GMT 41.971680 -87.880638 0 95 10
2021-07-26 23:51:21 GMT 41.971729 -87.880692 0 85 10
2021-07-26 23:51:20 GMT 41.971722 -87.880814 0 86 11
2021-07-26 23:51:18 GMT 41.971729 -87.880882 0 81 11
2021-07-26 23:51:17 GMT 41.971729 -87.880928 0 81 13
2021-07-26 23:51:16 GMT 41.971710 -87.881081 0 90 12
2021-07-26 23:51:14 GMT 41.971661 -87.881180 0 104 11
2021-07-26 23:51:13 GMT 41.971661 -87.881264 0 102 9
2021-07-26 23:51:11 GMT 41.971699 -87.881348 0 92 11
2021-07-26 23:51:10 GMT 41.971722 -87.881432 0 90 10
2021-07-26 23:51:09 GMT 41.971722 -87.881470 0 88 11
2021-07-26 23:51:08 GMT 41.971722 -87.881561 0 84 9
2021-07-26 23:51:06 GMT 41.971699 -87.881691 0 95 10
2021-07-26 23:51:05 GMT 41.971699 -87.881752 0 93 9
2021-07-26 23:51:04 GMT 41.971722 -87.881798 0 92 10
2021-07-26 23:51:02 GMT 41.971729 -87.881912 0 88 10
2021-07-26 23:51:01 GMT 41.971729 -87.881958 0 83 11
2021-07-26 23:50:59 GMT 41.971741 -87.882103 0 90 10
2021-07-26 23:50:58 GMT 41.971680 -87.882172 0 97 8
2021-07-26 23:50:57 GMT 41.971680 -87.882210 0 93 9
2021-07-26 23:50:55 GMT 41.971722 -87.882332 0 81 9
2021-07-26 23:50:54 GMT 41.971710 -87.882431 0 85 10
2021-07-26 23:50:52 GMT 41.971710 -87.882492 0 87 10
2021-07-26 23:50:51 GMT 41.971699 -87.882553 0 92 9
2021-07-26 23:50:50 GMT 41.971699 -87.882668 0 89 9
2021-07-26 23:50:48 GMT 41.971710 -87.882751 0 91 7
2021-07-26 23:50:47 GMT 41.971680 -87.882782 0 98 8
2021-07-26 23:50:45 GMT 41.971691 -87.882919 0 99 6
2021-07-26 23:50:44 GMT 41.971699 -87.882927 0 92 8
2021-07-26 23:50:43 GMT 41.971710 -87.882980 0 85 8
2021-07-26 23:50:41 GMT 41.971741 -87.883049 0 83 10
2021-07-26 23:50:40 GMT 41.971699 -87.883102 0 90 10
2021-07-26 23:50:38 GMT 41.971699 -87.883240 0 86 7
2021-07-26 23:50:37 GMT 41.971722 -87.883278 0 81 8
2021-07-26 23:50:36 GMT 41.971691 -87.883339 0 85 7
2021-07-26 23:50:35 GMT 41.971722 -87.883430 0 84 7
2021-07-26 23:50:33 GMT 41.971668 -87.883453 0 96 7
2021-07-26 23:50:32 GMT 41.971668 -87.883522 0 97 6
2021-07-26 23:50:31 GMT 41.971661 -87.883537 0 96 7
2021-07-26 23:50:30 GMT 41.971661 -87.883583 0 86 7
2021-07-26 23:50:28 GMT 41.971680 -87.883652 0 97 8
2021-07-26 23:50:27 GMT 41.971668 -87.883698 0 98 9
2021-07-26 23:50:26 GMT 41.971699 -87.883759 0 94 7
2021-07-26 23:50:24 GMT 41.971699 -87.883827 0 92 7
2021-07-26 23:50:23 GMT 41.971699 -87.883873 0 90 7
2021-07-26 23:50:22 GMT 41.971710 -87.883926 0 95 6
2021-07-26 23:50:20 GMT 41.971699 -87.884018 0 93 6
2021-07-26 23:50:19 GMT 41.971710 -87.884033 0 88 8
2021-07-26 23:50:18 GMT 41.971722 -87.884079 0 85 8
2021-07-26 23:50:16 GMT 41.971710 -87.884178 0 93 7
2021-07-26 23:50:15 GMT 41.971699 -87.884216 0 104 7
2021-07-26 23:50:13 GMT 41.971699 -87.884323 0 110 7
2021-07-26 23:50:12 GMT 41.971699 -87.884331 0 115 9
2021-07-26 23:50:11 GMT 41.971722 -87.884369 0 108 10
2021-07-26 23:50:10 GMT 41.971741 -87.884438 0 112 9
2021-07-26 23:50:08 GMT 41.971748 -87.884583 0 124 7
2021-07-26 23:50:06 GMT 41.971809 -87.884628 0 111 8
2021-07-26 23:50:05 GMT 41.971821 -87.884689 0 118 7
2021-07-26 23:50:04 GMT 41.971809 -87.884697 0 122 9
2021-07-26 23:50:02 GMT 41.971870 -87.884811 0 107 6
2021-07-26 23:50:01 GMT 41.971889 -87.884827 0 98 7
2021-07-26 23:50:00 GMT 41.971889 -87.884933 0 117 5
2021-07-26 23:49:58 GMT 41.971901 -87.884949 0 94 6
2021-07-26 23:49:57 GMT 41.971951 -87.884972 0 86 5
2021-07-26 23:49:56 GMT 41.971951 -87.885017 0 82 4
2021-07-26 23:49:54 GMT 41.971970 -87.885094 0 64 3
2021-07-26 23:49:53 GMT 41.971970 -87.885109 0 68 4
2021-07-26 23:49:52 GMT 41.971951 -87.885132 0 84 3
2021-07-26 23:49:50 GMT 41.971920 -87.885147 0 81 2
2021-07-26 23:49:48 GMT 41.971920 -87.885170 0 70 3
2021-07-26 23:49:47 GMT 41.971939 -87.885178 0 70 3
2021-07-26 23:49:46 GMT 41.971951 -87.885223 0 69 1
2021-07-26 23:49:44 GMT 41.971931 -87.885231 0 66 2
2021-07-26 23:49:43 GMT 41.971951 -87.885223 0 64 1
2021-07-26 23:49:41 GMT 41.971958 -87.885239 0 64 0
2021-07-26 23:49:40 GMT 41.971970 -87.885231 0 64 0
2021-07-26 23:49:39 GMT 41.971981 -87.885223 0 64 0
2021-07-26 23:49:38 GMT 41.971989 -87.885208 0 65 2
2021-07-26 23:49:37 GMT 41.971981 -87.885231 0 65 2
2021-07-26 23:49:36 GMT 41.971958 -87.885246 0 75 1
2021-07-26 23:49:34 GMT 41.971951 -87.885231 0 76 0
2021-07-26 23:49:32 GMT 41.971939 -87.885231 0 78 0
2021-07-26 23:49:31 GMT 41.971939 -87.885208 0 78 2
2021-07-26 23:49:30 GMT 41.971951 -87.885246 0 82 2
2021-07-26 23:49:28 GMT 41.971931 -87.885223 0 84 1
2021-07-26 23:49:27 GMT 41.971939 -87.885208 0 84 1
2021-07-26 23:49:26 GMT 41.971939 -87.885231 0 84 0
2021-07-26 23:49:24 GMT 41.971920 -87.885208 0 82 3
2021-07-26 23:49:23 GMT 41.971920 -87.885231 0 78 3
2021-07-26 23:49:21 GMT 41.971939 -87.885231 0 77 6
2021-07-26 23:49:19 GMT 41.971951 -87.885307 0 64 1
2021-07-26 23:49:18 GMT 41.971939 -87.885338 0 64 1
2021-07-26 23:49:17 GMT 41.971951 -87.885353 0 62 2
2021-07-26 23:49:15 GMT 41.972000 -87.885353 0 66 5
2021-07-26 23:49:14 GMT 41.971958 -87.885338 0 82 7
2021-07-26 23:49:13 GMT 41.971958 -87.885391 0 88 7
2021-07-26 23:49:12 GMT 41.971909 -87.885483 0 104 6
2021-07-26 23:49:10 GMT 41.971920 -87.885521 0 100 6
2021-07-26 23:49:09 GMT 41.971931 -87.885536 0 94 8
2021-07-26 23:49:08 GMT 41.971939 -87.885567 0 89 10
2021-07-26 23:49:07 GMT 41.971958 -87.885612 0 87 12
2021-07-26 23:49:05 GMT 41.971939 -87.885757 0 92 11
2021-07-26 23:49:04 GMT 41.971951 -87.885834 0 85 11
2021-07-26 23:49:02 GMT 41.971951 -87.885971 0 85 10
2021-07-26 23:49:01 GMT 41.971939 -87.886017 0 83 11
2021-07-26 23:49:00 GMT 41.971958 -87.886093 0 80 11
2021-07-26 23:48:59 GMT 41.971939 -87.886177 0 89 9
2021-07-26 23:48:58 GMT 41.971909 -87.886200 0 92 11
2021-07-26 23:48:56 GMT 41.971931 -87.886330 0 85 12
2021-07-26 23:48:55 GMT 41.971939 -87.886421 0 85 11
2021-07-26 23:48:54 GMT 41.971889 -87.886574 0 100 11
2021-07-26 23:48:52 GMT 41.971920 -87.886642 0 94 11
2021-07-26 23:48:51 GMT 41.971939 -87.886719 0 90 10
2021-07-26 23:48:49 GMT 41.971909 -87.886833 0 95 12
2021-07-26 23:48:48 GMT 41.971939 -87.886917 0 93 10
2021-07-26 23:48:47 GMT 41.971951 -87.886971 0 85 10
2021-07-26 23:48:46 GMT 41.971981 -87.887009 0 80 13
2021-07-26 23:48:45 GMT 41.971931 -87.887169 0 95 10
2021-07-26 23:48:43 GMT 41.971909 -87.887230 0 98 11
2021-07-26 23:48:42 GMT 41.971889 -87.887283 0 105 13
2021-07-26 23:48:40 GMT 41.971951 -87.887459 0 94 10
2021-07-26 23:48:39 GMT 41.971931 -87.887520 0 98 10
2021-07-26 23:48:37 GMT 41.971970 -87.887741 0 79 8
2021-07-26 23:48:35 GMT 41.971981 -87.887772 0 79 10
2021-07-26 23:48:34 GMT 41.971981 -87.887840 0 83 8
2021-07-26 23:48:33 GMT 41.971939 -87.887932 0 91 12
2021-07-26 23:48:31 GMT 41.971939 -87.888000 0 87 11
2021-07-26 23:48:30 GMT 41.971958 -87.888069 0 83 11
2021-07-26 23:48:29 GMT 41.971920 -87.888199 0 98 12
2021-07-26 23:48:27 GMT 41.971939 -87.888283 0 92 11
2021-07-26 23:48:26 GMT 41.971939 -87.888351 0 92 11
2021-07-26 23:48:25 GMT 41.971958 -87.888496 0 86 10
2021-07-26 23:48:23 GMT 41.971951 -87.888542 0 90 11
2021-07-26 23:48:21 GMT 41.971951 -87.888672 0 94 12
2021-07-26 23:48:20 GMT 41.971931 -87.888748 0 94 12
2021-07-26 23:48:19 GMT 41.971958 -87.888832 0 85 12
2021-07-26 23:48:18 GMT 41.971958 -87.889000 0 87 8
2021-07-26 23:48:16 GMT 41.971939 -87.889000 0 91 11
2021-07-26 23:48:15 GMT 41.971931 -87.889061 0 91 11
2021-07-26 23:48:13 GMT 41.971939 -87.889191 0 89 12
2021-07-26 23:48:11 GMT 41.971939 -87.889351 0 92 9
2021-07-26 23:48:10 GMT 41.971931 -87.889442 0 96 12
2021-07-26 23:48:08 GMT 41.971939 -87.889519 0 92 12
2021-07-26 23:48:07 GMT 41.971951 -87.889587 0 89 11
2021-07-26 23:48:06 GMT 41.971951 -87.889664 0 88 12
2021-07-26 23:48:04 GMT 41.971939 -87.889793 0 96 10
2021-07-26 23:48:03 GMT 41.971939 -87.889816 0 94 12
2021-07-26 23:48:01 GMT 41.971981 -87.889999 0 85 12
2021-07-26 23:48:00 GMT 41.971970 -87.890091 0 84 10
2021-07-26 23:47:59 GMT 41.971951 -87.890190 0 93 8
2021-07-26 23:47:58 GMT 41.971939 -87.890259 0 91 9
2021-07-26 23:47:56 GMT 41.971951 -87.890312 0 87 10
2021-07-26 23:47:55 GMT 41.971981 -87.890373 0 83 10
2021-07-26 23:47:53 GMT 41.971989 -87.890472 0 90 12
2021-07-26 23:47:52 GMT 41.971920 -87.890640 0 98 9
2021-07-26 23:47:50 GMT 41.971931 -87.890694 0 95 10
2021-07-26 23:47:49 GMT 41.971958 -87.890770 0 87 8
2021-07-26 23:47:48 GMT 41.971958 -87.890823 0 85 8
2021-07-26 23:47:47 GMT 41.971970 -87.890839 0 84 11
2021-07-26 23:47:45 GMT 41.971970 -87.890984 0 81 11
2021-07-26 23:47:44 GMT 41.971958 -87.891060 0 80 10
2021-07-26 23:47:43 GMT 41.971958 -87.891129 0 82 10
2021-07-26 23:47:41 GMT 41.971920 -87.891251 0 94 11
2021-07-26 23:47:40 GMT 41.971939 -87.891319 0 88 11
2021-07-26 23:47:39 GMT 41.971951 -87.891434 0 88 9
2021-07-26 23:47:38 GMT 41.971939 -87.891518 0 91 10
2021-07-26 23:47:36 GMT 41.971931 -87.891586 0 92 10
2021-07-26 23:47:35 GMT 41.971939 -87.891647 0 93 10
2021-07-26 23:47:34 GMT 41.971931 -87.891693 0 94 12
2021-07-26 23:47:32 GMT 41.971951 -87.891869 0 86 10
2021-07-26 23:47:31 GMT 41.971970 -87.891930 0 81 10
2021-07-26 23:47:29 GMT 41.971939 -87.892097 0 89 10
2021-07-26 23:47:27 GMT 41.971951 -87.892174 0 88 10
2021-07-26 23:47:26 GMT 41.971939 -87.892220 0 92 10
2021-07-26 23:47:25 GMT 41.971939 -87.892288 0 93 10
2021-07-26 23:47:23 GMT 41.971958 -87.892410 0 85 10
2021-07-26 23:47:22 GMT 41.971951 -87.892464 0 84 11
2021-07-26 23:47:20 GMT 41.971951 -87.892593 0 85 11
2021-07-26 23:47:19 GMT 41.971931 -87.892662 0 94 11
2021-07-26 23:47:18 GMT 41.971920 -87.892731 0 98 11
2021-07-26 23:47:16 GMT 41.971951 -87.892891 0 93 10
2021-07-26 23:47:15 GMT 41.971939 -87.892952 0 95 9
2021-07-26 23:47:14 GMT 41.971951 -87.892990 0 91 11
2021-07-26 23:47:12 GMT 41.971970 -87.893150 0 80 10
2021-07-26 23:47:11 GMT 41.971951 -87.893204 0 89 11
2021-07-26 23:47:10 GMT 41.971939 -87.893257 0 91 11
2021-07-26 23:47:09 GMT 41.971939 -87.893318 0 90 12
2021-07-26 23:47:08 GMT 41.971939 -87.893478 0 90 11
2021-07-26 23:47:06 GMT 41.971951 -87.893562 0 88 11
2021-07-26 23:47:05 GMT 41.971958 -87.893623 0 87 12
2021-07-26 23:47:03 GMT 41.971951 -87.893753 0 88 14
2021-07-26 23:47:02 GMT 41.971951 -87.893837 0 91 14
2021-07-26 23:47:01 GMT 41.971931 -87.893951 0 94 11
2021-07-26 23:47:00 GMT 41.971939 -87.894028 0 92 10
2021-07-26 23:46:58 GMT 41.971951 -87.894142 0 92 12
2021-07-26 23:46:57 GMT 41.971931 -87.894173 0 93 16
2021-07-26 23:46:56 GMT 41.971958 -87.894287 0 79 13
2021-07-26 23:46:55 GMT 41.971970 -87.894363 0 78 14
2021-07-26 23:46:53 GMT 41.971931 -87.894524 0 99 13
2021-07-26 23:46:52 GMT 41.971909 -87.894623 0 106 12
2021-07-26 23:46:50 GMT 41.971939 -87.894760 0 104 12
2021-07-26 23:46:49 GMT 41.971931 -87.894836 0 116 12
2021-07-26 23:46:48 GMT 41.971958 -87.894913 0 120 12
2021-07-26 23:46:47 GMT 41.971970 -87.894981 0 125 13
2021-07-26 23:46:45 GMT 41.972031 -87.895142 0 143 11
2021-07-26 23:46:44 GMT 41.972061 -87.895203 0 145 11
2021-07-26 23:46:43 GMT 41.972092 -87.895241 0 144 12
2021-07-26 23:46:41 GMT 41.972179 -87.895317 0 138 13
2021-07-26 23:46:40 GMT 41.972210 -87.895348 0 131 14
2021-07-26 23:46:39 GMT 41.972301 -87.895447 0 115 15
2021-07-26 23:46:37 GMT 41.972340 -87.895500 0 105 17
2021-07-26 23:46:36 GMT 41.972389 -87.895630 0 89 14
2021-07-26 23:46:35 GMT 41.972408 -87.895752 0 88 11
2021-07-26 23:46:34 GMT 41.972408 -87.895844 0 82 10
2021-07-26 23:46:32 GMT 41.972408 -87.895950 0 67 13
2021-07-26 23:46:31 GMT 41.972389 -87.896019 0 67 13
2021-07-26 23:46:29 GMT 41.972370 -87.896156 0 60 16
2021-07-26 23:46:28 GMT 41.972351 -87.896271 0 56 16
2021-07-26 23:46:26 GMT 41.972221 -87.896477 0 64 20
2021-07-26 23:46:24 GMT 41.972172 -87.896599 0 64 19
2021-07-26 23:46:23 GMT 41.972130 -87.896690 0 66 20
2021-07-26 23:46:22 GMT 41.972069 -87.896896 0 64 20
2021-07-26 23:46:20 GMT 41.972038 -87.897034 0 59 20
2021-07-26 23:46:19 GMT 41.972000 -87.897141 0 59 20
2021-07-26 23:46:18 GMT 41.971951 -87.897247 0 57 19
2021-07-26 23:46:16 GMT 41.971870 -87.897430 0 59 23
2021-07-26 23:46:15 GMT 41.971802 -87.897560 0 62 21
2021-07-26 23:46:14 GMT 41.971771 -87.897697 0 57 19
2021-07-26 23:46:13 GMT 41.971649 -87.897888 0 66 20
2021-07-26 23:46:11 GMT 41.971611 -87.897980 0 70 22
2021-07-26 23:46:10 GMT 41.971550 -87.898117 0 77 20
2021-07-26 23:46:09 GMT 41.971539 -87.898247 0 73 19
2021-07-26 23:46:08 GMT 41.971470 -87.898453 0 78 22
2021-07-26 23:46:06 GMT 41.971458 -87.898598 0 75 22
2021-07-26 23:46:05 GMT 41.971432 -87.898750 0 76 20
2021-07-26 23:46:03 GMT 41.971329 -87.898987 0 94 19
2021-07-26 23:46:02 GMT 41.971340 -87.899094 0 93 21
2021-07-26 23:46:00 GMT 41.971371 -87.899330 0 87 23
2021-07-26 23:45:59 GMT 41.971359 -87.899490 0 87 22
2021-07-26 23:45:58 GMT 41.971352 -87.899643 0 90 19
2021-07-26 23:45:56 GMT 41.971352 -87.899887 0 92 20
2021-07-26 23:45:55 GMT 41.971352 -87.900032 0 91 19
2021-07-26 23:45:54 GMT 41.971359 -87.900124 0 90 21
2021-07-26 23:45:52 GMT 41.971390 -87.900391 0 80 20
2021-07-26 23:45:51 GMT 41.971371 -87.900520 0 83 20
2021-07-26 23:45:50 GMT 41.971340 -87.900642 0 87 20
2021-07-26 23:45:49 GMT 41.971321 -87.900879 0 95 19
2021-07-26 23:45:47 GMT 41.971321 -87.900993 0 95 20
2021-07-26 23:45:46 GMT 41.971340 -87.901123 0 90 20
2021-07-26 23:45:45 GMT 41.971352 -87.901222 0 89 23
2021-07-26 23:45:44 GMT 41.971352 -87.901520 0 89 20
2021-07-26 23:45:42 GMT 41.971340 -87.901680 0 89 16
2021-07-26 23:45:41 GMT 41.971340 -87.901833 0 89 22
2021-07-26 23:45:39 GMT 41.971371 -87.902130 0 80 19
2021-07-26 23:45:37 GMT 41.971329 -87.902237 0 85 20
2021-07-26 23:45:36 GMT 41.971310 -87.902367 0 86 18
2021-07-26 23:45:35 GMT 41.971298 -87.902458 0 89 20
2021-07-26 23:45:33 GMT 41.971291 -87.902710 0 96 21
2021-07-26 23:45:32 GMT 41.971298 -87.902832 0 95 22
2021-07-26 23:45:31 GMT 41.971310 -87.903038 0 96 16
2021-07-26 23:45:30 GMT 41.971329 -87.903229 0 92 19
2021-07-26 23:45:28 GMT 41.971340 -87.903358 0 91 17
2021-07-26 23:45:27 GMT 41.971340 -87.903481 0 90 17
2021-07-26 23:45:26 GMT 41.971352 -87.903557 0 90 19
2021-07-26 23:45:24 GMT 41.971340 -87.903793 0 94 19
2021-07-26 23:45:23 GMT 41.971359 -87.903908 0 94 19
2021-07-26 23:45:22 GMT 41.971371 -87.904007 0 95 21
2021-07-26 23:45:20 GMT 41.971371 -87.904282 0 99 19
2021-07-26 23:45:19 GMT 41.971409 -87.904404 0 92 18
2021-07-26 23:45:18 GMT 41.971409 -87.904518 0 92 17
2021-07-26 23:45:17 GMT 41.971420 -87.904610 0 90 18
2021-07-26 23:45:15 GMT 41.971409 -87.904831 0 92 18
2021-07-26 23:45:14 GMT 41.971409 -87.904938 0 93 19
2021-07-26 23:45:12 GMT 41.971420 -87.905182 0 100 16
2021-07-26 23:45:11 GMT 41.971439 -87.905258 0 96 18
2021-07-26 23:45:10 GMT 41.971470 -87.905357 0 91 19
2021-07-26 23:45:08 GMT 41.971500 -87.905609 0 83 17
2021-07-26 23:45:07 GMT 41.971489 -87.905731 0 84 16
2021-07-26 23:45:06 GMT 41.971470 -87.905800 0 89 19
2021-07-26 23:45:05 GMT 41.971470 -87.906059 0 93 18
2021-07-26 23:45:03 GMT 41.971458 -87.906181 0 97 17
2021-07-26 23:45:02 GMT 41.971470 -87.906311 0 98 15
2021-07-26 23:45:01 GMT 41.971481 -87.906471 0 101 18
2021-07-26 23:44:59 GMT 41.971489 -87.906601 0 105 17
2021-07-26 23:44:58 GMT 41.971512 -87.906693 0 103 18
2021-07-26 23:44:57 GMT 41.971519 -87.906792 0 105 17
2021-07-26 23:44:55 GMT 41.971569 -87.907013 0 108 16
2021-07-26 23:44:54 GMT 41.971581 -87.907112 0 112 16
2021-07-26 23:44:52 GMT 41.971642 -87.907288 0 111 16
2021-07-26 23:44:51 GMT 41.971668 -87.907372 0 110 17
2021-07-26 23:44:50 GMT 41.971699 -87.907471 0 111 16
2021-07-26 23:44:48 GMT 41.971729 -87.907654 0 117 17
2021-07-26 23:44:47 GMT 41.971771 -87.907761 0 122 16
2021-07-26 23:44:46 GMT 41.971779 -87.907852 0 129 18
2021-07-26 23:44:45 GMT 41.971840 -87.907959 0 133 15
2021-07-26 23:44:43 GMT 41.971958 -87.908058 0 121 17
2021-07-26 23:44:42 GMT 41.972000 -87.908150 0 122 18
2021-07-26 23:44:40 GMT 41.972092 -87.908363 0 126 13
2021-07-26 23:44:39 GMT 41.972099 -87.908401 0 128 16
2021-07-26 23:44:38 GMT 41.972141 -87.908508 0 136 15
2021-07-26 23:44:37 GMT 41.972191 -87.908569 0 137 15
2021-07-26 23:44:36 GMT 41.972301 -87.908691 0 131 16
2021-07-26 23:44:34 GMT 41.972359 -87.908730 0 123 17
2021-07-26 23:44:33 GMT 41.972382 -87.908836 0 133 18
2021-07-26 23:44:31 GMT 41.972519 -87.909019 0 138 13
2021-07-26 23:44:30 GMT 41.972542 -87.909081 0 142 15
2021-07-26 23:44:29 GMT 41.972591 -87.909119 0 140 16
2021-07-26 23:44:28 GMT 41.972710 -87.909264 0 140 14
2021-07-26 23:44:26 GMT 41.972771 -87.909309 0 135 12
2021-07-26 23:44:25 GMT 41.972790 -87.909370 0 139 14
2021-07-26 23:44:23 GMT 41.972931 -87.909554 0 138 13
2021-07-26 23:44:21 GMT 41.972969 -87.909622 0 140 13
2021-07-26 23:44:20 GMT 41.973019 -87.909637 0 135 15
2021-07-26 23:44:19 GMT 41.973049 -87.909714 0 138 17
2021-07-26 23:44:17 GMT 41.973171 -87.909851 0 139 14
2021-07-26 23:44:16 GMT 41.973228 -87.909920 0 141 13
2021-07-26 23:44:15 GMT 41.973282 -87.909981 0 139 11
2021-07-26 23:44:14 GMT 41.973320 -87.910019 0 135 13
2021-07-26 23:44:12 GMT 41.973419 -87.910118 0 131 12
2021-07-26 23:44:11 GMT 41.973450 -87.910172 0 132 13
2021-07-26 23:44:10 GMT 41.973499 -87.910240 0 136 11
2021-07-26 23:44:09 GMT 41.973518 -87.910301 0 138 12
2021-07-26 23:44:07 GMT 41.973598 -87.910423 0 146 11
2021-07-26 23:44:06 GMT 41.973640 -87.910439 0 139 13
2021-07-26 23:44:05 GMT 41.973709 -87.910454 0 127 14
2021-07-26 23:44:04 GMT 41.973759 -87.910583 0 139 15
2021-07-26 23:44:02 GMT 41.973808 -87.910622 0 137 16
2021-07-26 23:44:01 GMT 41.973869 -87.910667 0 139 14
2021-07-26 23:43:59 GMT 41.973949 -87.910789 0 155 14
2021-07-26 23:43:58 GMT 41.973991 -87.910858 0 168 14
2021-07-26 23:43:57 GMT 41.974060 -87.910889 0 177 13
2021-07-26 23:43:55 GMT 41.974178 -87.910919 0 192 12
2021-07-26 23:43:54 GMT 41.974239 -87.910942 0 204 11
2021-07-26 23:43:53 GMT 41.974300 -87.910919 0 209 10
2021-07-26 23:43:52 GMT 41.974380 -87.910881 0 214 12
2021-07-26 23:43:50 GMT 41.974449 -87.910812 0 211 11
2021-07-26 23:43:49 GMT 41.974468 -87.910782 0 208 12
2021-07-26 23:43:48 GMT 41.974491 -87.910767 0 208 16
2021-07-26 23:43:47 GMT 41.974590 -87.910660 0 199 10
2021-07-26 23:43:45 GMT 41.974682 -87.910599 0 185 11
2021-07-26 23:43:44 GMT 41.974751 -87.910583 0 184 9
2021-07-26 23:43:43 GMT 41.974789 -87.910583 0 182 9
2021-07-26 23:43:41 GMT 41.974819 -87.910583 0 189 15
2021-07-26 23:43:40 GMT 41.974880 -87.910599 0 199 15
2021-07-26 23:43:38 GMT 41.975052 -87.910561 0 223 10
2021-07-26 23:43:37 GMT 41.975090 -87.910507 0 223 10
2021-07-26 23:43:36 GMT 41.975121 -87.910492 0 229 11
2021-07-26 23:43:35 GMT 41.975159 -87.910439 0 237 10
2021-07-26 23:43:34 GMT 41.975220 -87.910400 0 247 9
2021-07-26 23:43:32 GMT 41.975262 -87.910309 0 251 9
2021-07-26 23:43:31 GMT 41.975269 -87.910278 0 246 12
2021-07-26 23:43:29 GMT 41.975311 -87.910080 0 199 5
2021-07-26 23:43:28 GMT 41.975311 -87.910042 0 183 6
2021-07-26 23:43:27 GMT 41.975361 -87.909866 0 160 2
2021-07-26 23:43:24 GMT 41.975361 -87.909889 0 159 2
2021-07-26 23:43:23 GMT 41.975361 -87.909882 0 158 2
2021-07-26 23:43:21 GMT 41.975380 -87.909828 0 156 0
2021-07-26 23:43:20 GMT 41.975380 -87.909843 0 156 1
2021-07-26 23:43:19 GMT 41.975399 -87.909767 0 156 0
2021-07-26 23:43:17 GMT 41.975391 -87.909790 0 156 0
2021-07-26 23:43:16 GMT 41.975460 -87.909683 0 159 3
2021-07-26 23:43:15 GMT 41.975460 -87.909714 0 160 3
2021-07-26 23:43:13 GMT 41.975441 -87.909737 0 160 2
2021-07-26 23:43:10 GMT 41.975410 -87.909798 0 161 1
2021-07-26 23:43:09 GMT 41.975410 -87.909821 0 164 1
2021-07-26 23:43:08 GMT 41.975399 -87.909821 0 164 1
2021-07-26 23:43:07 GMT 41.975410 -87.909843 0 164 1
2021-07-26 23:43:05 GMT 41.975380 -87.909798 0 165 1
2021-07-26 23:43:04 GMT 41.975349 -87.909767 0 167 3
2021-07-26 23:43:03 GMT 41.975361 -87.909790 0 168 3
2021-07-26 23:43:02 GMT 41.975368 -87.909798 0 168 3
2021-07-26 23:43:00 GMT 41.975410 -87.909782 0 168 0
2021-07-26 23:42:58 GMT 41.975399 -87.909798 0 168 0
2021-07-26 23:42:57 GMT 41.975391 -87.909813 0 168 0
2021-07-26 23:42:55 GMT 41.975391 -87.909798 0 168 0
2021-07-26 23:42:54 GMT 41.975391 -87.909813 0 168 0
2021-07-26 23:42:53 GMT 41.975399 -87.909813 0 168 0
2021-07-26 23:42:50 GMT 41.975391 -87.909790 0 168 0
2021-07-26 23:42:48 GMT 41.975399 -87.909782 0 167 0
2021-07-26 23:42:46 GMT 41.975391 -87.909698 0 166 1
2021-07-26 23:42:45 GMT 41.975399 -87.909752 0 166 0
2021-07-26 23:42:43 GMT 41.975399 -87.909767 0 164 1
2021-07-26 23:42:42 GMT 41.975410 -87.909714 0 161 1
2021-07-26 23:42:41 GMT 41.975410 -87.909698 0 161 1
2021-07-26 23:42:39 GMT 41.975422 -87.909637 0 161 0
2021-07-26 23:42:38 GMT 41.975399 -87.909698 0 161 0
2021-07-26 23:42:36 GMT 41.975430 -87.909622 0 160 0
2021-07-26 23:42:35 GMT 41.975422 -87.909630 0 160 0
2021-07-26 23:42:33 GMT 41.975430 -87.909630 0 160 0
2021-07-26 23:42:31 GMT 41.975422 -87.909630 0 161 0
2021-07-26 23:42:29 GMT 41.975422 -87.909668 0 161 0
2021-07-26 23:42:27 GMT 41.975422 -87.909637 0 162 1
2021-07-26 23:42:26 GMT 41.975410 -87.909668 0 162 0
2021-07-26 23:42:23 GMT 41.975399 -87.909721 0 165 1
2021-07-26 23:42:22 GMT 41.975410 -87.909698 0 167 1
2021-07-26 23:42:21 GMT 41.975399 -87.909729 0 168 1
2021-07-26 23:42:20 GMT 41.975399 -87.909760 0 169 1
2021-07-26 23:42:19 GMT 41.975391 -87.909767 0 170 1
2021-07-26 23:42:17 GMT 41.975391 -87.909798 0 173 1
2021-07-26 23:42:16 GMT 41.975430 -87.909767 0 175 2
2021-07-26 23:42:15 GMT 41.975422 -87.909790 0 178 2
2021-07-26 23:42:13 GMT 41.975410 -87.909798 0 178 2
2021-07-26 23:42:12 GMT 41.975391 -87.909828 0 178 1
2021-07-26 23:42:10 GMT 41.975361 -87.909843 0 175 3
2021-07-26 23:42:09 GMT 41.975391 -87.909821 0 169 2
2021-07-26 23:42:08 GMT 41.975391 -87.909798 0 166 1
2021-07-26 23:42:07 GMT 41.975391 -87.909760 0 166 1
2021-07-26 23:42:05 GMT 41.975391 -87.909737 0 172 3
2021-07-26 23:42:04 GMT 41.975391 -87.909790 0 173 0
2021-07-26 23:42:02 GMT 41.975391 -87.909813 0 173 0
2021-07-26 23:42:00 GMT 41.975380 -87.909821 0 173 0
2021-07-26 23:41:58 GMT 41.975391 -87.909821 0 172 1
2021-07-26 23:41:57 GMT 41.975391 -87.909813 0 172 0
2021-07-26 23:41:56 GMT 41.975399 -87.909821 0 172 1
2021-07-26 23:41:55 GMT 41.975391 -87.909813 0 172 1
2021-07-26 23:41:53 GMT 41.975391 -87.909767 0 174 1
2021-07-26 23:41:52 GMT 41.975391 -87.909782 0 176 1
2021-07-26 23:41:51 GMT 41.975380 -87.909767 0 177 2
2021-07-26 23:41:49 GMT 41.975349 -87.909721 0 196 6
2021-07-26 23:41:48 GMT 41.975361 -87.909767 0 250 4
2021-07-26 23:41:47 GMT 41.975380 -87.909798 0 252 2
2021-07-26 23:41:46 GMT 41.975380 -87.909828 0 253 2
2021-07-26 23:41:44 GMT 41.975380 -87.909821 0 254 3
2021-07-26 23:41:43 GMT 41.975410 -87.909790 0 245 3
2021-07-26 23:41:42 GMT 41.975361 -87.909752 0 242 6
2021-07-26 23:41:40 GMT 41.975391 -87.909714 0 252 5
2021-07-26 23:41:39 GMT 41.975422 -87.909691 0 257 6
2021-07-26 23:41:38 GMT 41.975410 -87.909668 0 260 9
2021-07-26 23:41:37 GMT 41.975460 -87.909653 0 260 11
2021-07-26 23:41:35 GMT 41.975441 -87.909607 0 255 17
2021-07-26 23:41:34 GMT 41.975471 -87.909492 0 255 15
2021-07-26 23:41:33 GMT 41.975491 -87.909370 0 242 13
2021-07-26 23:41:31 GMT 41.975521 -87.909157 0 222 9
2021-07-26 23:41:30 GMT 41.975521 -87.909081 0 221 10
2021-07-26 23:41:29 GMT 41.975578 -87.909103 0 221 11
2021-07-26 23:41:28 GMT 41.975590 -87.908997 0 207 11
2021-07-26 23:41:26 GMT 41.975658 -87.908890 0 195 10
2021-07-26 23:41:25 GMT 41.975700 -87.908859 0 190 11
2021-07-26 23:41:23 GMT 41.975811 -87.908882 0 193 13
2021-07-26 23:41:22 GMT 41.975868 -87.908859 0 193 13
2021-07-26 23:41:21 GMT 41.975941 -87.908821 0 191 13
2021-07-26 23:41:19 GMT 41.976059 -87.908798 0 189 13
2021-07-26 23:41:18 GMT 41.976120 -87.908783 0 191 13
2021-07-26 23:41:16 GMT 41.976200 -87.908661 0 174 17
2021-07-26 23:41:15 GMT 41.976311 -87.908722 0 183 14
2021-07-26 23:41:14 GMT 41.976379 -87.908699 0 180 13
2021-07-26 23:41:13 GMT 41.976460 -87.908669 0 179 11
2021-07-26 23:41:11 GMT 41.976528 -87.908691 0 184 15
2021-07-26 23:41:10 GMT 41.976601 -87.908699 0 188 16
2021-07-26 23:41:09 GMT 41.976669 -87.908707 0 192 15
2021-07-26 23:41:07 GMT 41.976871 -87.908707 0 193 11
2021-07-26 23:41:06 GMT 41.976891 -87.908661 0 183 12
2021-07-26 23:41:05 GMT 41.976929 -87.908546 0 171 13
2021-07-26 23:41:04 GMT 41.976978 -87.908524 0 167 14
2021-07-26 23:41:02 GMT 41.977112 -87.908569 0 177 14
2021-07-26 23:41:01 GMT 41.977150 -87.908524 0 175 16
2021-07-26 23:41:00 GMT 41.977242 -87.908592 0 189 14
2021-07-26 23:40:58 GMT 41.977379 -87.908691 0 211 15
2021-07-26 23:40:57 GMT 41.977428 -87.908630 0 208 15
2021-07-26 23:40:56 GMT 41.977482 -87.908539 0 198 14
2021-07-26 23:40:55 GMT 41.977558 -87.908493 0 198 12
2021-07-26 23:40:54 GMT 41.977612 -87.908501 0 201 14
2021-07-26 23:40:52 GMT 41.977699 -87.908470 0 201 16
2021-07-26 23:40:51 GMT 41.977779 -87.908508 0 211 17
2021-07-26 23:40:50 GMT 41.977852 -87.908440 0 205 15
2021-07-26 23:40:49 GMT 41.977909 -87.908379 0 192 14
2021-07-26 23:40:47 GMT 41.978039 -87.908203 0 153 13
2021-07-26 23:40:46 GMT 41.978081 -87.908218 0 151 14
2021-07-26 23:40:45 GMT 41.978130 -87.908249 0 151 15
2021-07-26 23:40:43 GMT 41.978310 -87.908386 0 132 14
2021-07-26 23:40:42 GMT 41.978371 -87.908218 0 129 19
2021-07-26 23:40:41 GMT 41.978409 -87.908241 0 129 20
2021-07-26 23:40:40 GMT 41.978458 -87.908318 0 131 20
2021-07-26 23:40:39 GMT 41.978619 -87.908684 0 146 10
2021-07-26 23:40:37 GMT 41.978630 -87.908661 0 147 15
2021-07-26 23:40:36 GMT 41.978642 -87.908699 0 157 15
2021-07-26 23:40:35 GMT 41.978722 -87.908783 0 171 12
2021-07-26 23:40:34 GMT 41.978821 -87.908867 0 185 11
2021-07-26 23:40:32 GMT 41.978870 -87.908867 0 188 11
2021-07-26 23:40:31 GMT 41.978920 -87.908821 0 199 10
2021-07-26 23:40:30 GMT 41.979019 -87.908913 0 222 12
2021-07-26 23:40:28 GMT 41.979141 -87.908989 0 226 13
2021-07-26 23:40:27 GMT 41.979172 -87.908920 0 221 14
2021-07-26 23:40:25 GMT 41.979198 -87.908623 0 194 11
2021-07-26 23:40:24 GMT 41.979252 -87.908577 0 196 11
2021-07-26 23:40:23 GMT 41.979301 -87.908569 0 198 11
2021-07-26 23:40:22 GMT 41.979340 -87.908577 0 205 12
2021-07-26 23:40:20 GMT 41.979450 -87.908600 0 201 13
2021-07-26 23:40:19 GMT 41.979511 -87.908546 0 197 12
2021-07-26 23:40:17 GMT 41.979622 -87.908440 0 177 10
2021-07-26 23:40:15 GMT 41.979679 -87.908310 0 158 13
2021-07-26 23:40:14 GMT 41.979790 -87.908440 0 169 13
2021-07-26 23:40:12 GMT 41.979851 -87.908447 0 170 13
2021-07-26 23:40:11 GMT 41.979889 -87.908478 0 173 14
2021-07-26 23:40:10 GMT 41.979950 -87.908493 0 177 13
2021-07-26 23:40:08 GMT 41.980122 -87.908562 0 181 11
2021-07-26 23:40:07 GMT 41.980190 -87.908638 0 174 11
2021-07-26 23:40:06 GMT 41.980240 -87.908623 0 167 11
2021-07-26 23:40:04 GMT 41.980461 -87.908684 0 43 6
2021-07-26 23:40:03 GMT 41.980591 -87.908638 0 43 3
2021-07-26 23:40:02 GMT 41.980598 -87.908623 0 45 3
2021-07-26 23:40:01 GMT 41.980598 -87.908592 0 47 3
2021-07-26 23:39:59 GMT 41.980659 -87.908569 0 48 2
2021-07-26 23:39:57 GMT 41.980671 -87.908539 0 46 1
2021-07-26 23:39:56 GMT 41.980671 -87.908531 0 45 1
2021-07-26 23:39:53 GMT 41.980701 -87.908508 0 43 0
2021-07-26 23:39:52 GMT 41.980709 -87.908508 0 43 0
2021-07-26 23:39:51 GMT 41.980701 -87.908508 0 44 0
2021-07-26 23:39:48 GMT 41.980701 -87.908501 0 45 0
2021-07-26 23:39:47 GMT 41.980701 -87.908493 0 45 0
2021-07-26 23:39:46 GMT 41.980690 -87.908493 0 45 0
2021-07-26 23:39:45 GMT 41.980701 -87.908493 0 45 0
2021-07-26 23:39:43 GMT 41.980701 -87.908493 0 45 0
2021-07-26 23:39:42 GMT 41.980690 -87.908478 0 45 0
2021-07-26 23:39:41 GMT 41.980690 -87.908493 0 45 0
2021-07-26 23:39:39 GMT 41.980701 -87.908501 0 45 0
2021-07-26 23:39:38 GMT 41.980690 -87.908493 0 45 0
2021-07-26 23:39:37 GMT 41.980701 -87.908501 0 45 0
2021-07-26 23:39:35 GMT 41.980701 -87.908501 0 45 0
2021-07-26 23:39:32 GMT 41.980690 -87.908493 0 44 0
2021-07-26 23:39:30 GMT 41.980701 -87.908501 0 44 0
2021-07-26 23:39:28 GMT 41.980709 -87.908524 0 46 1
2021-07-26 23:39:26 GMT 41.980701 -87.908493 0 47 0
2021-07-26 23:39:25 GMT 41.980690 -87.908493 0 47 0
2021-07-26 23:39:19 GMT 41.980690 -87.908478 0 44 0
2021-07-26 23:39:17 GMT 41.980690 -87.908493 0 44 0
2021-07-26 23:39:16 GMT 41.980701 -87.908501 0 44 0
2021-07-26 23:39:15 GMT 41.980690 -87.908493 0 44 0
2021-07-26 23:39:14 GMT 41.980701 -87.908493 0 44 0
2021-07-26 23:39:11 GMT 41.980709 -87.908524 0 45 0
2021-07-26 23:39:10 GMT 41.980709 -87.908508 0 46 1
2021-07-26 23:39:08 GMT 41.980701 -87.908493 0 48 0
2021-07-26 23:39:01 GMT 41.980690 -87.908478 0 47 0
2021-07-26 23:39:00 GMT 41.980701 -87.908493 0 47 0
2021-07-26 23:38:58 GMT 41.980709 -87.908524 0 48 1
2021-07-26 23:38:51 GMT 41.980690 -87.908493 0 46 0
2021-07-26 23:38:50 GMT 41.980701 -87.908493 0 45 0
2021-07-26 23:38:44 GMT 41.980701 -87.908501 0 45 0
2021-07-26 23:38:43 GMT 41.980701 -87.908501 0 45 0
2021-07-26 23:38:23 GMT 41.980701 -87.908501 0 39 0
2021-07-26 23:38:20 GMT 41.980591 -87.908669 0 38 0
2021-07-26 23:37:48 GMT 41.980701 -87.908501 0 19 0
2021-07-26 23:37:45 GMT 41.980587 -87.908653 0 18 0
2021-07-26 23:37:33 GMT 41.980701 -87.908501 0 6 0
2021-07-26 23:37:30 GMT 41.980587 -87.908653 0 4 0
2021-07-26 23:37:19 GMT 41.980701 -87.908501 0 6 0
2021-07-26 23:37:16 GMT 41.980587 -87.908653 0 236 0
2021-07-26 23:37:11 GMT 41.980701 -87.908501 0 13 0
2021-07-26 23:37:10 GMT 41.980679 -87.908524 0 13 0
2021-07-26 23:37:08 GMT 41.980629 -87.908600 0 13 0
2021-07-26 23:37:07 GMT 41.980579 -87.908669 0 13 0
2021-07-26 23:37:04 GMT 41.980572 -87.908684 0 13 0
2021-07-26 23:37:02 GMT 41.980621 -87.908623 0 13 0
2021-07-26 23:37:01 GMT 41.980610 -87.908638 0 13 0
2021-07-26 23:37:00 GMT 41.980598 -87.908653 0 13 0
2021-07-26 23:36:59 GMT 41.980640 -87.908569 0 13 0
2021-07-26 23:36:56 GMT 41.980591 -87.908646 0 236 0
2021-07-26 23:36:42 GMT 41.980587 -87.908669 0 236 1

Making use of Plane Finder data

You are free to use the raw flight data, aircraft information and images provided in this report for your own purposes provided the data is correctly attributed to Plane Finder. We ask that you please credit Plane Finder and link to planefinder.net in close proximity to the content.

Optionally one of the following logos (no smaller then 150x24px) can be used and must link to planefinder.net

Embedding the Plane Finder map

You are welcome to embed the Plane Finder playback map on your website to offer visitors a more interactive experience. We suggest using the following HTML code:

<iframe src="//planefinder.net/data/report/UA2041-N38454-7700-squawk-2021-07-27/map" width="800" height="600" seamless="seamless"></iframe>

Where our data comes from

Plane Finder has a global network of data feeds and antenna radars that receive data broadcast directly from aircraft. The primary technologies used are ADS-B and MLAT. We also show feeds from the FAA and a FLARM glider feed.

Click here to find out more about the Plane Finder network.

How we collect our data